<?xml version="1.0" encoding="UTF-8" standalone="no" ?>
<gpx xmlns="http://www.topografix.com/GPX/1/1" xmlns:xsi="http://www.w3.org/2001/XMLSchema-instance" xsi:schemaLocation="http://www.topografix.com/GPX/1/1 http://www.topografix.com/GPX/1/1/gpx.xsd" version="1.1" creator="VisuGPX - https://www.visugpx.com">
  <metadata>
    <name>2016-11-20 18ème ronde du Gaillac Primeur</name>
    <desc><![CDATA[2016-11-20 18ème ronde du Gaillac Primeur]]></desc>
  </metadata>
  <trk>
    <name><![CDATA[2016-11-20 18:12:08]]></name>
    <trkseg>
      <trkpt lat="43.85228" lon="1.99092">
        <ele>171.73</ele>
        <time>2016-11-20T08:40:43Z</time>
      </trkpt>
      <trkpt lat="43.85229" lon="1.99094">
        <ele>171.73</ele>
        <time>2016-11-20T08:41:04Z</time>
      </trkpt>
      <trkpt lat="43.8523" lon="1.9909">
        <ele>171.73</ele>
        <time>2016-11-20T08:41:19Z</time>
      </trkpt>
      <trkpt lat="43.85242" lon="1.99078">
        <ele>171.73</ele>
        <time>2016-11-20T08:41:37Z</time>
      </trkpt>
      <trkpt lat="43.85253" lon="1.99082">
        <ele>171.73</ele>
        <time>2016-11-20T08:41:50Z</time>
      </trkpt>
      <trkpt lat="43.85255" lon="1.99087">
        <ele>171.73</ele>
        <time>2016-11-20T08:41:53Z</time>
      </trkpt>
      <trkpt lat="43.85259" lon="1.99114">
        <ele>171.25</ele>
        <time>2016-11-20T08:42:11Z</time>
      </trkpt>
      <trkpt lat="43.85261" lon="1.99136">
        <ele>171.73</ele>
        <time>2016-11-20T08:42:27Z</time>
      </trkpt>
      <trkpt lat="43.85261" lon="1.99138">
        <ele>171.73</ele>
        <time>2016-11-20T08:42:28Z</time>
      </trkpt>
      <trkpt lat="43.85268" lon="1.99145">
        <ele>171.25</ele>
        <time>2016-11-20T08:42:35Z</time>
      </trkpt>
      <trkpt lat="43.85276" lon="1.99145">
        <ele>171.73</ele>
        <time>2016-11-20T08:42:46Z</time>
      </trkpt>
      <trkpt lat="43.85286" lon="1.99144">
        <ele>171.73</ele>
        <time>2016-11-20T08:42:56Z</time>
      </trkpt>
      <trkpt lat="43.85288" lon="1.99143">
        <ele>171.73</ele>
        <time>2016-11-20T08:42:58Z</time>
      </trkpt>
      <trkpt lat="43.85295" lon="1.99138">
        <ele>171.73</ele>
        <time>2016-11-20T08:43:06Z</time>
      </trkpt>
      <trkpt lat="43.85299" lon="1.99133">
        <ele>172.21</ele>
        <time>2016-11-20T08:43:11Z</time>
      </trkpt>
      <trkpt lat="43.85313" lon="1.99114">
        <ele>171.73</ele>
        <time>2016-11-20T08:43:28Z</time>
      </trkpt>
      <trkpt lat="43.85325" lon="1.99096">
        <ele>172.21</ele>
        <time>2016-11-20T08:43:44Z</time>
      </trkpt>
      <trkpt lat="43.85335" lon="1.99078">
        <ele>173.17</ele>
        <time>2016-11-20T08:43:58Z</time>
      </trkpt>
      <trkpt lat="43.85349" lon="1.99057">
        <ele>173.17</ele>
        <time>2016-11-20T08:44:15Z</time>
      </trkpt>
      <trkpt lat="43.85361" lon="1.99037">
        <ele>173.17</ele>
        <time>2016-11-20T08:44:31Z</time>
      </trkpt>
      <trkpt lat="43.85375" lon="1.99017">
        <ele>173.66</ele>
        <time>2016-11-20T08:44:48Z</time>
      </trkpt>
      <trkpt lat="43.85389" lon="1.98996">
        <ele>173.66</ele>
        <time>2016-11-20T08:45:05Z</time>
      </trkpt>
      <trkpt lat="43.85402" lon="1.98978">
        <ele>173.66</ele>
        <time>2016-11-20T08:45:21Z</time>
      </trkpt>
      <trkpt lat="43.85415" lon="1.98958">
        <ele>173.66</ele>
        <time>2016-11-20T08:45:38Z</time>
      </trkpt>
      <trkpt lat="43.85416" lon="1.98957">
        <ele>174.14</ele>
        <time>2016-11-20T08:45:39Z</time>
      </trkpt>
      <trkpt lat="43.85421" lon="1.98949">
        <ele>173.66</ele>
        <time>2016-11-20T08:45:46Z</time>
      </trkpt>
      <trkpt lat="43.85425" lon="1.98945">
        <ele>173.66</ele>
        <time>2016-11-20T08:45:51Z</time>
      </trkpt>
      <trkpt lat="43.85439" lon="1.98928">
        <ele>173.17</ele>
        <time>2016-11-20T08:46:07Z</time>
      </trkpt>
      <trkpt lat="43.85448" lon="1.98914">
        <ele>173.66</ele>
        <time>2016-11-20T08:46:20Z</time>
      </trkpt>
      <trkpt lat="43.85459" lon="1.98894">
        <ele>173.66</ele>
        <time>2016-11-20T08:46:36Z</time>
      </trkpt>
      <trkpt lat="43.85469" lon="1.98872">
        <ele>173.66</ele>
        <time>2016-11-20T08:46:53Z</time>
      </trkpt>
      <trkpt lat="43.85476" lon="1.98857">
        <ele>173.66</ele>
        <time>2016-11-20T08:47:05Z</time>
      </trkpt>
      <trkpt lat="43.85485" lon="1.98838">
        <ele>173.17</ele>
        <time>2016-11-20T08:47:20Z</time>
      </trkpt>
      <trkpt lat="43.8549" lon="1.98831">
        <ele>172.69</ele>
        <time>2016-11-20T08:47:26Z</time>
      </trkpt>
      <trkpt lat="43.85501" lon="1.98829">
        <ele>172.69</ele>
        <time>2016-11-20T08:47:41Z</time>
      </trkpt>
      <trkpt lat="43.85502" lon="1.98827">
        <ele>172.69</ele>
        <time>2016-11-20T08:47:52Z</time>
      </trkpt>
      <trkpt lat="43.85499" lon="1.98831">
        <ele>173.17</ele>
        <time>2016-11-20T08:48:48Z</time>
      </trkpt>
      <trkpt lat="43.85499" lon="1.98832">
        <ele>173.17</ele>
        <time>2016-11-20T08:49:11Z</time>
      </trkpt>
      <trkpt lat="43.855" lon="1.98833">
        <ele>173.17</ele>
        <time>2016-11-20T08:49:28Z</time>
      </trkpt>
      <trkpt lat="43.85498" lon="1.98832">
        <ele>173.17</ele>
        <time>2016-11-20T08:49:52Z</time>
      </trkpt>
      <trkpt lat="43.85502" lon="1.98831">
        <ele>173.17</ele>
        <time>2016-11-20T08:50:00Z</time>
      </trkpt>
      <trkpt lat="43.85504" lon="1.98831">
        <ele>173.17</ele>
        <time>2016-11-20T08:50:02Z</time>
      </trkpt>
      <trkpt lat="43.85509" lon="1.9883">
        <ele>173.17</ele>
        <time>2016-11-20T08:50:06Z</time>
      </trkpt>
      <trkpt lat="43.85511" lon="1.98831">
        <ele>173.17</ele>
        <time>2016-11-20T08:50:08Z</time>
      </trkpt>
      <trkpt lat="43.85528" lon="1.98832">
        <ele>173.17</ele>
        <time>2016-11-20T08:50:24Z</time>
      </trkpt>
      <trkpt lat="43.85545" lon="1.9883">
        <ele>172.69</ele>
        <time>2016-11-20T08:50:41Z</time>
      </trkpt>
      <trkpt lat="43.85563" lon="1.98825">
        <ele>173.17</ele>
        <time>2016-11-20T08:50:58Z</time>
      </trkpt>
      <trkpt lat="43.85585" lon="1.98823">
        <ele>173.17</ele>
        <time>2016-11-20T08:51:18Z</time>
      </trkpt>
      <trkpt lat="43.85589" lon="1.98822">
        <ele>173.17</ele>
        <time>2016-11-20T08:51:21Z</time>
      </trkpt>
      <trkpt lat="43.85608" lon="1.98826">
        <ele>173.17</ele>
        <time>2016-11-20T08:51:38Z</time>
      </trkpt>
      <trkpt lat="43.85628" lon="1.98833">
        <ele>173.17</ele>
        <time>2016-11-20T08:51:56Z</time>
      </trkpt>
      <trkpt lat="43.85641" lon="1.98845">
        <ele>173.17</ele>
        <time>2016-11-20T08:52:11Z</time>
      </trkpt>
      <trkpt lat="43.85654" lon="1.98866">
        <ele>173.17</ele>
        <time>2016-11-20T08:52:29Z</time>
      </trkpt>
      <trkpt lat="43.85666" lon="1.98882">
        <ele>173.66</ele>
        <time>2016-11-20T08:52:43Z</time>
      </trkpt>
      <trkpt lat="43.85682" lon="1.989">
        <ele>173.66</ele>
        <time>2016-11-20T08:53:00Z</time>
      </trkpt>
      <trkpt lat="43.85695" lon="1.98915">
        <ele>174.14</ele>
        <time>2016-11-20T08:53:14Z</time>
      </trkpt>
      <trkpt lat="43.85712" lon="1.98931">
        <ele>174.62</ele>
        <time>2016-11-20T08:53:31Z</time>
      </trkpt>
      <trkpt lat="43.85731" lon="1.98946">
        <ele>175.1</ele>
        <time>2016-11-20T08:53:49Z</time>
      </trkpt>
      <trkpt lat="43.85751" lon="1.98962">
        <ele>176.06</ele>
        <time>2016-11-20T08:54:08Z</time>
      </trkpt>
      <trkpt lat="43.8577" lon="1.98975">
        <ele>176.54</ele>
        <time>2016-11-20T08:54:27Z</time>
      </trkpt>
      <trkpt lat="43.85789" lon="1.98986">
        <ele>177.5</ele>
        <time>2016-11-20T08:54:44Z</time>
      </trkpt>
      <trkpt lat="43.85808" lon="1.99">
        <ele>178.46</ele>
        <time>2016-11-20T08:55:03Z</time>
      </trkpt>
      <trkpt lat="43.85828" lon="1.99011">
        <ele>179.42</ele>
        <time>2016-11-20T08:55:21Z</time>
      </trkpt>
      <trkpt lat="43.85846" lon="1.99025">
        <ele>180.38</ele>
        <time>2016-11-20T08:55:40Z</time>
      </trkpt>
      <trkpt lat="43.85859" lon="1.99041">
        <ele>181.83</ele>
        <time>2016-11-20T08:55:57Z</time>
      </trkpt>
      <trkpt lat="43.85871" lon="1.9906">
        <ele>183.27</ele>
        <time>2016-11-20T08:56:14Z</time>
      </trkpt>
      <trkpt lat="43.85881" lon="1.9908">
        <ele>184.71</ele>
        <time>2016-11-20T08:56:30Z</time>
      </trkpt>
      <trkpt lat="43.85888" lon="1.99105">
        <ele>186.15</ele>
        <time>2016-11-20T08:56:47Z</time>
      </trkpt>
      <trkpt lat="43.85889" lon="1.99109">
        <ele>186.63</ele>
        <time>2016-11-20T08:56:51Z</time>
      </trkpt>
      <trkpt lat="43.85893" lon="1.99139">
        <ele>188.08</ele>
        <time>2016-11-20T08:57:08Z</time>
      </trkpt>
      <trkpt lat="43.85896" lon="1.99166">
        <ele>189.04</ele>
        <time>2016-11-20T08:57:24Z</time>
      </trkpt>
      <trkpt lat="43.859" lon="1.99195">
        <ele>190</ele>
        <time>2016-11-20T08:57:42Z</time>
      </trkpt>
      <trkpt lat="43.85902" lon="1.99204">
        <ele>190.48</ele>
        <time>2016-11-20T08:57:49Z</time>
      </trkpt>
      <trkpt lat="43.85906" lon="1.9923">
        <ele>191.92</ele>
        <time>2016-11-20T08:58:07Z</time>
      </trkpt>
      <trkpt lat="43.8591" lon="1.99256">
        <ele>192.88</ele>
        <time>2016-11-20T08:58:25Z</time>
      </trkpt>
      <trkpt lat="43.85914" lon="1.99278">
        <ele>194.32</ele>
        <time>2016-11-20T08:58:42Z</time>
      </trkpt>
      <trkpt lat="43.85918" lon="1.99306">
        <ele>195.28</ele>
        <time>2016-11-20T08:58:58Z</time>
      </trkpt>
      <trkpt lat="43.85922" lon="1.99334">
        <ele>196.25</ele>
        <time>2016-11-20T08:59:15Z</time>
      </trkpt>
      <trkpt lat="43.85929" lon="1.9936">
        <ele>196.73</ele>
        <time>2016-11-20T08:59:32Z</time>
      </trkpt>
      <trkpt lat="43.85941" lon="1.99379">
        <ele>197.21</ele>
        <time>2016-11-20T08:59:47Z</time>
      </trkpt>
      <trkpt lat="43.85955" lon="1.99393">
        <ele>198.17</ele>
        <time>2016-11-20T09:00:03Z</time>
      </trkpt>
      <trkpt lat="43.85972" lon="1.99407">
        <ele>199.61</ele>
        <time>2016-11-20T09:00:21Z</time>
      </trkpt>
      <trkpt lat="43.85989" lon="1.99418">
        <ele>201.05</ele>
        <time>2016-11-20T09:00:37Z</time>
      </trkpt>
      <trkpt lat="43.86008" lon="1.99429">
        <ele>202.49</ele>
        <time>2016-11-20T09:00:56Z</time>
      </trkpt>
      <trkpt lat="43.86022" lon="1.99437">
        <ele>204.42</ele>
        <time>2016-11-20T09:01:12Z</time>
      </trkpt>
      <trkpt lat="43.86038" lon="1.99445">
        <ele>206.34</ele>
        <time>2016-11-20T09:01:29Z</time>
      </trkpt>
      <trkpt lat="43.86055" lon="1.9946">
        <ele>208.74</ele>
        <time>2016-11-20T09:01:48Z</time>
      </trkpt>
      <trkpt lat="43.86069" lon="1.99474">
        <ele>210.67</ele>
        <time>2016-11-20T09:02:06Z</time>
      </trkpt>
      <trkpt lat="43.86086" lon="1.99493">
        <ele>212.59</ele>
        <time>2016-11-20T09:02:26Z</time>
      </trkpt>
      <trkpt lat="43.86101" lon="1.99508">
        <ele>214.03</ele>
        <time>2016-11-20T09:02:42Z</time>
      </trkpt>
      <trkpt lat="43.86117" lon="1.99529">
        <ele>215.95</ele>
        <time>2016-11-20T09:03:01Z</time>
      </trkpt>
      <trkpt lat="43.86132" lon="1.99547">
        <ele>217.88</ele>
        <time>2016-11-20T09:03:19Z</time>
      </trkpt>
      <trkpt lat="43.86137" lon="1.99554">
        <ele>218.36</ele>
        <time>2016-11-20T09:03:26Z</time>
      </trkpt>
      <trkpt lat="43.86145" lon="1.99551">
        <ele>218.84</ele>
        <time>2016-11-20T09:03:36Z</time>
      </trkpt>
      <trkpt lat="43.8616" lon="1.99545">
        <ele>219.32</ele>
        <time>2016-11-20T09:03:52Z</time>
      </trkpt>
      <trkpt lat="43.86176" lon="1.99538">
        <ele>219.8</ele>
        <time>2016-11-20T09:04:09Z</time>
      </trkpt>
      <trkpt lat="43.86194" lon="1.99532">
        <ele>219.8</ele>
        <time>2016-11-20T09:04:25Z</time>
      </trkpt>
      <trkpt lat="43.86209" lon="1.99534">
        <ele>221.72</ele>
        <time>2016-11-20T09:04:40Z</time>
      </trkpt>
      <trkpt lat="43.86225" lon="1.99526">
        <ele>222.2</ele>
        <time>2016-11-20T09:04:57Z</time>
      </trkpt>
      <trkpt lat="43.86239" lon="1.99517">
        <ele>222.2</ele>
        <time>2016-11-20T09:05:12Z</time>
      </trkpt>
      <trkpt lat="43.86254" lon="1.99511">
        <ele>222.2</ele>
        <time>2016-11-20T09:05:28Z</time>
      </trkpt>
      <trkpt lat="43.8627" lon="1.9951">
        <ele>222.68</ele>
        <time>2016-11-20T09:05:42Z</time>
      </trkpt>
      <trkpt lat="43.86284" lon="1.99512">
        <ele>223.16</ele>
        <time>2016-11-20T09:05:58Z</time>
      </trkpt>
      <trkpt lat="43.86301" lon="1.99515">
        <ele>224.12</ele>
        <time>2016-11-20T09:06:17Z</time>
      </trkpt>
      <trkpt lat="43.86315" lon="1.99508">
        <ele>225.09</ele>
        <time>2016-11-20T09:06:32Z</time>
      </trkpt>
      <trkpt lat="43.86329" lon="1.99504">
        <ele>226.53</ele>
        <time>2016-11-20T09:06:49Z</time>
      </trkpt>
      <trkpt lat="43.86341" lon="1.99498">
        <ele>227.97</ele>
        <time>2016-11-20T09:07:05Z</time>
      </trkpt>
      <trkpt lat="43.86353" lon="1.99494">
        <ele>229.41</ele>
        <time>2016-11-20T09:07:19Z</time>
      </trkpt>
      <trkpt lat="43.86365" lon="1.99495">
        <ele>230.85</ele>
        <time>2016-11-20T09:07:35Z</time>
      </trkpt>
      <trkpt lat="43.86376" lon="1.99498">
        <ele>231.81</ele>
        <time>2016-11-20T09:07:50Z</time>
      </trkpt>
      <trkpt lat="43.8639" lon="1.99491">
        <ele>232.3</ele>
        <time>2016-11-20T09:08:06Z</time>
      </trkpt>
      <trkpt lat="43.86405" lon="1.99492">
        <ele>232.3</ele>
        <time>2016-11-20T09:08:23Z</time>
      </trkpt>
      <trkpt lat="43.86424" lon="1.99495">
        <ele>233.26</ele>
        <time>2016-11-20T09:08:38Z</time>
      </trkpt>
      <trkpt lat="43.86437" lon="1.99493">
        <ele>234.22</ele>
        <time>2016-11-20T09:08:53Z</time>
      </trkpt>
      <trkpt lat="43.86456" lon="1.99495">
        <ele>235.18</ele>
        <time>2016-11-20T09:09:09Z</time>
      </trkpt>
      <trkpt lat="43.86473" lon="1.99495">
        <ele>234.22</ele>
        <time>2016-11-20T09:09:27Z</time>
      </trkpt>
      <trkpt lat="43.86491" lon="1.995">
        <ele>234.22</ele>
        <time>2016-11-20T09:09:44Z</time>
      </trkpt>
      <trkpt lat="43.8651" lon="1.99512">
        <ele>233.74</ele>
        <time>2016-11-20T09:10:00Z</time>
      </trkpt>
      <trkpt lat="43.8652" lon="1.99523">
        <ele>232.78</ele>
        <time>2016-11-20T09:10:13Z</time>
      </trkpt>
      <trkpt lat="43.86531" lon="1.99532">
        <ele>232.3</ele>
        <time>2016-11-20T09:10:24Z</time>
      </trkpt>
      <trkpt lat="43.86544" lon="1.99546">
        <ele>231.33</ele>
        <time>2016-11-20T09:10:39Z</time>
      </trkpt>
      <trkpt lat="43.86555" lon="1.99562">
        <ele>231.33</ele>
        <time>2016-11-20T09:10:53Z</time>
      </trkpt>
      <trkpt lat="43.86568" lon="1.99576">
        <ele>231.33</ele>
        <time>2016-11-20T09:11:08Z</time>
      </trkpt>
      <trkpt lat="43.86583" lon="1.99594">
        <ele>230.85</ele>
        <time>2016-11-20T09:11:24Z</time>
      </trkpt>
      <trkpt lat="43.86594" lon="1.99607">
        <ele>231.33</ele>
        <time>2016-11-20T09:11:37Z</time>
      </trkpt>
      <trkpt lat="43.86603" lon="1.99624">
        <ele>230.85</ele>
        <time>2016-11-20T09:11:54Z</time>
      </trkpt>
      <trkpt lat="43.86615" lon="1.99636">
        <ele>231.33</ele>
        <time>2016-11-20T09:12:08Z</time>
      </trkpt>
      <trkpt lat="43.86635" lon="1.99658">
        <ele>231.81</ele>
        <time>2016-11-20T09:12:27Z</time>
      </trkpt>
      <trkpt lat="43.8665" lon="1.99673">
        <ele>230.85</ele>
        <time>2016-11-20T09:12:42Z</time>
      </trkpt>
      <trkpt lat="43.86663" lon="1.99685">
        <ele>229.41</ele>
        <time>2016-11-20T09:12:58Z</time>
      </trkpt>
      <trkpt lat="43.86678" lon="1.99696">
        <ele>227.97</ele>
        <time>2016-11-20T09:13:14Z</time>
      </trkpt>
      <trkpt lat="43.86691" lon="1.9971">
        <ele>227.01</ele>
        <time>2016-11-20T09:13:31Z</time>
      </trkpt>
      <trkpt lat="43.86706" lon="1.9972">
        <ele>225.57</ele>
        <time>2016-11-20T09:13:45Z</time>
      </trkpt>
      <trkpt lat="43.86723" lon="1.99729">
        <ele>224.61</ele>
        <time>2016-11-20T09:14:01Z</time>
      </trkpt>
      <trkpt lat="43.86739" lon="1.99743">
        <ele>224.12</ele>
        <time>2016-11-20T09:14:18Z</time>
      </trkpt>
      <trkpt lat="43.86755" lon="1.99758">
        <ele>222.68</ele>
        <time>2016-11-20T09:14:33Z</time>
      </trkpt>
      <trkpt lat="43.86768" lon="1.99767">
        <ele>221.72</ele>
        <time>2016-11-20T09:14:47Z</time>
      </trkpt>
      <trkpt lat="43.86782" lon="1.99775">
        <ele>219.8</ele>
        <time>2016-11-20T09:15:03Z</time>
      </trkpt>
      <trkpt lat="43.86798" lon="1.99788">
        <ele>218.84</ele>
        <time>2016-11-20T09:15:18Z</time>
      </trkpt>
      <trkpt lat="43.86815" lon="1.99795">
        <ele>217.4</ele>
        <time>2016-11-20T09:15:34Z</time>
      </trkpt>
      <trkpt lat="43.86832" lon="1.998">
        <ele>216.43</ele>
        <time>2016-11-20T09:15:49Z</time>
      </trkpt>
      <trkpt lat="43.86845" lon="1.99804">
        <ele>215.95</ele>
        <time>2016-11-20T09:16:02Z</time>
      </trkpt>
      <trkpt lat="43.8687" lon="1.99811">
        <ele>214.03</ele>
        <time>2016-11-20T09:16:16Z</time>
      </trkpt>
      <trkpt lat="43.86882" lon="1.99821">
        <ele>213.55</ele>
        <time>2016-11-20T09:16:31Z</time>
      </trkpt>
      <trkpt lat="43.86897" lon="1.99826">
        <ele>212.59</ele>
        <time>2016-11-20T09:16:44Z</time>
      </trkpt>
      <trkpt lat="43.86907" lon="1.99829">
        <ele>212.59</ele>
        <time>2016-11-20T09:16:53Z</time>
      </trkpt>
      <trkpt lat="43.86928" lon="1.99844">
        <ele>211.63</ele>
        <time>2016-11-20T09:17:11Z</time>
      </trkpt>
      <trkpt lat="43.86948" lon="1.99849">
        <ele>211.15</ele>
        <time>2016-11-20T09:17:29Z</time>
      </trkpt>
      <trkpt lat="43.86965" lon="1.99849">
        <ele>210.19</ele>
        <time>2016-11-20T09:17:44Z</time>
      </trkpt>
      <trkpt lat="43.86971" lon="1.99825">
        <ele>209.7</ele>
        <time>2016-11-20T09:18:01Z</time>
      </trkpt>
      <trkpt lat="43.86978" lon="1.99797">
        <ele>209.7</ele>
        <time>2016-11-20T09:18:19Z</time>
      </trkpt>
      <trkpt lat="43.86986" lon="1.99766">
        <ele>209.22</ele>
        <time>2016-11-20T09:18:39Z</time>
      </trkpt>
      <trkpt lat="43.86998" lon="1.9974">
        <ele>209.22</ele>
        <time>2016-11-20T09:19:00Z</time>
      </trkpt>
      <trkpt lat="43.87011" lon="1.99718">
        <ele>208.74</ele>
        <time>2016-11-20T09:19:18Z</time>
      </trkpt>
      <trkpt lat="43.87024" lon="1.99702">
        <ele>208.26</ele>
        <time>2016-11-20T09:19:32Z</time>
      </trkpt>
      <trkpt lat="43.87031" lon="1.99694">
        <ele>206.82</ele>
        <time>2016-11-20T09:19:43Z</time>
      </trkpt>
      <trkpt lat="43.87031" lon="1.99694">
        <ele>206.82</ele>
        <time>2016-11-20T09:19:44Z</time>
      </trkpt>
      <trkpt lat="43.87031" lon="1.99694">
        <ele>207.3</ele>
        <time>2016-11-20T09:20:04Z</time>
      </trkpt>
      <trkpt lat="43.87031" lon="1.99693">
        <ele>207.78</ele>
        <time>2016-11-20T09:20:30Z</time>
      </trkpt>
      <trkpt lat="43.87031" lon="1.99692">
        <ele>208.74</ele>
        <time>2016-11-20T09:20:56Z</time>
      </trkpt>
      <trkpt lat="43.87033" lon="1.99688">
        <ele>208.26</ele>
        <time>2016-11-20T09:21:11Z</time>
      </trkpt>
      <trkpt lat="43.87045" lon="1.99667">
        <ele>207.78</ele>
        <time>2016-11-20T09:21:27Z</time>
      </trkpt>
      <trkpt lat="43.87056" lon="1.99648">
        <ele>207.78</ele>
        <time>2016-11-20T09:21:43Z</time>
      </trkpt>
      <trkpt lat="43.87068" lon="1.99631">
        <ele>208.26</ele>
        <time>2016-11-20T09:21:57Z</time>
      </trkpt>
      <trkpt lat="43.87082" lon="1.99604">
        <ele>207.78</ele>
        <time>2016-11-20T09:22:16Z</time>
      </trkpt>
      <trkpt lat="43.87094" lon="1.99581">
        <ele>207.78</ele>
        <time>2016-11-20T09:22:32Z</time>
      </trkpt>
      <trkpt lat="43.87105" lon="1.99553">
        <ele>207.3</ele>
        <time>2016-11-20T09:22:50Z</time>
      </trkpt>
      <trkpt lat="43.87111" lon="1.99536">
        <ele>207.3</ele>
        <time>2016-11-20T09:23:01Z</time>
      </trkpt>
      <trkpt lat="43.87112" lon="1.99535">
        <ele>207.3</ele>
        <time>2016-11-20T09:23:02Z</time>
      </trkpt>
      <trkpt lat="43.87112" lon="1.99533">
        <ele>207.3</ele>
        <time>2016-11-20T09:23:03Z</time>
      </trkpt>
      <trkpt lat="43.87125" lon="1.99501">
        <ele>206.82</ele>
        <time>2016-11-20T09:23:24Z</time>
      </trkpt>
      <trkpt lat="43.87136" lon="1.99472">
        <ele>206.82</ele>
        <time>2016-11-20T09:23:43Z</time>
      </trkpt>
      <trkpt lat="43.87148" lon="1.99439">
        <ele>206.34</ele>
        <time>2016-11-20T09:24:04Z</time>
      </trkpt>
      <trkpt lat="43.8716" lon="1.99408">
        <ele>205.86</ele>
        <time>2016-11-20T09:24:24Z</time>
      </trkpt>
      <trkpt lat="43.87172" lon="1.99376">
        <ele>205.38</ele>
        <time>2016-11-20T09:24:45Z</time>
      </trkpt>
      <trkpt lat="43.87183" lon="1.99347">
        <ele>204.42</ele>
        <time>2016-11-20T09:25:04Z</time>
      </trkpt>
      <trkpt lat="43.87195" lon="1.9932">
        <ele>204.9</ele>
        <time>2016-11-20T09:25:23Z</time>
      </trkpt>
      <trkpt lat="43.8721" lon="1.99291">
        <ele>204.9</ele>
        <time>2016-11-20T09:25:44Z</time>
      </trkpt>
      <trkpt lat="43.87224" lon="1.99264">
        <ele>205.38</ele>
        <time>2016-11-20T09:26:03Z</time>
      </trkpt>
      <trkpt lat="43.87237" lon="1.99241">
        <ele>206.34</ele>
        <time>2016-11-20T09:26:20Z</time>
      </trkpt>
      <trkpt lat="43.87251" lon="1.99217">
        <ele>206.82</ele>
        <time>2016-11-20T09:26:38Z</time>
      </trkpt>
      <trkpt lat="43.87265" lon="1.99191">
        <ele>207.3</ele>
        <time>2016-11-20T09:26:57Z</time>
      </trkpt>
      <trkpt lat="43.87277" lon="1.99167">
        <ele>207.3</ele>
        <time>2016-11-20T09:27:15Z</time>
      </trkpt>
      <trkpt lat="43.87293" lon="1.99142">
        <ele>207.78</ele>
        <time>2016-11-20T09:27:34Z</time>
      </trkpt>
      <trkpt lat="43.87308" lon="1.99114">
        <ele>207.78</ele>
        <time>2016-11-20T09:27:55Z</time>
      </trkpt>
      <trkpt lat="43.87324" lon="1.99087">
        <ele>208.26</ele>
        <time>2016-11-20T09:28:15Z</time>
      </trkpt>
      <trkpt lat="43.87338" lon="1.9906">
        <ele>208.26</ele>
        <time>2016-11-20T09:28:35Z</time>
      </trkpt>
      <trkpt lat="43.87352" lon="1.99035">
        <ele>208.26</ele>
        <time>2016-11-20T09:28:54Z</time>
      </trkpt>
      <trkpt lat="43.87365" lon="1.99011">
        <ele>208.26</ele>
        <time>2016-11-20T09:29:12Z</time>
      </trkpt>
      <trkpt lat="43.8738" lon="1.98984">
        <ele>208.26</ele>
        <time>2016-11-20T09:29:32Z</time>
      </trkpt>
      <trkpt lat="43.87392" lon="1.98958">
        <ele>208.26</ele>
        <time>2016-11-20T09:29:51Z</time>
      </trkpt>
      <trkpt lat="43.87403" lon="1.98935">
        <ele>207.78</ele>
        <time>2016-11-20T09:30:08Z</time>
      </trkpt>
      <trkpt lat="43.87415" lon="1.9891">
        <ele>208.26</ele>
        <time>2016-11-20T09:30:26Z</time>
      </trkpt>
      <trkpt lat="43.87427" lon="1.98884">
        <ele>208.26</ele>
        <time>2016-11-20T09:30:44Z</time>
      </trkpt>
      <trkpt lat="43.87436" lon="1.98864">
        <ele>208.26</ele>
        <time>2016-11-20T09:30:59Z</time>
      </trkpt>
      <trkpt lat="43.87448" lon="1.98837">
        <ele>207.78</ele>
        <time>2016-11-20T09:31:17Z</time>
      </trkpt>
      <trkpt lat="43.87442" lon="1.98819">
        <ele>207.78</ele>
        <time>2016-11-20T09:31:32Z</time>
      </trkpt>
      <trkpt lat="43.87437" lon="1.98817">
        <ele>207.3</ele>
        <time>2016-11-20T09:31:39Z</time>
      </trkpt>
      <trkpt lat="43.87436" lon="1.98815">
        <ele>207.3</ele>
        <time>2016-11-20T09:31:40Z</time>
      </trkpt>
      <trkpt lat="43.87434" lon="1.98814">
        <ele>207.78</ele>
        <time>2016-11-20T09:31:42Z</time>
      </trkpt>
      <trkpt lat="43.87433" lon="1.98813">
        <ele>207.78</ele>
        <time>2016-11-20T09:31:43Z</time>
      </trkpt>
      <trkpt lat="43.87432" lon="1.98813">
        <ele>207.78</ele>
        <time>2016-11-20T09:31:44Z</time>
      </trkpt>
      <trkpt lat="43.87421" lon="1.98811">
        <ele>207.78</ele>
        <time>2016-11-20T09:31:56Z</time>
      </trkpt>
      <trkpt lat="43.8742" lon="1.98812">
        <ele>207.3</ele>
        <time>2016-11-20T09:31:57Z</time>
      </trkpt>
      <trkpt lat="43.87418" lon="1.98812">
        <ele>207.3</ele>
        <time>2016-11-20T09:31:58Z</time>
      </trkpt>
      <trkpt lat="43.87397" lon="1.98811">
        <ele>207.3</ele>
        <time>2016-11-20T09:32:15Z</time>
      </trkpt>
      <trkpt lat="43.87378" lon="1.9881">
        <ele>207.3</ele>
        <time>2016-11-20T09:32:31Z</time>
      </trkpt>
      <trkpt lat="43.87359" lon="1.9881">
        <ele>207.3</ele>
        <time>2016-11-20T09:32:46Z</time>
      </trkpt>
      <trkpt lat="43.87337" lon="1.98809">
        <ele>207.3</ele>
        <time>2016-11-20T09:33:04Z</time>
      </trkpt>
      <trkpt lat="43.87314" lon="1.9881">
        <ele>206.82</ele>
        <time>2016-11-20T09:33:23Z</time>
      </trkpt>
      <trkpt lat="43.87294" lon="1.98808">
        <ele>206.82</ele>
        <time>2016-11-20T09:33:39Z</time>
      </trkpt>
      <trkpt lat="43.87282" lon="1.98807">
        <ele>206.34</ele>
        <time>2016-11-20T09:33:50Z</time>
      </trkpt>
      <trkpt lat="43.8728" lon="1.98807">
        <ele>206.34</ele>
        <time>2016-11-20T09:33:52Z</time>
      </trkpt>
      <trkpt lat="43.87278" lon="1.98806">
        <ele>206.34</ele>
        <time>2016-11-20T09:33:55Z</time>
      </trkpt>
      <trkpt lat="43.87277" lon="1.98805">
        <ele>206.34</ele>
        <time>2016-11-20T09:33:56Z</time>
      </trkpt>
      <trkpt lat="43.87277" lon="1.98803">
        <ele>206.34</ele>
        <time>2016-11-20T09:33:57Z</time>
      </trkpt>
      <trkpt lat="43.87276" lon="1.98802">
        <ele>206.34</ele>
        <time>2016-11-20T09:33:58Z</time>
      </trkpt>
      <trkpt lat="43.87276" lon="1.988">
        <ele>206.34</ele>
        <time>2016-11-20T09:33:59Z</time>
      </trkpt>
      <trkpt lat="43.87276" lon="1.98798">
        <ele>206.34</ele>
        <time>2016-11-20T09:34:00Z</time>
      </trkpt>
      <trkpt lat="43.87276" lon="1.98796">
        <ele>206.34</ele>
        <time>2016-11-20T09:34:01Z</time>
      </trkpt>
      <trkpt lat="43.87276" lon="1.98794">
        <ele>206.34</ele>
        <time>2016-11-20T09:34:02Z</time>
      </trkpt>
      <trkpt lat="43.87276" lon="1.98792">
        <ele>206.34</ele>
        <time>2016-11-20T09:34:03Z</time>
      </trkpt>
      <trkpt lat="43.87277" lon="1.98791">
        <ele>206.34</ele>
        <time>2016-11-20T09:34:04Z</time>
      </trkpt>
      <trkpt lat="43.87277" lon="1.98789">
        <ele>206.34</ele>
        <time>2016-11-20T09:34:05Z</time>
      </trkpt>
      <trkpt lat="43.87277" lon="1.98788">
        <ele>206.34</ele>
        <time>2016-11-20T09:34:06Z</time>
      </trkpt>
      <trkpt lat="43.8728" lon="1.98754">
        <ele>206.34</ele>
        <time>2016-11-20T09:34:26Z</time>
      </trkpt>
      <trkpt lat="43.87285" lon="1.98725">
        <ele>206.34</ele>
        <time>2016-11-20T09:34:44Z</time>
      </trkpt>
      <trkpt lat="43.8729" lon="1.98694">
        <ele>205.86</ele>
        <time>2016-11-20T09:35:03Z</time>
      </trkpt>
      <trkpt lat="43.87294" lon="1.98665">
        <ele>205.86</ele>
        <time>2016-11-20T09:35:20Z</time>
      </trkpt>
      <trkpt lat="43.87298" lon="1.98635">
        <ele>205.86</ele>
        <time>2016-11-20T09:35:39Z</time>
      </trkpt>
      <trkpt lat="43.87303" lon="1.98603">
        <ele>205.86</ele>
        <time>2016-11-20T09:35:58Z</time>
      </trkpt>
      <trkpt lat="43.87307" lon="1.98574">
        <ele>205.86</ele>
        <time>2016-11-20T09:36:16Z</time>
      </trkpt>
      <trkpt lat="43.87312" lon="1.98544">
        <ele>205.86</ele>
        <time>2016-11-20T09:36:35Z</time>
      </trkpt>
      <trkpt lat="43.87318" lon="1.98514">
        <ele>206.34</ele>
        <time>2016-11-20T09:36:54Z</time>
      </trkpt>
      <trkpt lat="43.87321" lon="1.98508">
        <ele>206.34</ele>
        <time>2016-11-20T09:37:09Z</time>
      </trkpt>
      <trkpt lat="43.87325" lon="1.98502">
        <ele>206.34</ele>
        <time>2016-11-20T09:37:20Z</time>
      </trkpt>
      <trkpt lat="43.87334" lon="1.98503">
        <ele>206.34</ele>
        <time>2016-11-20T09:37:33Z</time>
      </trkpt>
      <trkpt lat="43.87334" lon="1.98503">
        <ele>206.34</ele>
        <time>2016-11-20T09:37:43Z</time>
      </trkpt>
      <trkpt lat="43.87344" lon="1.98498">
        <ele>206.34</ele>
        <time>2016-11-20T09:37:57Z</time>
      </trkpt>
      <trkpt lat="43.87345" lon="1.98496">
        <ele>206.34</ele>
        <time>2016-11-20T09:38:14Z</time>
      </trkpt>
      <trkpt lat="43.87346" lon="1.98492">
        <ele>206.34</ele>
        <time>2016-11-20T09:38:25Z</time>
      </trkpt>
      <trkpt lat="43.87348" lon="1.98501">
        <ele>208.26</ele>
        <time>2016-11-20T09:50:18Z</time>
      </trkpt>
      <trkpt lat="43.87349" lon="1.98502">
        <ele>208.26</ele>
        <time>2016-11-20T09:50:19Z</time>
      </trkpt>
      <trkpt lat="43.8735" lon="1.98502">
        <ele>208.26</ele>
        <time>2016-11-20T09:50:20Z</time>
      </trkpt>
      <trkpt lat="43.87368" lon="1.98505">
        <ele>208.74</ele>
        <time>2016-11-20T09:50:37Z</time>
      </trkpt>
      <trkpt lat="43.87388" lon="1.9851">
        <ele>208.74</ele>
        <time>2016-11-20T09:50:53Z</time>
      </trkpt>
      <trkpt lat="43.87414" lon="1.98512">
        <ele>209.22</ele>
        <time>2016-11-20T09:51:12Z</time>
      </trkpt>
      <trkpt lat="43.87435" lon="1.98515">
        <ele>209.22</ele>
        <time>2016-11-20T09:51:28Z</time>
      </trkpt>
      <trkpt lat="43.87459" lon="1.98518">
        <ele>209.22</ele>
        <time>2016-11-20T09:51:46Z</time>
      </trkpt>
      <trkpt lat="43.87483" lon="1.98521">
        <ele>209.22</ele>
        <time>2016-11-20T09:52:04Z</time>
      </trkpt>
      <trkpt lat="43.87508" lon="1.98526">
        <ele>209.22</ele>
        <time>2016-11-20T09:52:23Z</time>
      </trkpt>
      <trkpt lat="43.8753" lon="1.98537">
        <ele>209.22</ele>
        <time>2016-11-20T09:52:41Z</time>
      </trkpt>
      <trkpt lat="43.87554" lon="1.98543">
        <ele>208.26</ele>
        <time>2016-11-20T09:52:59Z</time>
      </trkpt>
      <trkpt lat="43.8758" lon="1.98548">
        <ele>208.26</ele>
        <time>2016-11-20T09:53:17Z</time>
      </trkpt>
      <trkpt lat="43.87604" lon="1.9855">
        <ele>208.26</ele>
        <time>2016-11-20T09:53:35Z</time>
      </trkpt>
      <trkpt lat="43.8763" lon="1.98553">
        <ele>208.74</ele>
        <time>2016-11-20T09:53:54Z</time>
      </trkpt>
      <trkpt lat="43.87651" lon="1.98551">
        <ele>208.74</ele>
        <time>2016-11-20T09:54:12Z</time>
      </trkpt>
      <trkpt lat="43.87672" lon="1.9855">
        <ele>208.74</ele>
        <time>2016-11-20T09:54:28Z</time>
      </trkpt>
      <trkpt lat="43.87693" lon="1.98562">
        <ele>209.22</ele>
        <time>2016-11-20T09:54:44Z</time>
      </trkpt>
      <trkpt lat="43.87718" lon="1.98566">
        <ele>209.22</ele>
        <time>2016-11-20T09:55:04Z</time>
      </trkpt>
      <trkpt lat="43.87742" lon="1.98569">
        <ele>209.7</ele>
        <time>2016-11-20T09:55:22Z</time>
      </trkpt>
      <trkpt lat="43.87769" lon="1.98571">
        <ele>209.22</ele>
        <time>2016-11-20T09:55:42Z</time>
      </trkpt>
      <trkpt lat="43.8779" lon="1.98573">
        <ele>209.22</ele>
        <time>2016-11-20T09:55:58Z</time>
      </trkpt>
      <trkpt lat="43.87816" lon="1.98576">
        <ele>208.74</ele>
        <time>2016-11-20T09:56:18Z</time>
      </trkpt>
      <trkpt lat="43.8784" lon="1.98581">
        <ele>209.22</ele>
        <time>2016-11-20T09:56:37Z</time>
      </trkpt>
      <trkpt lat="43.87864" lon="1.98587">
        <ele>208.74</ele>
        <time>2016-11-20T09:56:56Z</time>
      </trkpt>
      <trkpt lat="43.87886" lon="1.98595">
        <ele>208.74</ele>
        <time>2016-11-20T09:57:14Z</time>
      </trkpt>
      <trkpt lat="43.87906" lon="1.986">
        <ele>207.78</ele>
        <time>2016-11-20T09:57:30Z</time>
      </trkpt>
      <trkpt lat="43.87917" lon="1.98603">
        <ele>206.82</ele>
        <time>2016-11-20T09:57:39Z</time>
      </trkpt>
      <trkpt lat="43.87939" lon="1.98605">
        <ele>204.9</ele>
        <time>2016-11-20T09:57:57Z</time>
      </trkpt>
      <trkpt lat="43.87954" lon="1.986">
        <ele>202.98</ele>
        <time>2016-11-20T09:58:13Z</time>
      </trkpt>
      <trkpt lat="43.87975" lon="1.98594">
        <ele>202.01</ele>
        <time>2016-11-20T09:58:29Z</time>
      </trkpt>
      <trkpt lat="43.87988" lon="1.98591">
        <ele>201.05</ele>
        <time>2016-11-20T09:58:41Z</time>
      </trkpt>
      <trkpt lat="43.88003" lon="1.98585">
        <ele>199.61</ele>
        <time>2016-11-20T09:58:56Z</time>
      </trkpt>
      <trkpt lat="43.88016" lon="1.98582">
        <ele>198.65</ele>
        <time>2016-11-20T09:59:08Z</time>
      </trkpt>
      <trkpt lat="43.88017" lon="1.98582">
        <ele>198.65</ele>
        <time>2016-11-20T09:59:09Z</time>
      </trkpt>
      <trkpt lat="43.88018" lon="1.98582">
        <ele>198.65</ele>
        <time>2016-11-20T09:59:10Z</time>
      </trkpt>
      <trkpt lat="43.88033" lon="1.9858">
        <ele>197.69</ele>
        <time>2016-11-20T09:59:24Z</time>
      </trkpt>
      <trkpt lat="43.88051" lon="1.9858">
        <ele>196.73</ele>
        <time>2016-11-20T09:59:40Z</time>
      </trkpt>
      <trkpt lat="43.88064" lon="1.98584">
        <ele>196.25</ele>
        <time>2016-11-20T09:59:52Z</time>
      </trkpt>
      <trkpt lat="43.88065" lon="1.98584">
        <ele>196.25</ele>
        <time>2016-11-20T09:59:53Z</time>
      </trkpt>
      <trkpt lat="43.88066" lon="1.98584">
        <ele>196.25</ele>
        <time>2016-11-20T09:59:54Z</time>
      </trkpt>
      <trkpt lat="43.88071" lon="1.98586">
        <ele>195.77</ele>
        <time>2016-11-20T09:59:59Z</time>
      </trkpt>
      <trkpt lat="43.88091" lon="1.98594">
        <ele>195.28</ele>
        <time>2016-11-20T10:00:17Z</time>
      </trkpt>
      <trkpt lat="43.88099" lon="1.98594">
        <ele>195.28</ele>
        <time>2016-11-20T10:00:31Z</time>
      </trkpt>
      <trkpt lat="43.88103" lon="1.98594">
        <ele>195.28</ele>
        <time>2016-11-20T10:00:39Z</time>
      </trkpt>
      <trkpt lat="43.88111" lon="1.98598">
        <ele>194.8</ele>
        <time>2016-11-20T10:00:48Z</time>
      </trkpt>
      <trkpt lat="43.88112" lon="1.98598">
        <ele>194.8</ele>
        <time>2016-11-20T10:00:49Z</time>
      </trkpt>
      <trkpt lat="43.88113" lon="1.98597">
        <ele>194.8</ele>
        <time>2016-11-20T10:00:50Z</time>
      </trkpt>
      <trkpt lat="43.88117" lon="1.98599">
        <ele>194.8</ele>
        <time>2016-11-20T10:01:02Z</time>
      </trkpt>
      <trkpt lat="43.88117" lon="1.986">
        <ele>194.8</ele>
        <time>2016-11-20T10:01:03Z</time>
      </trkpt>
      <trkpt lat="43.88119" lon="1.986">
        <ele>194.8</ele>
        <time>2016-11-20T10:01:04Z</time>
      </trkpt>
      <trkpt lat="43.88132" lon="1.98605">
        <ele>194.32</ele>
        <time>2016-11-20T10:01:16Z</time>
      </trkpt>
      <trkpt lat="43.88133" lon="1.98606">
        <ele>194.32</ele>
        <time>2016-11-20T10:01:17Z</time>
      </trkpt>
      <trkpt lat="43.88134" lon="1.98607">
        <ele>193.84</ele>
        <time>2016-11-20T10:01:18Z</time>
      </trkpt>
      <trkpt lat="43.88135" lon="1.98608">
        <ele>193.84</ele>
        <time>2016-11-20T10:01:19Z</time>
      </trkpt>
      <trkpt lat="43.88136" lon="1.98608">
        <ele>193.84</ele>
        <time>2016-11-20T10:01:20Z</time>
      </trkpt>
      <trkpt lat="43.88137" lon="1.98609">
        <ele>193.84</ele>
        <time>2016-11-20T10:01:21Z</time>
      </trkpt>
      <trkpt lat="43.8814" lon="1.9861">
        <ele>193.84</ele>
        <time>2016-11-20T10:01:24Z</time>
      </trkpt>
      <trkpt lat="43.88159" lon="1.98614">
        <ele>193.84</ele>
        <time>2016-11-20T10:01:41Z</time>
      </trkpt>
      <trkpt lat="43.88175" lon="1.98624">
        <ele>193.36</ele>
        <time>2016-11-20T10:01:56Z</time>
      </trkpt>
      <trkpt lat="43.88191" lon="1.98631">
        <ele>193.36</ele>
        <time>2016-11-20T10:02:12Z</time>
      </trkpt>
      <trkpt lat="43.88207" lon="1.98639">
        <ele>192.88</ele>
        <time>2016-11-20T10:02:26Z</time>
      </trkpt>
      <trkpt lat="43.88208" lon="1.98639">
        <ele>192.88</ele>
        <time>2016-11-20T10:02:27Z</time>
      </trkpt>
      <trkpt lat="43.88217" lon="1.98643">
        <ele>192.88</ele>
        <time>2016-11-20T10:02:35Z</time>
      </trkpt>
      <trkpt lat="43.88236" lon="1.98648">
        <ele>192.4</ele>
        <time>2016-11-20T10:02:52Z</time>
      </trkpt>
      <trkpt lat="43.88257" lon="1.98655">
        <ele>191.92</ele>
        <time>2016-11-20T10:03:11Z</time>
      </trkpt>
      <trkpt lat="43.88275" lon="1.98664">
        <ele>190.48</ele>
        <time>2016-11-20T10:03:27Z</time>
      </trkpt>
      <trkpt lat="43.88288" lon="1.98672">
        <ele>189.04</ele>
        <time>2016-11-20T10:03:40Z</time>
      </trkpt>
      <trkpt lat="43.88304" lon="1.98682">
        <ele>186.63</ele>
        <time>2016-11-20T10:03:56Z</time>
      </trkpt>
      <trkpt lat="43.8832" lon="1.98691">
        <ele>184.71</ele>
        <time>2016-11-20T10:04:11Z</time>
      </trkpt>
      <trkpt lat="43.88336" lon="1.98694">
        <ele>182.79</ele>
        <time>2016-11-20T10:04:26Z</time>
      </trkpt>
      <trkpt lat="43.88346" lon="1.98693">
        <ele>182.31</ele>
        <time>2016-11-20T10:04:34Z</time>
      </trkpt>
      <trkpt lat="43.88347" lon="1.98693">
        <ele>181.83</ele>
        <time>2016-11-20T10:04:35Z</time>
      </trkpt>
      <trkpt lat="43.88348" lon="1.98693">
        <ele>181.83</ele>
        <time>2016-11-20T10:04:36Z</time>
      </trkpt>
      <trkpt lat="43.88368" lon="1.98692">
        <ele>180.38</ele>
        <time>2016-11-20T10:04:53Z</time>
      </trkpt>
      <trkpt lat="43.88389" lon="1.98683">
        <ele>178.46</ele>
        <time>2016-11-20T10:05:12Z</time>
      </trkpt>
      <trkpt lat="43.88398" lon="1.98664">
        <ele>178.46</ele>
        <time>2016-11-20T10:05:27Z</time>
      </trkpt>
      <trkpt lat="43.88404" lon="1.98639">
        <ele>178.94</ele>
        <time>2016-11-20T10:05:44Z</time>
      </trkpt>
      <trkpt lat="43.8841" lon="1.98614">
        <ele>178.94</ele>
        <time>2016-11-20T10:06:01Z</time>
      </trkpt>
      <trkpt lat="43.88415" lon="1.98599">
        <ele>178.46</ele>
        <time>2016-11-20T10:06:11Z</time>
      </trkpt>
      <trkpt lat="43.88415" lon="1.98597">
        <ele>178.46</ele>
        <time>2016-11-20T10:06:12Z</time>
      </trkpt>
      <trkpt lat="43.88422" lon="1.98565">
        <ele>177.5</ele>
        <time>2016-11-20T10:06:33Z</time>
      </trkpt>
      <trkpt lat="43.88425" lon="1.98535">
        <ele>177.02</ele>
        <time>2016-11-20T10:06:52Z</time>
      </trkpt>
      <trkpt lat="43.88424" lon="1.98505">
        <ele>177.5</ele>
        <time>2016-11-20T10:07:11Z</time>
      </trkpt>
      <trkpt lat="43.88423" lon="1.98478">
        <ele>177.5</ele>
        <time>2016-11-20T10:07:27Z</time>
      </trkpt>
      <trkpt lat="43.88421" lon="1.98448">
        <ele>177.02</ele>
        <time>2016-11-20T10:07:46Z</time>
      </trkpt>
      <trkpt lat="43.88419" lon="1.9842">
        <ele>177.02</ele>
        <time>2016-11-20T10:08:04Z</time>
      </trkpt>
      <trkpt lat="43.88419" lon="1.98394">
        <ele>176.54</ele>
        <time>2016-11-20T10:08:21Z</time>
      </trkpt>
      <trkpt lat="43.88419" lon="1.98379">
        <ele>176.06</ele>
        <time>2016-11-20T10:08:30Z</time>
      </trkpt>
      <trkpt lat="43.88419" lon="1.98377">
        <ele>176.06</ele>
        <time>2016-11-20T10:08:31Z</time>
      </trkpt>
      <trkpt lat="43.88424" lon="1.98355">
        <ele>174.62</ele>
        <time>2016-11-20T10:08:46Z</time>
      </trkpt>
      <trkpt lat="43.88433" lon="1.9833">
        <ele>173.66</ele>
        <time>2016-11-20T10:09:03Z</time>
      </trkpt>
      <trkpt lat="43.88441" lon="1.98305">
        <ele>172.69</ele>
        <time>2016-11-20T10:09:20Z</time>
      </trkpt>
      <trkpt lat="43.88442" lon="1.98285">
        <ele>172.21</ele>
        <time>2016-11-20T10:09:36Z</time>
      </trkpt>
      <trkpt lat="43.88441" lon="1.98284">
        <ele>171.73</ele>
        <time>2016-11-20T10:09:37Z</time>
      </trkpt>
      <trkpt lat="43.88441" lon="1.98284">
        <ele>172.21</ele>
        <time>2016-11-20T10:09:38Z</time>
      </trkpt>
      <trkpt lat="43.8844" lon="1.98282">
        <ele>172.21</ele>
        <time>2016-11-20T10:09:39Z</time>
      </trkpt>
      <trkpt lat="43.8844" lon="1.98281">
        <ele>172.21</ele>
        <time>2016-11-20T10:09:40Z</time>
      </trkpt>
      <trkpt lat="43.88439" lon="1.9828">
        <ele>172.21</ele>
        <time>2016-11-20T10:09:41Z</time>
      </trkpt>
      <trkpt lat="43.88438" lon="1.98279">
        <ele>172.69</ele>
        <time>2016-11-20T10:09:42Z</time>
      </trkpt>
      <trkpt lat="43.88437" lon="1.98279">
        <ele>172.21</ele>
        <time>2016-11-20T10:09:43Z</time>
      </trkpt>
      <trkpt lat="43.88437" lon="1.98278">
        <ele>172.21</ele>
        <time>2016-11-20T10:09:44Z</time>
      </trkpt>
      <trkpt lat="43.88428" lon="1.98267">
        <ele>173.17</ele>
        <time>2016-11-20T10:09:57Z</time>
      </trkpt>
      <trkpt lat="43.88413" lon="1.98252">
        <ele>174.62</ele>
        <time>2016-11-20T10:10:15Z</time>
      </trkpt>
      <trkpt lat="43.88398" lon="1.98241">
        <ele>175.58</ele>
        <time>2016-11-20T10:10:31Z</time>
      </trkpt>
      <trkpt lat="43.88382" lon="1.98229">
        <ele>177.02</ele>
        <time>2016-11-20T10:10:47Z</time>
      </trkpt>
      <trkpt lat="43.88361" lon="1.98215">
        <ele>179.42</ele>
        <time>2016-11-20T10:11:07Z</time>
      </trkpt>
      <trkpt lat="43.88345" lon="1.98202">
        <ele>181.35</ele>
        <time>2016-11-20T10:11:24Z</time>
      </trkpt>
      <trkpt lat="43.88329" lon="1.98186">
        <ele>183.27</ele>
        <time>2016-11-20T10:11:43Z</time>
      </trkpt>
      <trkpt lat="43.88328" lon="1.98185">
        <ele>183.27</ele>
        <time>2016-11-20T10:11:45Z</time>
      </trkpt>
      <trkpt lat="43.88316" lon="1.9818">
        <ele>185.19</ele>
        <time>2016-11-20T10:12:00Z</time>
      </trkpt>
      <trkpt lat="43.8831" lon="1.98178">
        <ele>185.67</ele>
        <time>2016-11-20T10:12:15Z</time>
      </trkpt>
      <trkpt lat="43.88293" lon="1.98163">
        <ele>188.08</ele>
        <time>2016-11-20T10:12:34Z</time>
      </trkpt>
      <trkpt lat="43.88281" lon="1.98146">
        <ele>190.48</ele>
        <time>2016-11-20T10:12:52Z</time>
      </trkpt>
      <trkpt lat="43.88282" lon="1.98142">
        <ele>190.96</ele>
        <time>2016-11-20T10:12:55Z</time>
      </trkpt>
      <trkpt lat="43.88294" lon="1.98124">
        <ele>191.92</ele>
        <time>2016-11-20T10:13:11Z</time>
      </trkpt>
      <trkpt lat="43.88301" lon="1.98118">
        <ele>192.4</ele>
        <time>2016-11-20T10:13:23Z</time>
      </trkpt>
      <trkpt lat="43.88315" lon="1.98102">
        <ele>192.4</ele>
        <time>2016-11-20T10:13:40Z</time>
      </trkpt>
      <trkpt lat="43.88324" lon="1.98087">
        <ele>192.4</ele>
        <time>2016-11-20T10:13:55Z</time>
      </trkpt>
      <trkpt lat="43.88326" lon="1.98079">
        <ele>192.4</ele>
        <time>2016-11-20T10:14:08Z</time>
      </trkpt>
      <trkpt lat="43.88334" lon="1.98073">
        <ele>191.92</ele>
        <time>2016-11-20T10:21:58Z</time>
      </trkpt>
      <trkpt lat="43.88337" lon="1.98071">
        <ele>191.92</ele>
        <time>2016-11-20T10:22:12Z</time>
      </trkpt>
      <trkpt lat="43.88341" lon="1.98057">
        <ele>191.92</ele>
        <time>2016-11-20T10:22:28Z</time>
      </trkpt>
      <trkpt lat="43.88344" lon="1.98047">
        <ele>192.4</ele>
        <time>2016-11-20T10:23:19Z</time>
      </trkpt>
      <trkpt lat="43.88347" lon="1.98025">
        <ele>192.4</ele>
        <time>2016-11-20T10:23:36Z</time>
      </trkpt>
      <trkpt lat="43.88355" lon="1.97997">
        <ele>192.4</ele>
        <time>2016-11-20T10:23:54Z</time>
      </trkpt>
      <trkpt lat="43.88361" lon="1.97975">
        <ele>191.92</ele>
        <time>2016-11-20T10:24:09Z</time>
      </trkpt>
      <trkpt lat="43.88367" lon="1.97953">
        <ele>191.44</ele>
        <time>2016-11-20T10:24:24Z</time>
      </trkpt>
      <trkpt lat="43.88373" lon="1.97929">
        <ele>191.44</ele>
        <time>2016-11-20T10:24:39Z</time>
      </trkpt>
      <trkpt lat="43.88376" lon="1.97903">
        <ele>190.96</ele>
        <time>2016-11-20T10:24:55Z</time>
      </trkpt>
      <trkpt lat="43.88381" lon="1.97877">
        <ele>191.44</ele>
        <time>2016-11-20T10:25:11Z</time>
      </trkpt>
      <trkpt lat="43.88381" lon="1.97875">
        <ele>191.44</ele>
        <time>2016-11-20T10:25:12Z</time>
      </trkpt>
      <trkpt lat="43.8838" lon="1.9787">
        <ele>192.4</ele>
        <time>2016-11-20T10:25:18Z</time>
      </trkpt>
      <trkpt lat="43.8838" lon="1.97867">
        <ele>192.4</ele>
        <time>2016-11-20T10:25:32Z</time>
      </trkpt>
      <trkpt lat="43.88377" lon="1.97861">
        <ele>193.36</ele>
        <time>2016-11-20T10:28:59Z</time>
      </trkpt>
      <trkpt lat="43.88377" lon="1.97859">
        <ele>193.36</ele>
        <time>2016-11-20T10:29:02Z</time>
      </trkpt>
      <trkpt lat="43.88369" lon="1.97851">
        <ele>193.36</ele>
        <time>2016-11-20T10:29:16Z</time>
      </trkpt>
      <trkpt lat="43.88357" lon="1.97838">
        <ele>193.36</ele>
        <time>2016-11-20T10:29:33Z</time>
      </trkpt>
      <trkpt lat="43.88343" lon="1.97824">
        <ele>193.36</ele>
        <time>2016-11-20T10:29:48Z</time>
      </trkpt>
      <trkpt lat="43.88331" lon="1.9781">
        <ele>193.36</ele>
        <time>2016-11-20T10:30:03Z</time>
      </trkpt>
      <trkpt lat="43.88319" lon="1.97794">
        <ele>192.88</ele>
        <time>2016-11-20T10:30:18Z</time>
      </trkpt>
      <trkpt lat="43.88303" lon="1.97778">
        <ele>190.48</ele>
        <time>2016-11-20T10:30:36Z</time>
      </trkpt>
      <trkpt lat="43.88298" lon="1.97771">
        <ele>189.52</ele>
        <time>2016-11-20T10:30:44Z</time>
      </trkpt>
      <trkpt lat="43.88292" lon="1.97765">
        <ele>188.56</ele>
        <time>2016-11-20T10:30:51Z</time>
      </trkpt>
      <trkpt lat="43.88279" lon="1.97749">
        <ele>187.11</ele>
        <time>2016-11-20T10:31:08Z</time>
      </trkpt>
      <trkpt lat="43.88263" lon="1.97735">
        <ele>188.08</ele>
        <time>2016-11-20T10:31:25Z</time>
      </trkpt>
      <trkpt lat="43.88262" lon="1.97734">
        <ele>188.08</ele>
        <time>2016-11-20T10:31:26Z</time>
      </trkpt>
      <trkpt lat="43.88259" lon="1.97726">
        <ele>188.56</ele>
        <time>2016-11-20T10:31:32Z</time>
      </trkpt>
      <trkpt lat="43.88267" lon="1.97702">
        <ele>188.56</ele>
        <time>2016-11-20T10:31:48Z</time>
      </trkpt>
      <trkpt lat="43.88279" lon="1.97677">
        <ele>189.04</ele>
        <time>2016-11-20T10:32:06Z</time>
      </trkpt>
      <trkpt lat="43.88288" lon="1.97657">
        <ele>189.52</ele>
        <time>2016-11-20T10:32:22Z</time>
      </trkpt>
      <trkpt lat="43.88299" lon="1.97635">
        <ele>189.52</ele>
        <time>2016-11-20T10:32:39Z</time>
      </trkpt>
      <trkpt lat="43.88307" lon="1.97614">
        <ele>190</ele>
        <time>2016-11-20T10:32:54Z</time>
      </trkpt>
      <trkpt lat="43.8831" lon="1.97607">
        <ele>190</ele>
        <time>2016-11-20T10:32:59Z</time>
      </trkpt>
      <trkpt lat="43.88316" lon="1.97591">
        <ele>190</ele>
        <time>2016-11-20T10:33:10Z</time>
      </trkpt>
      <trkpt lat="43.88322" lon="1.97579">
        <ele>189.52</ele>
        <time>2016-11-20T10:33:19Z</time>
      </trkpt>
      <trkpt lat="43.88332" lon="1.97556">
        <ele>188.56</ele>
        <time>2016-11-20T10:33:35Z</time>
      </trkpt>
      <trkpt lat="43.88348" lon="1.97534">
        <ele>187.59</ele>
        <time>2016-11-20T10:33:53Z</time>
      </trkpt>
      <trkpt lat="43.8836" lon="1.97512">
        <ele>186.63</ele>
        <time>2016-11-20T10:34:09Z</time>
      </trkpt>
      <trkpt lat="43.88367" lon="1.97498">
        <ele>186.15</ele>
        <time>2016-11-20T10:34:21Z</time>
      </trkpt>
      <trkpt lat="43.88377" lon="1.97481">
        <ele>186.15</ele>
        <time>2016-11-20T10:34:35Z</time>
      </trkpt>
      <trkpt lat="43.88388" lon="1.97459">
        <ele>186.15</ele>
        <time>2016-11-20T10:34:52Z</time>
      </trkpt>
      <trkpt lat="43.88403" lon="1.97437">
        <ele>186.15</ele>
        <time>2016-11-20T10:35:10Z</time>
      </trkpt>
      <trkpt lat="43.88415" lon="1.97428">
        <ele>185.67</ele>
        <time>2016-11-20T10:35:25Z</time>
      </trkpt>
      <trkpt lat="43.88429" lon="1.97426">
        <ele>184.23</ele>
        <time>2016-11-20T10:35:39Z</time>
      </trkpt>
      <trkpt lat="43.8843" lon="1.97426">
        <ele>183.75</ele>
        <time>2016-11-20T10:35:40Z</time>
      </trkpt>
      <trkpt lat="43.88433" lon="1.97427">
        <ele>183.75</ele>
        <time>2016-11-20T10:35:43Z</time>
      </trkpt>
      <trkpt lat="43.88458" lon="1.97416">
        <ele>182.31</ele>
        <time>2016-11-20T10:36:03Z</time>
      </trkpt>
      <trkpt lat="43.88476" lon="1.97412">
        <ele>181.35</ele>
        <time>2016-11-20T10:36:20Z</time>
      </trkpt>
      <trkpt lat="43.88483" lon="1.9741">
        <ele>181.35</ele>
        <time>2016-11-20T10:36:27Z</time>
      </trkpt>
      <trkpt lat="43.88506" lon="1.97413">
        <ele>179.9</ele>
        <time>2016-11-20T10:36:46Z</time>
      </trkpt>
      <trkpt lat="43.88515" lon="1.97415">
        <ele>179.42</ele>
        <time>2016-11-20T10:36:54Z</time>
      </trkpt>
      <trkpt lat="43.88532" lon="1.97422">
        <ele>177.98</ele>
        <time>2016-11-20T10:37:11Z</time>
      </trkpt>
      <trkpt lat="43.88551" lon="1.97429">
        <ele>177.5</ele>
        <time>2016-11-20T10:37:28Z</time>
      </trkpt>
      <trkpt lat="43.88553" lon="1.9743">
        <ele>177.98</ele>
        <time>2016-11-20T10:37:49Z</time>
      </trkpt>
      <trkpt lat="43.88568" lon="1.97429">
        <ele>177.02</ele>
        <time>2016-11-20T10:38:07Z</time>
      </trkpt>
      <trkpt lat="43.88578" lon="1.97425">
        <ele>176.54</ele>
        <time>2016-11-20T10:38:17Z</time>
      </trkpt>
      <trkpt lat="43.88594" lon="1.97419">
        <ele>176.06</ele>
        <time>2016-11-20T10:38:35Z</time>
      </trkpt>
      <trkpt lat="43.88609" lon="1.97407">
        <ele>176.06</ele>
        <time>2016-11-20T10:38:51Z</time>
      </trkpt>
      <trkpt lat="43.88625" lon="1.97408">
        <ele>175.58</ele>
        <time>2016-11-20T10:39:09Z</time>
      </trkpt>
      <trkpt lat="43.88626" lon="1.97406">
        <ele>175.58</ele>
        <time>2016-11-20T10:39:12Z</time>
      </trkpt>
      <trkpt lat="43.88627" lon="1.97404">
        <ele>175.58</ele>
        <time>2016-11-20T10:39:14Z</time>
      </trkpt>
      <trkpt lat="43.88631" lon="1.97399">
        <ele>175.58</ele>
        <time>2016-11-20T10:39:19Z</time>
      </trkpt>
      <trkpt lat="43.88636" lon="1.97393">
        <ele>175.1</ele>
        <time>2016-11-20T10:39:25Z</time>
      </trkpt>
      <trkpt lat="43.88651" lon="1.97381">
        <ele>174.14</ele>
        <time>2016-11-20T10:39:43Z</time>
      </trkpt>
      <trkpt lat="43.88656" lon="1.97372">
        <ele>174.14</ele>
        <time>2016-11-20T10:39:56Z</time>
      </trkpt>
      <trkpt lat="43.88671" lon="1.97355">
        <ele>172.69</ele>
        <time>2016-11-20T10:40:16Z</time>
      </trkpt>
      <trkpt lat="43.88685" lon="1.97338">
        <ele>171.73</ele>
        <time>2016-11-20T10:40:31Z</time>
      </trkpt>
      <trkpt lat="43.88693" lon="1.97328">
        <ele>171.25</ele>
        <time>2016-11-20T10:40:44Z</time>
      </trkpt>
      <trkpt lat="43.88694" lon="1.97312">
        <ele>173.17</ele>
        <time>2016-11-20T10:41:03Z</time>
      </trkpt>
      <trkpt lat="43.8869" lon="1.97292">
        <ele>174.62</ele>
        <time>2016-11-20T10:41:20Z</time>
      </trkpt>
      <trkpt lat="43.88687" lon="1.9727">
        <ele>176.06</ele>
        <time>2016-11-20T10:41:36Z</time>
      </trkpt>
      <trkpt lat="43.88682" lon="1.9725">
        <ele>177.5</ele>
        <time>2016-11-20T10:41:52Z</time>
      </trkpt>
      <trkpt lat="43.88679" lon="1.9723">
        <ele>178.46</ele>
        <time>2016-11-20T10:42:10Z</time>
      </trkpt>
      <trkpt lat="43.88676" lon="1.97219">
        <ele>178.94</ele>
        <time>2016-11-20T10:42:27Z</time>
      </trkpt>
      <trkpt lat="43.88674" lon="1.97216">
        <ele>179.42</ele>
        <time>2016-11-20T10:42:45Z</time>
      </trkpt>
      <trkpt lat="43.88674" lon="1.9721">
        <ele>179.42</ele>
        <time>2016-11-20T10:42:58Z</time>
      </trkpt>
      <trkpt lat="43.88676" lon="1.97199">
        <ele>179.42</ele>
        <time>2016-11-20T10:43:15Z</time>
      </trkpt>
      <trkpt lat="43.88675" lon="1.97199">
        <ele>181.35</ele>
        <time>2016-11-20T10:56:56Z</time>
      </trkpt>
      <trkpt lat="43.88672" lon="1.97193">
        <ele>181.83</ele>
        <time>2016-11-20T10:57:17Z</time>
      </trkpt>
      <trkpt lat="43.88665" lon="1.97181">
        <ele>182.31</ele>
        <time>2016-11-20T10:57:31Z</time>
      </trkpt>
      <trkpt lat="43.88657" lon="1.97166">
        <ele>183.75</ele>
        <time>2016-11-20T10:57:44Z</time>
      </trkpt>
      <trkpt lat="43.88653" lon="1.97156">
        <ele>183.27</ele>
        <time>2016-11-20T10:57:51Z</time>
      </trkpt>
      <trkpt lat="43.88652" lon="1.97143">
        <ele>183.27</ele>
        <time>2016-11-20T10:58:01Z</time>
      </trkpt>
      <trkpt lat="43.88652" lon="1.97124">
        <ele>183.27</ele>
        <time>2016-11-20T10:58:17Z</time>
      </trkpt>
      <trkpt lat="43.88651" lon="1.97123">
        <ele>183.75</ele>
        <time>2016-11-20T10:58:20Z</time>
      </trkpt>
      <trkpt lat="43.88645" lon="1.97123">
        <ele>184.71</ele>
        <time>2016-11-20T10:58:31Z</time>
      </trkpt>
      <trkpt lat="43.88638" lon="1.97103">
        <ele>184.71</ele>
        <time>2016-11-20T10:58:47Z</time>
      </trkpt>
      <trkpt lat="43.88631" lon="1.97078">
        <ele>184.71</ele>
        <time>2016-11-20T10:59:04Z</time>
      </trkpt>
      <trkpt lat="43.88625" lon="1.97055">
        <ele>185.67</ele>
        <time>2016-11-20T10:59:20Z</time>
      </trkpt>
      <trkpt lat="43.88619" lon="1.97032">
        <ele>186.15</ele>
        <time>2016-11-20T10:59:37Z</time>
      </trkpt>
      <trkpt lat="43.88614" lon="1.9701">
        <ele>185.67</ele>
        <time>2016-11-20T10:59:52Z</time>
      </trkpt>
      <trkpt lat="43.88608" lon="1.96984">
        <ele>183.75</ele>
        <time>2016-11-20T11:00:09Z</time>
      </trkpt>
      <trkpt lat="43.88602" lon="1.9696">
        <ele>183.27</ele>
        <time>2016-11-20T11:00:26Z</time>
      </trkpt>
      <trkpt lat="43.88598" lon="1.96942">
        <ele>182.31</ele>
        <time>2016-11-20T11:00:40Z</time>
      </trkpt>
      <trkpt lat="43.88597" lon="1.96938">
        <ele>182.31</ele>
        <time>2016-11-20T11:00:43Z</time>
      </trkpt>
      <trkpt lat="43.8859" lon="1.96924">
        <ele>182.79</ele>
        <time>2016-11-20T11:00:59Z</time>
      </trkpt>
      <trkpt lat="43.88589" lon="1.96923">
        <ele>183.27</ele>
        <time>2016-11-20T11:01:00Z</time>
      </trkpt>
      <trkpt lat="43.88584" lon="1.96926">
        <ele>183.75</ele>
        <time>2016-11-20T11:01:09Z</time>
      </trkpt>
      <trkpt lat="43.88572" lon="1.96934">
        <ele>185.67</ele>
        <time>2016-11-20T11:01:26Z</time>
      </trkpt>
      <trkpt lat="43.88562" lon="1.96945">
        <ele>188.08</ele>
        <time>2016-11-20T11:01:43Z</time>
      </trkpt>
      <trkpt lat="43.88555" lon="1.96935">
        <ele>189.04</ele>
        <time>2016-11-20T11:01:54Z</time>
      </trkpt>
      <trkpt lat="43.88549" lon="1.96916">
        <ele>190.48</ele>
        <time>2016-11-20T11:02:10Z</time>
      </trkpt>
      <trkpt lat="43.88542" lon="1.96896">
        <ele>191.92</ele>
        <time>2016-11-20T11:02:26Z</time>
      </trkpt>
      <trkpt lat="43.88535" lon="1.96881">
        <ele>192.88</ele>
        <time>2016-11-20T11:02:40Z</time>
      </trkpt>
      <trkpt lat="43.88519" lon="1.96871">
        <ele>194.8</ele>
        <time>2016-11-20T11:02:55Z</time>
      </trkpt>
      <trkpt lat="43.88516" lon="1.96868">
        <ele>194.8</ele>
        <time>2016-11-20T11:02:58Z</time>
      </trkpt>
      <trkpt lat="43.88504" lon="1.96846">
        <ele>194.32</ele>
        <time>2016-11-20T11:03:14Z</time>
      </trkpt>
      <trkpt lat="43.88489" lon="1.96829">
        <ele>194.8</ele>
        <time>2016-11-20T11:03:33Z</time>
      </trkpt>
      <trkpt lat="43.88484" lon="1.96827">
        <ele>195.28</ele>
        <time>2016-11-20T11:03:38Z</time>
      </trkpt>
      <trkpt lat="43.88476" lon="1.96813">
        <ele>194.8</ele>
        <time>2016-11-20T11:03:50Z</time>
      </trkpt>
      <trkpt lat="43.88475" lon="1.9681">
        <ele>194.32</ele>
        <time>2016-11-20T11:03:52Z</time>
      </trkpt>
      <trkpt lat="43.88467" lon="1.9679">
        <ele>194.32</ele>
        <time>2016-11-20T11:04:07Z</time>
      </trkpt>
      <trkpt lat="43.88465" lon="1.96785">
        <ele>193.84</ele>
        <time>2016-11-20T11:04:11Z</time>
      </trkpt>
      <trkpt lat="43.88462" lon="1.96779">
        <ele>193.84</ele>
        <time>2016-11-20T11:04:16Z</time>
      </trkpt>
      <trkpt lat="43.88452" lon="1.96759">
        <ele>194.32</ele>
        <time>2016-11-20T11:04:33Z</time>
      </trkpt>
      <trkpt lat="43.88448" lon="1.96754">
        <ele>194.32</ele>
        <time>2016-11-20T11:04:37Z</time>
      </trkpt>
      <trkpt lat="43.88443" lon="1.96749">
        <ele>195.28</ele>
        <time>2016-11-20T11:04:44Z</time>
      </trkpt>
      <trkpt lat="43.8844" lon="1.96742">
        <ele>195.28</ele>
        <time>2016-11-20T11:04:49Z</time>
      </trkpt>
      <trkpt lat="43.88443" lon="1.96718">
        <ele>195.28</ele>
        <time>2016-11-20T11:05:05Z</time>
      </trkpt>
      <trkpt lat="43.88444" lon="1.96703">
        <ele>195.28</ele>
        <time>2016-11-20T11:05:16Z</time>
      </trkpt>
      <trkpt lat="43.88449" lon="1.96679">
        <ele>195.28</ele>
        <time>2016-11-20T11:05:32Z</time>
      </trkpt>
      <trkpt lat="43.88451" lon="1.96657">
        <ele>195.28</ele>
        <time>2016-11-20T11:05:46Z</time>
      </trkpt>
      <trkpt lat="43.88453" lon="1.96635">
        <ele>194.8</ele>
        <time>2016-11-20T11:06:01Z</time>
      </trkpt>
      <trkpt lat="43.88453" lon="1.96633">
        <ele>194.8</ele>
        <time>2016-11-20T11:06:02Z</time>
      </trkpt>
      <trkpt lat="43.8845" lon="1.96628">
        <ele>194.8</ele>
        <time>2016-11-20T11:06:08Z</time>
      </trkpt>
      <trkpt lat="43.88436" lon="1.96632">
        <ele>195.28</ele>
        <time>2016-11-20T11:06:23Z</time>
      </trkpt>
      <trkpt lat="43.88425" lon="1.96641">
        <ele>195.77</ele>
        <time>2016-11-20T11:06:37Z</time>
      </trkpt>
      <trkpt lat="43.88412" lon="1.96649">
        <ele>196.25</ele>
        <time>2016-11-20T11:06:50Z</time>
      </trkpt>
      <trkpt lat="43.88395" lon="1.96661">
        <ele>195.77</ele>
        <time>2016-11-20T11:07:06Z</time>
      </trkpt>
      <trkpt lat="43.88382" lon="1.96671">
        <ele>195.77</ele>
        <time>2016-11-20T11:07:20Z</time>
      </trkpt>
      <trkpt lat="43.88376" lon="1.96676">
        <ele>196.25</ele>
        <time>2016-11-20T11:07:27Z</time>
      </trkpt>
      <trkpt lat="43.88375" lon="1.96678">
        <ele>195.77</ele>
        <time>2016-11-20T11:07:29Z</time>
      </trkpt>
      <trkpt lat="43.88364" lon="1.96687">
        <ele>195.77</ele>
        <time>2016-11-20T11:07:42Z</time>
      </trkpt>
      <trkpt lat="43.88351" lon="1.9668">
        <ele>194.32</ele>
        <time>2016-11-20T11:07:55Z</time>
      </trkpt>
      <trkpt lat="43.88352" lon="1.96668">
        <ele>192.4</ele>
        <time>2016-11-20T11:08:05Z</time>
      </trkpt>
      <trkpt lat="43.88358" lon="1.9665">
        <ele>190.96</ele>
        <time>2016-11-20T11:08:20Z</time>
      </trkpt>
      <trkpt lat="43.88362" lon="1.96634">
        <ele>189.04</ele>
        <time>2016-11-20T11:08:33Z</time>
      </trkpt>
      <trkpt lat="43.88367" lon="1.96615">
        <ele>186.15</ele>
        <time>2016-11-20T11:08:48Z</time>
      </trkpt>
      <trkpt lat="43.88369" lon="1.96602">
        <ele>184.23</ele>
        <time>2016-11-20T11:09:00Z</time>
      </trkpt>
      <trkpt lat="43.88369" lon="1.96596">
        <ele>183.27</ele>
        <time>2016-11-20T11:09:05Z</time>
      </trkpt>
      <trkpt lat="43.88372" lon="1.96582">
        <ele>181.35</ele>
        <time>2016-11-20T11:09:15Z</time>
      </trkpt>
      <trkpt lat="43.88376" lon="1.96563">
        <ele>178.94</ele>
        <time>2016-11-20T11:09:29Z</time>
      </trkpt>
      <trkpt lat="43.88381" lon="1.96545">
        <ele>176.54</ele>
        <time>2016-11-20T11:09:43Z</time>
      </trkpt>
      <trkpt lat="43.88388" lon="1.96525">
        <ele>175.1</ele>
        <time>2016-11-20T11:09:58Z</time>
      </trkpt>
      <trkpt lat="43.88394" lon="1.96516">
        <ele>174.62</ele>
        <time>2016-11-20T11:10:05Z</time>
      </trkpt>
      <trkpt lat="43.88408" lon="1.96491">
        <ele>173.66</ele>
        <time>2016-11-20T11:10:21Z</time>
      </trkpt>
      <trkpt lat="43.88409" lon="1.96489">
        <ele>174.14</ele>
        <time>2016-11-20T11:10:22Z</time>
      </trkpt>
      <trkpt lat="43.88411" lon="1.96487">
        <ele>173.66</ele>
        <time>2016-11-20T11:10:24Z</time>
      </trkpt>
      <trkpt lat="43.8843" lon="1.96473">
        <ele>173.17</ele>
        <time>2016-11-20T11:10:42Z</time>
      </trkpt>
      <trkpt lat="43.88453" lon="1.96462">
        <ele>172.21</ele>
        <time>2016-11-20T11:10:59Z</time>
      </trkpt>
      <trkpt lat="43.88456" lon="1.96462">
        <ele>172.69</ele>
        <time>2016-11-20T11:11:01Z</time>
      </trkpt>
      <trkpt lat="43.88457" lon="1.96459">
        <ele>172.21</ele>
        <time>2016-11-20T11:11:03Z</time>
      </trkpt>
      <trkpt lat="43.88461" lon="1.96457">
        <ele>172.21</ele>
        <time>2016-11-20T11:11:07Z</time>
      </trkpt>
      <trkpt lat="43.8846" lon="1.96448">
        <ele>171.25</ele>
        <time>2016-11-20T11:11:21Z</time>
      </trkpt>
      <trkpt lat="43.8845" lon="1.96441">
        <ele>171.25</ele>
        <time>2016-11-20T11:13:54Z</time>
      </trkpt>
      <trkpt lat="43.8844" lon="1.96433">
        <ele>171.25</ele>
        <time>2016-11-20T11:14:06Z</time>
      </trkpt>
      <trkpt lat="43.88429" lon="1.96424">
        <ele>171.25</ele>
        <time>2016-11-20T11:14:19Z</time>
      </trkpt>
      <trkpt lat="43.88419" lon="1.96412">
        <ele>171.25</ele>
        <time>2016-11-20T11:14:32Z</time>
      </trkpt>
      <trkpt lat="43.88408" lon="1.96392">
        <ele>170.77</ele>
        <time>2016-11-20T11:14:47Z</time>
      </trkpt>
      <trkpt lat="43.88398" lon="1.96366">
        <ele>170.77</ele>
        <time>2016-11-20T11:15:06Z</time>
      </trkpt>
      <trkpt lat="43.8839" lon="1.96339">
        <ele>170.29</ele>
        <time>2016-11-20T11:15:26Z</time>
      </trkpt>
      <trkpt lat="43.88382" lon="1.96313">
        <ele>170.29</ele>
        <time>2016-11-20T11:15:44Z</time>
      </trkpt>
      <trkpt lat="43.88373" lon="1.96291">
        <ele>170.29</ele>
        <time>2016-11-20T11:16:01Z</time>
      </trkpt>
      <trkpt lat="43.88363" lon="1.9626">
        <ele>170.29</ele>
        <time>2016-11-20T11:16:21Z</time>
      </trkpt>
      <trkpt lat="43.88358" lon="1.96242">
        <ele>170.29</ele>
        <time>2016-11-20T11:16:33Z</time>
      </trkpt>
      <trkpt lat="43.88348" lon="1.9621">
        <ele>170.29</ele>
        <time>2016-11-20T11:16:54Z</time>
      </trkpt>
      <trkpt lat="43.88341" lon="1.96198">
        <ele>170.29</ele>
        <time>2016-11-20T11:17:04Z</time>
      </trkpt>
      <trkpt lat="43.88335" lon="1.96184">
        <ele>171.25</ele>
        <time>2016-11-20T11:17:16Z</time>
      </trkpt>
      <trkpt lat="43.88332" lon="1.96181">
        <ele>170.77</ele>
        <time>2016-11-20T11:17:23Z</time>
      </trkpt>
      <trkpt lat="43.88318" lon="1.96175">
        <ele>171.25</ele>
        <time>2016-11-20T11:17:39Z</time>
      </trkpt>
      <trkpt lat="43.88317" lon="1.96175">
        <ele>171.25</ele>
        <time>2016-11-20T11:17:47Z</time>
      </trkpt>
      <trkpt lat="43.88321" lon="1.96171">
        <ele>171.25</ele>
        <time>2016-11-20T11:17:51Z</time>
      </trkpt>
      <trkpt lat="43.88333" lon="1.96172">
        <ele>170.77</ele>
        <time>2016-11-20T11:18:09Z</time>
      </trkpt>
      <trkpt lat="43.88335" lon="1.96173">
        <ele>170.77</ele>
        <time>2016-11-20T11:18:12Z</time>
      </trkpt>
      <trkpt lat="43.88345" lon="1.9617">
        <ele>170.77</ele>
        <time>2016-11-20T11:18:22Z</time>
      </trkpt>
      <trkpt lat="43.88364" lon="1.96156">
        <ele>171.25</ele>
        <time>2016-11-20T11:18:40Z</time>
      </trkpt>
      <trkpt lat="43.8837" lon="1.96149">
        <ele>171.25</ele>
        <time>2016-11-20T11:18:46Z</time>
      </trkpt>
      <trkpt lat="43.8839" lon="1.96129">
        <ele>171.25</ele>
        <time>2016-11-20T11:19:06Z</time>
      </trkpt>
      <trkpt lat="43.88409" lon="1.96112">
        <ele>171.25</ele>
        <time>2016-11-20T11:19:24Z</time>
      </trkpt>
      <trkpt lat="43.88427" lon="1.96095">
        <ele>171.25</ele>
        <time>2016-11-20T11:19:41Z</time>
      </trkpt>
      <trkpt lat="43.88446" lon="1.96076">
        <ele>170.77</ele>
        <time>2016-11-20T11:20:00Z</time>
      </trkpt>
      <trkpt lat="43.88465" lon="1.96058">
        <ele>171.25</ele>
        <time>2016-11-20T11:20:19Z</time>
      </trkpt>
      <trkpt lat="43.88482" lon="1.9604">
        <ele>171.25</ele>
        <time>2016-11-20T11:20:37Z</time>
      </trkpt>
      <trkpt lat="43.88502" lon="1.96024">
        <ele>171.25</ele>
        <time>2016-11-20T11:20:56Z</time>
      </trkpt>
      <trkpt lat="43.88527" lon="1.96008">
        <ele>171.73</ele>
        <time>2016-11-20T11:21:18Z</time>
      </trkpt>
      <trkpt lat="43.88549" lon="1.95992">
        <ele>171.73</ele>
        <time>2016-11-20T11:21:39Z</time>
      </trkpt>
      <trkpt lat="43.88567" lon="1.95975">
        <ele>171.73</ele>
        <time>2016-11-20T11:21:58Z</time>
      </trkpt>
      <trkpt lat="43.8857" lon="1.95952">
        <ele>172.21</ele>
        <time>2016-11-20T11:22:13Z</time>
      </trkpt>
      <trkpt lat="43.88572" lon="1.95923">
        <ele>171.73</ele>
        <time>2016-11-20T11:22:30Z</time>
      </trkpt>
      <trkpt lat="43.88573" lon="1.95896">
        <ele>171.73</ele>
        <time>2016-11-20T11:22:47Z</time>
      </trkpt>
      <trkpt lat="43.88574" lon="1.95873">
        <ele>171.25</ele>
        <time>2016-11-20T11:23:02Z</time>
      </trkpt>
      <trkpt lat="43.88575" lon="1.95851">
        <ele>170.77</ele>
        <time>2016-11-20T11:23:16Z</time>
      </trkpt>
      <trkpt lat="43.88578" lon="1.95826">
        <ele>170.77</ele>
        <time>2016-11-20T11:23:31Z</time>
      </trkpt>
      <trkpt lat="43.88579" lon="1.95805">
        <ele>170.29</ele>
        <time>2016-11-20T11:23:44Z</time>
      </trkpt>
      <trkpt lat="43.8858" lon="1.95781">
        <ele>169.81</ele>
        <time>2016-11-20T11:23:59Z</time>
      </trkpt>
      <trkpt lat="43.88582" lon="1.95757">
        <ele>169.81</ele>
        <time>2016-11-20T11:24:14Z</time>
      </trkpt>
      <trkpt lat="43.88583" lon="1.95732">
        <ele>169.33</ele>
        <time>2016-11-20T11:24:30Z</time>
      </trkpt>
      <trkpt lat="43.88583" lon="1.95731">
        <ele>169.33</ele>
        <time>2016-11-20T11:24:31Z</time>
      </trkpt>
      <trkpt lat="43.88583" lon="1.95725">
        <ele>169.33</ele>
        <time>2016-11-20T11:24:35Z</time>
      </trkpt>
      <trkpt lat="43.88585" lon="1.957">
        <ele>169.33</ele>
        <time>2016-11-20T11:24:50Z</time>
      </trkpt>
      <trkpt lat="43.88586" lon="1.95686">
        <ele>169.33</ele>
        <time>2016-11-20T11:25:00Z</time>
      </trkpt>
      <trkpt lat="43.88588" lon="1.95661">
        <ele>168.85</ele>
        <time>2016-11-20T11:25:16Z</time>
      </trkpt>
      <trkpt lat="43.88589" lon="1.95634">
        <ele>168.37</ele>
        <time>2016-11-20T11:25:33Z</time>
      </trkpt>
      <trkpt lat="43.88591" lon="1.95609">
        <ele>168.37</ele>
        <time>2016-11-20T11:25:48Z</time>
      </trkpt>
      <trkpt lat="43.88593" lon="1.95586">
        <ele>167.89</ele>
        <time>2016-11-20T11:26:03Z</time>
      </trkpt>
      <trkpt lat="43.88594" lon="1.95565">
        <ele>167.89</ele>
        <time>2016-11-20T11:26:17Z</time>
      </trkpt>
      <trkpt lat="43.88595" lon="1.95538">
        <ele>167.89</ele>
        <time>2016-11-20T11:26:34Z</time>
      </trkpt>
      <trkpt lat="43.88596" lon="1.95516">
        <ele>167.89</ele>
        <time>2016-11-20T11:26:49Z</time>
      </trkpt>
      <trkpt lat="43.88598" lon="1.95491">
        <ele>167.41</ele>
        <time>2016-11-20T11:27:05Z</time>
      </trkpt>
      <trkpt lat="43.88599" lon="1.9547">
        <ele>167.41</ele>
        <time>2016-11-20T11:27:19Z</time>
      </trkpt>
      <trkpt lat="43.886" lon="1.95446">
        <ele>167.41</ele>
        <time>2016-11-20T11:27:35Z</time>
      </trkpt>
      <trkpt lat="43.88604" lon="1.95417">
        <ele>167.41</ele>
        <time>2016-11-20T11:27:53Z</time>
      </trkpt>
      <trkpt lat="43.88604" lon="1.95412">
        <ele>166.93</ele>
        <time>2016-11-20T11:27:56Z</time>
      </trkpt>
      <trkpt lat="43.88605" lon="1.95394">
        <ele>167.41</ele>
        <time>2016-11-20T11:28:08Z</time>
      </trkpt>
      <trkpt lat="43.88607" lon="1.9537">
        <ele>167.41</ele>
        <time>2016-11-20T11:28:24Z</time>
      </trkpt>
      <trkpt lat="43.88607" lon="1.95348">
        <ele>166.93</ele>
        <time>2016-11-20T11:28:39Z</time>
      </trkpt>
      <trkpt lat="43.88608" lon="1.95327">
        <ele>167.41</ele>
        <time>2016-11-20T11:28:54Z</time>
      </trkpt>
      <trkpt lat="43.88608" lon="1.95326">
        <ele>167.41</ele>
        <time>2016-11-20T11:28:55Z</time>
      </trkpt>
      <trkpt lat="43.88606" lon="1.95321">
        <ele>166.93</ele>
        <time>2016-11-20T11:28:59Z</time>
      </trkpt>
      <trkpt lat="43.88588" lon="1.9532">
        <ele>167.41</ele>
        <time>2016-11-20T11:29:18Z</time>
      </trkpt>
      <trkpt lat="43.88572" lon="1.95324">
        <ele>167.89</ele>
        <time>2016-11-20T11:29:34Z</time>
      </trkpt>
      <trkpt lat="43.88563" lon="1.95326">
        <ele>167.41</ele>
        <time>2016-11-20T11:29:43Z</time>
      </trkpt>
      <trkpt lat="43.88547" lon="1.95331">
        <ele>167.41</ele>
        <time>2016-11-20T11:30:00Z</time>
      </trkpt>
      <trkpt lat="43.88546" lon="1.95331">
        <ele>167.89</ele>
        <time>2016-11-20T11:30:01Z</time>
      </trkpt>
      <trkpt lat="43.88543" lon="1.95331">
        <ele>167.41</ele>
        <time>2016-11-20T11:30:04Z</time>
      </trkpt>
      <trkpt lat="43.88539" lon="1.95333">
        <ele>167.41</ele>
        <time>2016-11-20T11:30:08Z</time>
      </trkpt>
      <trkpt lat="43.88521" lon="1.95339">
        <ele>167.89</ele>
        <time>2016-11-20T11:30:27Z</time>
      </trkpt>
      <trkpt lat="43.88506" lon="1.95344">
        <ele>167.41</ele>
        <time>2016-11-20T11:30:43Z</time>
      </trkpt>
      <trkpt lat="43.88488" lon="1.95351">
        <ele>167.41</ele>
        <time>2016-11-20T11:31:01Z</time>
      </trkpt>
      <trkpt lat="43.88469" lon="1.95358">
        <ele>167.89</ele>
        <time>2016-11-20T11:31:20Z</time>
      </trkpt>
      <trkpt lat="43.88452" lon="1.95364">
        <ele>168.37</ele>
        <time>2016-11-20T11:31:37Z</time>
      </trkpt>
      <trkpt lat="43.88437" lon="1.95368">
        <ele>168.37</ele>
        <time>2016-11-20T11:31:53Z</time>
      </trkpt>
      <trkpt lat="43.8842" lon="1.9537">
        <ele>168.37</ele>
        <time>2016-11-20T11:32:10Z</time>
      </trkpt>
      <trkpt lat="43.88398" lon="1.95369">
        <ele>168.37</ele>
        <time>2016-11-20T11:32:30Z</time>
      </trkpt>
      <trkpt lat="43.8838" lon="1.95367">
        <ele>168.37</ele>
        <time>2016-11-20T11:32:47Z</time>
      </trkpt>
      <trkpt lat="43.88361" lon="1.95366">
        <ele>168.85</ele>
        <time>2016-11-20T11:33:05Z</time>
      </trkpt>
      <trkpt lat="43.88342" lon="1.95364">
        <ele>169.33</ele>
        <time>2016-11-20T11:33:22Z</time>
      </trkpt>
      <trkpt lat="43.88325" lon="1.95362">
        <ele>169.33</ele>
        <time>2016-11-20T11:33:38Z</time>
      </trkpt>
      <trkpt lat="43.88307" lon="1.95361">
        <ele>169.81</ele>
        <time>2016-11-20T11:33:56Z</time>
      </trkpt>
      <trkpt lat="43.88289" lon="1.95359">
        <ele>169.33</ele>
        <time>2016-11-20T11:34:13Z</time>
      </trkpt>
      <trkpt lat="43.88272" lon="1.95359">
        <ele>169.81</ele>
        <time>2016-11-20T11:34:30Z</time>
      </trkpt>
      <trkpt lat="43.88265" lon="1.95358">
        <ele>169.81</ele>
        <time>2016-11-20T11:34:37Z</time>
      </trkpt>
      <trkpt lat="43.88247" lon="1.9536">
        <ele>169.81</ele>
        <time>2016-11-20T11:34:54Z</time>
      </trkpt>
      <trkpt lat="43.88229" lon="1.95363">
        <ele>170.29</ele>
        <time>2016-11-20T11:35:12Z</time>
      </trkpt>
      <trkpt lat="43.88209" lon="1.95367">
        <ele>170.29</ele>
        <time>2016-11-20T11:35:30Z</time>
      </trkpt>
      <trkpt lat="43.88191" lon="1.95371">
        <ele>170.29</ele>
        <time>2016-11-20T11:35:48Z</time>
      </trkpt>
      <trkpt lat="43.88174" lon="1.95374">
        <ele>170.77</ele>
        <time>2016-11-20T11:36:04Z</time>
      </trkpt>
      <trkpt lat="43.88155" lon="1.95377">
        <ele>170.29</ele>
        <time>2016-11-20T11:36:22Z</time>
      </trkpt>
      <trkpt lat="43.88137" lon="1.95381">
        <ele>170.77</ele>
        <time>2016-11-20T11:36:39Z</time>
      </trkpt>
      <trkpt lat="43.88121" lon="1.95384">
        <ele>171.25</ele>
        <time>2016-11-20T11:36:55Z</time>
      </trkpt>
      <trkpt lat="43.88102" lon="1.95387">
        <ele>170.77</ele>
        <time>2016-11-20T11:37:13Z</time>
      </trkpt>
      <trkpt lat="43.88086" lon="1.95388">
        <ele>171.25</ele>
        <time>2016-11-20T11:37:28Z</time>
      </trkpt>
      <trkpt lat="43.88072" lon="1.95369">
        <ele>171.25</ele>
        <time>2016-11-20T11:37:45Z</time>
      </trkpt>
      <trkpt lat="43.88068" lon="1.95357">
        <ele>171.25</ele>
        <time>2016-11-20T11:37:56Z</time>
      </trkpt>
      <trkpt lat="43.88067" lon="1.95353">
        <ele>171.25</ele>
        <time>2016-11-20T11:37:59Z</time>
      </trkpt>
      <trkpt lat="43.88062" lon="1.95326">
        <ele>171.25</ele>
        <time>2016-11-20T11:38:17Z</time>
      </trkpt>
      <trkpt lat="43.88059" lon="1.95304">
        <ele>171.25</ele>
        <time>2016-11-20T11:38:33Z</time>
      </trkpt>
      <trkpt lat="43.88059" lon="1.95303">
        <ele>170.77</ele>
        <time>2016-11-20T11:38:34Z</time>
      </trkpt>
      <trkpt lat="43.88059" lon="1.953">
        <ele>171.25</ele>
        <time>2016-11-20T11:38:36Z</time>
      </trkpt>
      <trkpt lat="43.88059" lon="1.95294">
        <ele>171.25</ele>
        <time>2016-11-20T11:38:49Z</time>
      </trkpt>
      <trkpt lat="43.88055" lon="1.95278">
        <ele>170.77</ele>
        <time>2016-11-20T11:39:03Z</time>
      </trkpt>
      <trkpt lat="43.88051" lon="1.95257">
        <ele>170.77</ele>
        <time>2016-11-20T11:39:19Z</time>
      </trkpt>
      <trkpt lat="43.88046" lon="1.95233">
        <ele>171.25</ele>
        <time>2016-11-20T11:39:37Z</time>
      </trkpt>
      <trkpt lat="43.88035" lon="1.95209">
        <ele>171.25</ele>
        <time>2016-11-20T11:39:55Z</time>
      </trkpt>
      <trkpt lat="43.88019" lon="1.95206">
        <ele>171.25</ele>
        <time>2016-11-20T11:40:14Z</time>
      </trkpt>
      <trkpt lat="43.88001" lon="1.95219">
        <ele>171.25</ele>
        <time>2016-11-20T11:40:34Z</time>
      </trkpt>
      <trkpt lat="43.8799" lon="1.95227">
        <ele>171.73</ele>
        <time>2016-11-20T11:40:49Z</time>
      </trkpt>
      <trkpt lat="43.87974" lon="1.95236">
        <ele>171.25</ele>
        <time>2016-11-20T11:41:07Z</time>
      </trkpt>
      <trkpt lat="43.87958" lon="1.95242">
        <ele>172.21</ele>
        <time>2016-11-20T11:41:24Z</time>
      </trkpt>
      <trkpt lat="43.87939" lon="1.95241">
        <ele>172.21</ele>
        <time>2016-11-20T11:41:42Z</time>
      </trkpt>
      <trkpt lat="43.87932" lon="1.9524">
        <ele>172.21</ele>
        <time>2016-11-20T11:41:48Z</time>
      </trkpt>
      <trkpt lat="43.87908" lon="1.95232">
        <ele>173.17</ele>
        <time>2016-11-20T11:42:07Z</time>
      </trkpt>
      <trkpt lat="43.87888" lon="1.95225">
        <ele>174.14</ele>
        <time>2016-11-20T11:42:26Z</time>
      </trkpt>
      <trkpt lat="43.87874" lon="1.9522">
        <ele>173.66</ele>
        <time>2016-11-20T11:42:40Z</time>
      </trkpt>
      <trkpt lat="43.8786" lon="1.95218">
        <ele>174.14</ele>
        <time>2016-11-20T11:42:57Z</time>
      </trkpt>
      <trkpt lat="43.87844" lon="1.95211">
        <ele>175.1</ele>
        <time>2016-11-20T11:43:13Z</time>
      </trkpt>
      <trkpt lat="43.87833" lon="1.95211">
        <ele>175.58</ele>
        <time>2016-11-20T11:43:21Z</time>
      </trkpt>
      <trkpt lat="43.87803" lon="1.95203">
        <ele>177.5</ele>
        <time>2016-11-20T11:43:43Z</time>
      </trkpt>
      <trkpt lat="43.8778" lon="1.95193">
        <ele>178.46</ele>
        <time>2016-11-20T11:44:01Z</time>
      </trkpt>
      <trkpt lat="43.87758" lon="1.9518">
        <ele>180.38</ele>
        <time>2016-11-20T11:44:20Z</time>
      </trkpt>
      <trkpt lat="43.87738" lon="1.95169">
        <ele>182.31</ele>
        <time>2016-11-20T11:44:38Z</time>
      </trkpt>
      <trkpt lat="43.87725" lon="1.9516">
        <ele>182.79</ele>
        <time>2016-11-20T11:44:54Z</time>
      </trkpt>
      <trkpt lat="43.87726" lon="1.95159">
        <ele>182.79</ele>
        <time>2016-11-20T11:45:13Z</time>
      </trkpt>
      <trkpt lat="43.87728" lon="1.9516">
        <ele>182.79</ele>
        <time>2016-11-20T11:45:34Z</time>
      </trkpt>
      <trkpt lat="43.87722" lon="1.95162">
        <ele>183.27</ele>
        <time>2016-11-20T11:46:01Z</time>
      </trkpt>
      <trkpt lat="43.87717" lon="1.95158">
        <ele>183.27</ele>
        <time>2016-11-20T11:46:12Z</time>
      </trkpt>
      <trkpt lat="43.87714" lon="1.95153">
        <ele>183.75</ele>
        <time>2016-11-20T11:46:18Z</time>
      </trkpt>
      <trkpt lat="43.87704" lon="1.95133">
        <ele>184.71</ele>
        <time>2016-11-20T11:46:33Z</time>
      </trkpt>
      <trkpt lat="43.8769" lon="1.9511">
        <ele>185.19</ele>
        <time>2016-11-20T11:46:51Z</time>
      </trkpt>
      <trkpt lat="43.87677" lon="1.95088">
        <ele>185.67</ele>
        <time>2016-11-20T11:47:08Z</time>
      </trkpt>
      <trkpt lat="43.8767" lon="1.9508">
        <ele>186.15</ele>
        <time>2016-11-20T11:47:17Z</time>
      </trkpt>
      <trkpt lat="43.87667" lon="1.95076">
        <ele>186.63</ele>
        <time>2016-11-20T11:47:21Z</time>
      </trkpt>
      <trkpt lat="43.87652" lon="1.95046">
        <ele>187.11</ele>
        <time>2016-11-20T11:47:42Z</time>
      </trkpt>
      <trkpt lat="43.87639" lon="1.95024">
        <ele>187.59</ele>
        <time>2016-11-20T11:47:59Z</time>
      </trkpt>
      <trkpt lat="43.87632" lon="1.95012">
        <ele>187.11</ele>
        <time>2016-11-20T11:48:08Z</time>
      </trkpt>
      <trkpt lat="43.87624" lon="1.95">
        <ele>187.11</ele>
        <time>2016-11-20T11:48:17Z</time>
      </trkpt>
      <trkpt lat="43.87625" lon="1.95">
        <ele>186.63</ele>
        <time>2016-11-20T11:48:38Z</time>
      </trkpt>
      <trkpt lat="43.87626" lon="1.94999">
        <ele>181.83</ele>
        <time>2016-11-20T11:49:02Z</time>
      </trkpt>
      <trkpt lat="43.87626" lon="1.94999">
        <ele>185.67</ele>
        <time>2016-11-20T11:49:03Z</time>
      </trkpt>
      <trkpt lat="43.87625" lon="1.95002">
        <ele>186.63</ele>
        <time>2016-11-20T11:49:33Z</time>
      </trkpt>
      <trkpt lat="43.87626" lon="1.95001">
        <ele>188.08</ele>
        <time>2016-11-20T11:49:41Z</time>
      </trkpt>
      <trkpt lat="43.87624" lon="1.94999">
        <ele>187.11</ele>
        <time>2016-11-20T11:49:44Z</time>
      </trkpt>
      <trkpt lat="43.8762" lon="1.94995">
        <ele>186.15</ele>
        <time>2016-11-20T11:49:48Z</time>
      </trkpt>
      <trkpt lat="43.87598" lon="1.94976">
        <ele>188.08</ele>
        <time>2016-11-20T11:50:08Z</time>
      </trkpt>
      <trkpt lat="43.8758" lon="1.94965">
        <ele>188.56</ele>
        <time>2016-11-20T11:50:25Z</time>
      </trkpt>
      <trkpt lat="43.87558" lon="1.94962">
        <ele>189.04</ele>
        <time>2016-11-20T11:50:43Z</time>
      </trkpt>
      <trkpt lat="43.87538" lon="1.94964">
        <ele>189.52</ele>
        <time>2016-11-20T11:50:58Z</time>
      </trkpt>
      <trkpt lat="43.87511" lon="1.94969">
        <ele>189.52</ele>
        <time>2016-11-20T11:51:18Z</time>
      </trkpt>
      <trkpt lat="43.87483" lon="1.9497">
        <ele>190</ele>
        <time>2016-11-20T11:51:39Z</time>
      </trkpt>
      <trkpt lat="43.87457" lon="1.94969">
        <ele>190.48</ele>
        <time>2016-11-20T11:51:58Z</time>
      </trkpt>
      <trkpt lat="43.87437" lon="1.94981">
        <ele>190.48</ele>
        <time>2016-11-20T11:52:15Z</time>
      </trkpt>
      <trkpt lat="43.87422" lon="1.95007">
        <ele>190.48</ele>
        <time>2016-11-20T11:52:34Z</time>
      </trkpt>
      <trkpt lat="43.87405" lon="1.95038">
        <ele>191.44</ele>
        <time>2016-11-20T11:52:56Z</time>
      </trkpt>
      <trkpt lat="43.8739" lon="1.95062">
        <ele>191.44</ele>
        <time>2016-11-20T11:53:14Z</time>
      </trkpt>
      <trkpt lat="43.8737" lon="1.95078">
        <ele>191.44</ele>
        <time>2016-11-20T11:53:31Z</time>
      </trkpt>
      <trkpt lat="43.87347" lon="1.95085">
        <ele>191.44</ele>
        <time>2016-11-20T11:53:48Z</time>
      </trkpt>
      <trkpt lat="43.87339" lon="1.95088">
        <ele>191.44</ele>
        <time>2016-11-20T11:53:54Z</time>
      </trkpt>
      <trkpt lat="43.87334" lon="1.95089">
        <ele>191.44</ele>
        <time>2016-11-20T11:53:58Z</time>
      </trkpt>
      <trkpt lat="43.87307" lon="1.9509">
        <ele>191.44</ele>
        <time>2016-11-20T11:54:19Z</time>
      </trkpt>
      <trkpt lat="43.87282" lon="1.95088">
        <ele>191.44</ele>
        <time>2016-11-20T11:54:38Z</time>
      </trkpt>
      <trkpt lat="43.87267" lon="1.95085">
        <ele>191.44</ele>
        <time>2016-11-20T11:54:51Z</time>
      </trkpt>
      <trkpt lat="43.87264" lon="1.95056">
        <ele>191.44</ele>
        <time>2016-11-20T11:55:07Z</time>
      </trkpt>
      <trkpt lat="43.87266" lon="1.95028">
        <ele>191.44</ele>
        <time>2016-11-20T11:55:24Z</time>
      </trkpt>
      <trkpt lat="43.87265" lon="1.94999">
        <ele>191.44</ele>
        <time>2016-11-20T11:55:41Z</time>
      </trkpt>
      <trkpt lat="43.87255" lon="1.94973">
        <ele>190.96</ele>
        <time>2016-11-20T11:56:00Z</time>
      </trkpt>
      <trkpt lat="43.87243" lon="1.94945">
        <ele>190.96</ele>
        <time>2016-11-20T11:56:19Z</time>
      </trkpt>
      <trkpt lat="43.87231" lon="1.94923">
        <ele>190.96</ele>
        <time>2016-11-20T11:56:35Z</time>
      </trkpt>
      <trkpt lat="43.87218" lon="1.94901">
        <ele>190.96</ele>
        <time>2016-11-20T11:56:51Z</time>
      </trkpt>
      <trkpt lat="43.87203" lon="1.94883">
        <ele>190.48</ele>
        <time>2016-11-20T11:57:07Z</time>
      </trkpt>
      <trkpt lat="43.8719" lon="1.94857">
        <ele>190.96</ele>
        <time>2016-11-20T11:57:25Z</time>
      </trkpt>
      <trkpt lat="43.87178" lon="1.94826">
        <ele>191.44</ele>
        <time>2016-11-20T11:57:44Z</time>
      </trkpt>
      <trkpt lat="43.87166" lon="1.948">
        <ele>191.44</ele>
        <time>2016-11-20T11:58:02Z</time>
      </trkpt>
      <trkpt lat="43.87156" lon="1.94777">
        <ele>191.92</ele>
        <time>2016-11-20T11:58:17Z</time>
      </trkpt>
      <trkpt lat="43.87145" lon="1.94755">
        <ele>191.92</ele>
        <time>2016-11-20T11:58:33Z</time>
      </trkpt>
      <trkpt lat="43.87131" lon="1.94733">
        <ele>192.4</ele>
        <time>2016-11-20T11:58:50Z</time>
      </trkpt>
      <trkpt lat="43.87113" lon="1.94717">
        <ele>192.88</ele>
        <time>2016-11-20T11:59:08Z</time>
      </trkpt>
      <trkpt lat="43.87096" lon="1.94706">
        <ele>192.88</ele>
        <time>2016-11-20T11:59:23Z</time>
      </trkpt>
      <trkpt lat="43.87078" lon="1.94697">
        <ele>193.36</ele>
        <time>2016-11-20T11:59:39Z</time>
      </trkpt>
      <trkpt lat="43.8706" lon="1.94686">
        <ele>193.84</ele>
        <time>2016-11-20T11:59:55Z</time>
      </trkpt>
      <trkpt lat="43.87043" lon="1.94677">
        <ele>194.8</ele>
        <time>2016-11-20T12:00:10Z</time>
      </trkpt>
      <trkpt lat="43.87024" lon="1.94668">
        <ele>195.77</ele>
        <time>2016-11-20T12:00:27Z</time>
      </trkpt>
      <trkpt lat="43.87014" lon="1.94663">
        <ele>195.77</ele>
        <time>2016-11-20T12:00:37Z</time>
      </trkpt>
      <trkpt lat="43.87007" lon="1.9466">
        <ele>196.25</ele>
        <time>2016-11-20T12:00:43Z</time>
      </trkpt>
      <trkpt lat="43.86988" lon="1.94651">
        <ele>197.21</ele>
        <time>2016-11-20T12:01:00Z</time>
      </trkpt>
      <trkpt lat="43.86977" lon="1.94646">
        <ele>198.17</ele>
        <time>2016-11-20T12:01:10Z</time>
      </trkpt>
      <trkpt lat="43.86972" lon="1.94644">
        <ele>198.65</ele>
        <time>2016-11-20T12:01:15Z</time>
      </trkpt>
      <trkpt lat="43.86955" lon="1.94638">
        <ele>199.61</ele>
        <time>2016-11-20T12:01:31Z</time>
      </trkpt>
      <trkpt lat="43.86952" lon="1.94632">
        <ele>200.09</ele>
        <time>2016-11-20T12:01:36Z</time>
      </trkpt>
      <trkpt lat="43.86952" lon="1.94621">
        <ele>200.09</ele>
        <time>2016-11-20T12:01:42Z</time>
      </trkpt>
      <trkpt lat="43.86953" lon="1.94617">
        <ele>200.09</ele>
        <time>2016-11-20T12:01:45Z</time>
      </trkpt>
      <trkpt lat="43.86952" lon="1.94611">
        <ele>200.09</ele>
        <time>2016-11-20T12:01:49Z</time>
      </trkpt>
      <trkpt lat="43.86949" lon="1.94606">
        <ele>200.57</ele>
        <time>2016-11-20T12:01:54Z</time>
      </trkpt>
      <trkpt lat="43.86931" lon="1.94595">
        <ele>201.05</ele>
        <time>2016-11-20T12:02:11Z</time>
      </trkpt>
      <trkpt lat="43.86916" lon="1.94582">
        <ele>201.53</ele>
        <time>2016-11-20T12:02:28Z</time>
      </trkpt>
      <trkpt lat="43.86907" lon="1.94573">
        <ele>201.53</ele>
        <time>2016-11-20T12:02:38Z</time>
      </trkpt>
      <trkpt lat="43.86891" lon="1.94561">
        <ele>202.01</ele>
        <time>2016-11-20T12:02:54Z</time>
      </trkpt>
      <trkpt lat="43.86877" lon="1.94548">
        <ele>202.98</ele>
        <time>2016-11-20T12:03:09Z</time>
      </trkpt>
      <trkpt lat="43.86864" lon="1.94537">
        <ele>203.46</ele>
        <time>2016-11-20T12:03:23Z</time>
      </trkpt>
      <trkpt lat="43.86846" lon="1.94523">
        <ele>203.94</ele>
        <time>2016-11-20T12:03:40Z</time>
      </trkpt>
      <trkpt lat="43.8683" lon="1.94513">
        <ele>204.42</ele>
        <time>2016-11-20T12:03:56Z</time>
      </trkpt>
      <trkpt lat="43.86817" lon="1.94502">
        <ele>204.42</ele>
        <time>2016-11-20T12:04:12Z</time>
      </trkpt>
      <trkpt lat="43.86802" lon="1.94489">
        <ele>204.9</ele>
        <time>2016-11-20T12:04:28Z</time>
      </trkpt>
      <trkpt lat="43.86788" lon="1.94476">
        <ele>205.38</ele>
        <time>2016-11-20T12:04:43Z</time>
      </trkpt>
      <trkpt lat="43.86772" lon="1.94464">
        <ele>205.38</ele>
        <time>2016-11-20T12:04:59Z</time>
      </trkpt>
      <trkpt lat="43.86766" lon="1.94458">
        <ele>205.38</ele>
        <time>2016-11-20T12:05:14Z</time>
      </trkpt>
      <trkpt lat="43.86764" lon="1.94457">
        <ele>204.9</ele>
        <time>2016-11-20T12:05:16Z</time>
      </trkpt>
      <trkpt lat="43.86743" lon="1.94443">
        <ele>205.38</ele>
        <time>2016-11-20T12:05:34Z</time>
      </trkpt>
      <trkpt lat="43.86723" lon="1.9443">
        <ele>205.38</ele>
        <time>2016-11-20T12:05:53Z</time>
      </trkpt>
      <trkpt lat="43.86709" lon="1.94419">
        <ele>204.9</ele>
        <time>2016-11-20T12:06:06Z</time>
      </trkpt>
      <trkpt lat="43.86708" lon="1.94416">
        <ele>204.9</ele>
        <time>2016-11-20T12:06:12Z</time>
      </trkpt>
      <trkpt lat="43.86696" lon="1.9441">
        <ele>203.94</ele>
        <time>2016-11-20T12:06:21Z</time>
      </trkpt>
      <trkpt lat="43.86675" lon="1.94397">
        <ele>203.46</ele>
        <time>2016-11-20T12:06:40Z</time>
      </trkpt>
      <trkpt lat="43.86658" lon="1.94384">
        <ele>202.98</ele>
        <time>2016-11-20T12:06:56Z</time>
      </trkpt>
      <trkpt lat="43.86642" lon="1.94374">
        <ele>202.98</ele>
        <time>2016-11-20T12:07:11Z</time>
      </trkpt>
      <trkpt lat="43.86626" lon="1.9436">
        <ele>202.98</ele>
        <time>2016-11-20T12:07:26Z</time>
      </trkpt>
      <trkpt lat="43.86609" lon="1.94342">
        <ele>202.98</ele>
        <time>2016-11-20T12:07:43Z</time>
      </trkpt>
      <trkpt lat="43.86589" lon="1.94322">
        <ele>202.98</ele>
        <time>2016-11-20T12:08:02Z</time>
      </trkpt>
      <trkpt lat="43.86574" lon="1.94307">
        <ele>202.98</ele>
        <time>2016-11-20T12:08:18Z</time>
      </trkpt>
      <trkpt lat="43.86559" lon="1.94293">
        <ele>202.49</ele>
        <time>2016-11-20T12:08:33Z</time>
      </trkpt>
      <trkpt lat="43.86543" lon="1.94278">
        <ele>202.98</ele>
        <time>2016-11-20T12:08:49Z</time>
      </trkpt>
      <trkpt lat="43.86526" lon="1.94262">
        <ele>202.98</ele>
        <time>2016-11-20T12:09:06Z</time>
      </trkpt>
      <trkpt lat="43.8651" lon="1.94247">
        <ele>203.46</ele>
        <time>2016-11-20T12:09:23Z</time>
      </trkpt>
      <trkpt lat="43.86495" lon="1.94232">
        <ele>203.94</ele>
        <time>2016-11-20T12:09:38Z</time>
      </trkpt>
      <trkpt lat="43.86477" lon="1.94214">
        <ele>204.42</ele>
        <time>2016-11-20T12:09:56Z</time>
      </trkpt>
      <trkpt lat="43.86459" lon="1.942">
        <ele>203.94</ele>
        <time>2016-11-20T12:10:13Z</time>
      </trkpt>
      <trkpt lat="43.86438" lon="1.94179">
        <ele>204.42</ele>
        <time>2016-11-20T12:10:34Z</time>
      </trkpt>
      <trkpt lat="43.86426" lon="1.94161">
        <ele>204.42</ele>
        <time>2016-11-20T12:10:48Z</time>
      </trkpt>
      <trkpt lat="43.86423" lon="1.94157">
        <ele>203.94</ele>
        <time>2016-11-20T12:10:52Z</time>
      </trkpt>
      <trkpt lat="43.86406" lon="1.94142">
        <ele>203.94</ele>
        <time>2016-11-20T12:11:09Z</time>
      </trkpt>
      <trkpt lat="43.86391" lon="1.94128">
        <ele>202.98</ele>
        <time>2016-11-20T12:11:26Z</time>
      </trkpt>
      <trkpt lat="43.86389" lon="1.94126">
        <ele>202.98</ele>
        <time>2016-11-20T12:11:28Z</time>
      </trkpt>
      <trkpt lat="43.86372" lon="1.94112">
        <ele>202.98</ele>
        <time>2016-11-20T12:11:45Z</time>
      </trkpt>
      <trkpt lat="43.8637" lon="1.94111">
        <ele>202.49</ele>
        <time>2016-11-20T12:11:47Z</time>
      </trkpt>
      <trkpt lat="43.86364" lon="1.94106">
        <ele>202.01</ele>
        <time>2016-11-20T12:11:53Z</time>
      </trkpt>
      <trkpt lat="43.8635" lon="1.94092">
        <ele>201.05</ele>
        <time>2016-11-20T12:12:08Z</time>
      </trkpt>
      <trkpt lat="43.86348" lon="1.9409">
        <ele>201.05</ele>
        <time>2016-11-20T12:12:10Z</time>
      </trkpt>
      <trkpt lat="43.86343" lon="1.94083">
        <ele>200.57</ele>
        <time>2016-11-20T12:12:23Z</time>
      </trkpt>
      <trkpt lat="43.86339" lon="1.94071">
        <ele>201.05</ele>
        <time>2016-11-20T12:12:55Z</time>
      </trkpt>
      <trkpt lat="43.86339" lon="1.94072">
        <ele>201.05</ele>
        <time>2016-11-20T12:13:00Z</time>
      </trkpt>
      <trkpt lat="43.86336" lon="1.94073">
        <ele>200.57</ele>
        <time>2016-11-20T12:13:03Z</time>
      </trkpt>
      <trkpt lat="43.86325" lon="1.94056">
        <ele>198.65</ele>
        <time>2016-11-20T12:13:19Z</time>
      </trkpt>
      <trkpt lat="43.86316" lon="1.94035">
        <ele>197.21</ele>
        <time>2016-11-20T12:13:34Z</time>
      </trkpt>
      <trkpt lat="43.86304" lon="1.94011">
        <ele>196.25</ele>
        <time>2016-11-20T12:13:50Z</time>
      </trkpt>
      <trkpt lat="43.863" lon="1.93999">
        <ele>196.25</ele>
        <time>2016-11-20T12:13:57Z</time>
      </trkpt>
      <trkpt lat="43.86296" lon="1.93992">
        <ele>196.25</ele>
        <time>2016-11-20T12:14:03Z</time>
      </trkpt>
      <trkpt lat="43.86287" lon="1.93978">
        <ele>196.25</ele>
        <time>2016-11-20T12:14:14Z</time>
      </trkpt>
      <trkpt lat="43.86286" lon="1.93975">
        <ele>196.73</ele>
        <time>2016-11-20T12:14:16Z</time>
      </trkpt>
      <trkpt lat="43.8628" lon="1.93967">
        <ele>196.73</ele>
        <time>2016-11-20T12:14:22Z</time>
      </trkpt>
      <trkpt lat="43.86265" lon="1.9395">
        <ele>197.69</ele>
        <time>2016-11-20T12:14:38Z</time>
      </trkpt>
      <trkpt lat="43.8626" lon="1.93941">
        <ele>198.65</ele>
        <time>2016-11-20T12:14:45Z</time>
      </trkpt>
      <trkpt lat="43.86248" lon="1.93922">
        <ele>200.09</ele>
        <time>2016-11-20T12:15:00Z</time>
      </trkpt>
      <trkpt lat="43.86243" lon="1.93915">
        <ele>201.05</ele>
        <time>2016-11-20T12:15:09Z</time>
      </trkpt>
      <trkpt lat="43.86243" lon="1.93936">
        <ele>200.57</ele>
        <time>2016-11-20T12:15:25Z</time>
      </trkpt>
      <trkpt lat="43.86238" lon="1.93961">
        <ele>200.57</ele>
        <time>2016-11-20T12:15:42Z</time>
      </trkpt>
      <trkpt lat="43.86238" lon="1.93964">
        <ele>200.57</ele>
        <time>2016-11-20T12:15:44Z</time>
      </trkpt>
      <trkpt lat="43.86237" lon="1.93971">
        <ele>200.09</ele>
        <time>2016-11-20T12:15:56Z</time>
      </trkpt>
      <trkpt lat="43.8623" lon="1.93969">
        <ele>204.42</ele>
        <time>2016-11-20T12:54:18Z</time>
      </trkpt>
      <trkpt lat="43.86232" lon="1.93964">
        <ele>204.42</ele>
        <time>2016-11-20T12:54:37Z</time>
      </trkpt>
      <trkpt lat="43.86237" lon="1.93945">
        <ele>204.42</ele>
        <time>2016-11-20T12:54:54Z</time>
      </trkpt>
      <trkpt lat="43.86238" lon="1.93931">
        <ele>204.9</ele>
        <time>2016-11-20T12:55:07Z</time>
      </trkpt>
      <trkpt lat="43.86238" lon="1.93929">
        <ele>204.9</ele>
        <time>2016-11-20T12:55:08Z</time>
      </trkpt>
      <trkpt lat="43.86239" lon="1.93911">
        <ele>204.9</ele>
        <time>2016-11-20T12:55:22Z</time>
      </trkpt>
      <trkpt lat="43.86231" lon="1.93898">
        <ele>205.38</ele>
        <time>2016-11-20T12:55:36Z</time>
      </trkpt>
      <trkpt lat="43.86226" lon="1.93893">
        <ele>205.38</ele>
        <time>2016-11-20T12:55:42Z</time>
      </trkpt>
      <trkpt lat="43.86222" lon="1.9389">
        <ele>205.86</ele>
        <time>2016-11-20T12:55:46Z</time>
      </trkpt>
      <trkpt lat="43.86211" lon="1.93883">
        <ele>206.34</ele>
        <time>2016-11-20T12:55:56Z</time>
      </trkpt>
      <trkpt lat="43.86205" lon="1.93877">
        <ele>206.34</ele>
        <time>2016-11-20T12:56:03Z</time>
      </trkpt>
      <trkpt lat="43.86189" lon="1.93862">
        <ele>206.82</ele>
        <time>2016-11-20T12:56:22Z</time>
      </trkpt>
      <trkpt lat="43.86173" lon="1.93845">
        <ele>207.3</ele>
        <time>2016-11-20T12:56:41Z</time>
      </trkpt>
      <trkpt lat="43.86156" lon="1.93829">
        <ele>207.3</ele>
        <time>2016-11-20T12:56:59Z</time>
      </trkpt>
      <trkpt lat="43.86139" lon="1.93811">
        <ele>207.78</ele>
        <time>2016-11-20T12:57:17Z</time>
      </trkpt>
      <trkpt lat="43.86119" lon="1.93791">
        <ele>207.3</ele>
        <time>2016-11-20T12:57:38Z</time>
      </trkpt>
      <trkpt lat="43.861" lon="1.93772">
        <ele>207.3</ele>
        <time>2016-11-20T12:57:57Z</time>
      </trkpt>
      <trkpt lat="43.86085" lon="1.93758">
        <ele>207.3</ele>
        <time>2016-11-20T12:58:14Z</time>
      </trkpt>
      <trkpt lat="43.86065" lon="1.93736">
        <ele>207.3</ele>
        <time>2016-11-20T12:58:36Z</time>
      </trkpt>
      <trkpt lat="43.86047" lon="1.9372">
        <ele>207.3</ele>
        <time>2016-11-20T12:58:55Z</time>
      </trkpt>
      <trkpt lat="43.86037" lon="1.93702">
        <ele>207.3</ele>
        <time>2016-11-20T12:59:14Z</time>
      </trkpt>
      <trkpt lat="43.86037" lon="1.93699">
        <ele>206.82</ele>
        <time>2016-11-20T12:59:27Z</time>
      </trkpt>
      <trkpt lat="43.86028" lon="1.93688">
        <ele>206.82</ele>
        <time>2016-11-20T12:59:41Z</time>
      </trkpt>
      <trkpt lat="43.86014" lon="1.93664">
        <ele>206.82</ele>
        <time>2016-11-20T12:59:59Z</time>
      </trkpt>
      <trkpt lat="43.86002" lon="1.93641">
        <ele>206.82</ele>
        <time>2016-11-20T13:00:16Z</time>
      </trkpt>
      <trkpt lat="43.85988" lon="1.93615">
        <ele>207.3</ele>
        <time>2016-11-20T13:00:36Z</time>
      </trkpt>
      <trkpt lat="43.85974" lon="1.93593">
        <ele>206.82</ele>
        <time>2016-11-20T13:00:54Z</time>
      </trkpt>
      <trkpt lat="43.85959" lon="1.93567">
        <ele>206.82</ele>
        <time>2016-11-20T13:01:14Z</time>
      </trkpt>
      <trkpt lat="43.85946" lon="1.93543">
        <ele>206.82</ele>
        <time>2016-11-20T13:01:32Z</time>
      </trkpt>
      <trkpt lat="43.8593" lon="1.93516">
        <ele>206.34</ele>
        <time>2016-11-20T13:01:52Z</time>
      </trkpt>
      <trkpt lat="43.85918" lon="1.93495">
        <ele>204.9</ele>
        <time>2016-11-20T13:02:10Z</time>
      </trkpt>
      <trkpt lat="43.85909" lon="1.93483">
        <ele>202.01</ele>
        <time>2016-11-20T13:02:25Z</time>
      </trkpt>
      <trkpt lat="43.85898" lon="1.9347">
        <ele>198.65</ele>
        <time>2016-11-20T13:02:43Z</time>
      </trkpt>
      <trkpt lat="43.85889" lon="1.93454">
        <ele>196.25</ele>
        <time>2016-11-20T13:03:00Z</time>
      </trkpt>
      <trkpt lat="43.85883" lon="1.93444">
        <ele>193.84</ele>
        <time>2016-11-20T13:03:12Z</time>
      </trkpt>
      <trkpt lat="43.85871" lon="1.93429">
        <ele>190.96</ele>
        <time>2016-11-20T13:03:29Z</time>
      </trkpt>
      <trkpt lat="43.85862" lon="1.93409">
        <ele>188.56</ele>
        <time>2016-11-20T13:03:45Z</time>
      </trkpt>
      <trkpt lat="43.85845" lon="1.93386">
        <ele>188.56</ele>
        <time>2016-11-20T13:04:02Z</time>
      </trkpt>
      <trkpt lat="43.85835" lon="1.93368">
        <ele>189.04</ele>
        <time>2016-11-20T13:04:19Z</time>
      </trkpt>
      <trkpt lat="43.85825" lon="1.93354">
        <ele>189.04</ele>
        <time>2016-11-20T13:04:32Z</time>
      </trkpt>
      <trkpt lat="43.85811" lon="1.93332">
        <ele>189.04</ele>
        <time>2016-11-20T13:04:48Z</time>
      </trkpt>
      <trkpt lat="43.85801" lon="1.93313">
        <ele>189.52</ele>
        <time>2016-11-20T13:05:03Z</time>
      </trkpt>
      <trkpt lat="43.85797" lon="1.93289">
        <ele>190.48</ele>
        <time>2016-11-20T13:05:20Z</time>
      </trkpt>
      <trkpt lat="43.85783" lon="1.93266">
        <ele>191.44</ele>
        <time>2016-11-20T13:05:37Z</time>
      </trkpt>
      <trkpt lat="43.85772" lon="1.93244">
        <ele>192.4</ele>
        <time>2016-11-20T13:05:53Z</time>
      </trkpt>
      <trkpt lat="43.85764" lon="1.93228">
        <ele>193.36</ele>
        <time>2016-11-20T13:06:07Z</time>
      </trkpt>
      <trkpt lat="43.85754" lon="1.93208">
        <ele>194.8</ele>
        <time>2016-11-20T13:06:23Z</time>
      </trkpt>
      <trkpt lat="43.85753" lon="1.93197">
        <ele>195.28</ele>
        <time>2016-11-20T13:06:37Z</time>
      </trkpt>
      <trkpt lat="43.85752" lon="1.93196">
        <ele>195.28</ele>
        <time>2016-11-20T13:06:38Z</time>
      </trkpt>
      <trkpt lat="43.85739" lon="1.93173">
        <ele>196.73</ele>
        <time>2016-11-20T13:06:57Z</time>
      </trkpt>
      <trkpt lat="43.85729" lon="1.93158">
        <ele>197.69</ele>
        <time>2016-11-20T13:07:13Z</time>
      </trkpt>
      <trkpt lat="43.8572" lon="1.93141">
        <ele>199.13</ele>
        <time>2016-11-20T13:07:27Z</time>
      </trkpt>
      <trkpt lat="43.8571" lon="1.93126">
        <ele>201.05</ele>
        <time>2016-11-20T13:07:41Z</time>
      </trkpt>
      <trkpt lat="43.85701" lon="1.93108">
        <ele>202.01</ele>
        <time>2016-11-20T13:07:56Z</time>
      </trkpt>
      <trkpt lat="43.85689" lon="1.93087">
        <ele>202.98</ele>
        <time>2016-11-20T13:08:13Z</time>
      </trkpt>
      <trkpt lat="43.85675" lon="1.93064">
        <ele>204.42</ele>
        <time>2016-11-20T13:08:32Z</time>
      </trkpt>
      <trkpt lat="43.85664" lon="1.93042">
        <ele>204.42</ele>
        <time>2016-11-20T13:08:48Z</time>
      </trkpt>
      <trkpt lat="43.85652" lon="1.93018">
        <ele>204.42</ele>
        <time>2016-11-20T13:09:06Z</time>
      </trkpt>
      <trkpt lat="43.85637" lon="1.92997">
        <ele>205.38</ele>
        <time>2016-11-20T13:09:25Z</time>
      </trkpt>
      <trkpt lat="43.85622" lon="1.93011">
        <ele>205.86</ele>
        <time>2016-11-20T13:09:43Z</time>
      </trkpt>
      <trkpt lat="43.85605" lon="1.93031">
        <ele>206.82</ele>
        <time>2016-11-20T13:10:03Z</time>
      </trkpt>
      <trkpt lat="43.85588" lon="1.93051">
        <ele>207.3</ele>
        <time>2016-11-20T13:10:23Z</time>
      </trkpt>
      <trkpt lat="43.85571" lon="1.9307">
        <ele>207.78</ele>
        <time>2016-11-20T13:10:41Z</time>
      </trkpt>
      <trkpt lat="43.85557" lon="1.93086">
        <ele>207.78</ele>
        <time>2016-11-20T13:10:57Z</time>
      </trkpt>
      <trkpt lat="43.8554" lon="1.93103">
        <ele>207.78</ele>
        <time>2016-11-20T13:11:14Z</time>
      </trkpt>
      <trkpt lat="43.85524" lon="1.93122">
        <ele>208.26</ele>
        <time>2016-11-20T13:11:33Z</time>
      </trkpt>
      <trkpt lat="43.85502" lon="1.93139">
        <ele>208.26</ele>
        <time>2016-11-20T13:11:53Z</time>
      </trkpt>
      <trkpt lat="43.85488" lon="1.93158">
        <ele>208.26</ele>
        <time>2016-11-20T13:12:11Z</time>
      </trkpt>
      <trkpt lat="43.85471" lon="1.93178">
        <ele>208.26</ele>
        <time>2016-11-20T13:12:30Z</time>
      </trkpt>
      <trkpt lat="43.85453" lon="1.93188">
        <ele>208.74</ele>
        <time>2016-11-20T13:12:47Z</time>
      </trkpt>
      <trkpt lat="43.85442" lon="1.93193">
        <ele>208.74</ele>
        <time>2016-11-20T13:12:59Z</time>
      </trkpt>
      <trkpt lat="43.8543" lon="1.93207">
        <ele>208.74</ele>
        <time>2016-11-20T13:13:14Z</time>
      </trkpt>
      <trkpt lat="43.8542" lon="1.93221">
        <ele>208.74</ele>
        <time>2016-11-20T13:13:28Z</time>
      </trkpt>
      <trkpt lat="43.85419" lon="1.93228">
        <ele>208.74</ele>
        <time>2016-11-20T13:13:33Z</time>
      </trkpt>
      <trkpt lat="43.85418" lon="1.93231">
        <ele>208.74</ele>
        <time>2016-11-20T13:13:35Z</time>
      </trkpt>
      <trkpt lat="43.85404" lon="1.93247">
        <ele>208.74</ele>
        <time>2016-11-20T13:13:49Z</time>
      </trkpt>
      <trkpt lat="43.85388" lon="1.93265">
        <ele>208.74</ele>
        <time>2016-11-20T13:14:06Z</time>
      </trkpt>
      <trkpt lat="43.85371" lon="1.93281">
        <ele>208.74</ele>
        <time>2016-11-20T13:14:22Z</time>
      </trkpt>
      <trkpt lat="43.8536" lon="1.93292">
        <ele>208.26</ele>
        <time>2016-11-20T13:14:33Z</time>
      </trkpt>
      <trkpt lat="43.85353" lon="1.93292">
        <ele>208.26</ele>
        <time>2016-11-20T13:14:38Z</time>
      </trkpt>
      <trkpt lat="43.85347" lon="1.9329">
        <ele>208.26</ele>
        <time>2016-11-20T13:14:46Z</time>
      </trkpt>
      <trkpt lat="43.8534" lon="1.93293">
        <ele>208.74</ele>
        <time>2016-11-20T13:14:54Z</time>
      </trkpt>
      <trkpt lat="43.85323" lon="1.93313">
        <ele>208.74</ele>
        <time>2016-11-20T13:15:12Z</time>
      </trkpt>
      <trkpt lat="43.85302" lon="1.9333">
        <ele>208.26</ele>
        <time>2016-11-20T13:15:31Z</time>
      </trkpt>
      <trkpt lat="43.85284" lon="1.93346">
        <ele>208.26</ele>
        <time>2016-11-20T13:15:47Z</time>
      </trkpt>
      <trkpt lat="43.85268" lon="1.93361">
        <ele>208.26</ele>
        <time>2016-11-20T13:16:04Z</time>
      </trkpt>
      <trkpt lat="43.8525" lon="1.93377">
        <ele>207.78</ele>
        <time>2016-11-20T13:16:22Z</time>
      </trkpt>
      <trkpt lat="43.85232" lon="1.93394">
        <ele>207.3</ele>
        <time>2016-11-20T13:16:42Z</time>
      </trkpt>
      <trkpt lat="43.85218" lon="1.93409">
        <ele>207.78</ele>
        <time>2016-11-20T13:16:59Z</time>
      </trkpt>
      <trkpt lat="43.85198" lon="1.93426">
        <ele>207.78</ele>
        <time>2016-11-20T13:17:19Z</time>
      </trkpt>
      <trkpt lat="43.85187" lon="1.93433">
        <ele>207.3</ele>
        <time>2016-11-20T13:17:30Z</time>
      </trkpt>
      <trkpt lat="43.85186" lon="1.93438">
        <ele>206.82</ele>
        <time>2016-11-20T13:17:34Z</time>
      </trkpt>
      <trkpt lat="43.85186" lon="1.9344">
        <ele>206.82</ele>
        <time>2016-11-20T13:17:36Z</time>
      </trkpt>
      <trkpt lat="43.85184" lon="1.93445">
        <ele>206.82</ele>
        <time>2016-11-20T13:17:41Z</time>
      </trkpt>
      <trkpt lat="43.8518" lon="1.93447">
        <ele>206.82</ele>
        <time>2016-11-20T13:17:44Z</time>
      </trkpt>
      <trkpt lat="43.85175" lon="1.93445">
        <ele>206.82</ele>
        <time>2016-11-20T13:17:48Z</time>
      </trkpt>
      <trkpt lat="43.85168" lon="1.93446">
        <ele>207.3</ele>
        <time>2016-11-20T13:17:53Z</time>
      </trkpt>
      <trkpt lat="43.85155" lon="1.93464">
        <ele>207.78</ele>
        <time>2016-11-20T13:18:10Z</time>
      </trkpt>
      <trkpt lat="43.85141" lon="1.93479">
        <ele>207.78</ele>
        <time>2016-11-20T13:18:26Z</time>
      </trkpt>
      <trkpt lat="43.85124" lon="1.93496">
        <ele>207.78</ele>
        <time>2016-11-20T13:18:43Z</time>
      </trkpt>
      <trkpt lat="43.85109" lon="1.93515">
        <ele>208.26</ele>
        <time>2016-11-20T13:19:01Z</time>
      </trkpt>
      <trkpt lat="43.85096" lon="1.9353">
        <ele>208.26</ele>
        <time>2016-11-20T13:19:17Z</time>
      </trkpt>
      <trkpt lat="43.8509" lon="1.93537">
        <ele>207.78</ele>
        <time>2016-11-20T13:19:24Z</time>
      </trkpt>
      <trkpt lat="43.85072" lon="1.93555">
        <ele>207.3</ele>
        <time>2016-11-20T13:19:43Z</time>
      </trkpt>
      <trkpt lat="43.85063" lon="1.93566">
        <ele>207.3</ele>
        <time>2016-11-20T13:19:53Z</time>
      </trkpt>
      <trkpt lat="43.85053" lon="1.93577">
        <ele>207.3</ele>
        <time>2016-11-20T13:20:04Z</time>
      </trkpt>
      <trkpt lat="43.85035" lon="1.93595">
        <ele>206.82</ele>
        <time>2016-11-20T13:20:23Z</time>
      </trkpt>
      <trkpt lat="43.85021" lon="1.93612">
        <ele>206.82</ele>
        <time>2016-11-20T13:20:40Z</time>
      </trkpt>
      <trkpt lat="43.85008" lon="1.93627">
        <ele>206.82</ele>
        <time>2016-11-20T13:20:55Z</time>
      </trkpt>
      <trkpt lat="43.8499" lon="1.93647">
        <ele>205.86</ele>
        <time>2016-11-20T13:21:16Z</time>
      </trkpt>
      <trkpt lat="43.84973" lon="1.9366">
        <ele>205.38</ele>
        <time>2016-11-20T13:21:33Z</time>
      </trkpt>
      <trkpt lat="43.84959" lon="1.93664">
        <ele>205.38</ele>
        <time>2016-11-20T13:21:46Z</time>
      </trkpt>
      <trkpt lat="43.84957" lon="1.93668">
        <ele>205.38</ele>
        <time>2016-11-20T13:21:49Z</time>
      </trkpt>
      <trkpt lat="43.84944" lon="1.93674">
        <ele>205.86</ele>
        <time>2016-11-20T13:22:03Z</time>
      </trkpt>
      <trkpt lat="43.84917" lon="1.93682">
        <ele>205.38</ele>
        <time>2016-11-20T13:22:24Z</time>
      </trkpt>
      <trkpt lat="43.84897" lon="1.93676">
        <ele>205.86</ele>
        <time>2016-11-20T13:22:43Z</time>
      </trkpt>
      <trkpt lat="43.8488" lon="1.93669">
        <ele>206.34</ele>
        <time>2016-11-20T13:22:57Z</time>
      </trkpt>
      <trkpt lat="43.84873" lon="1.93664">
        <ele>206.82</ele>
        <time>2016-11-20T13:23:10Z</time>
      </trkpt>
      <trkpt lat="43.84868" lon="1.93661">
        <ele>206.82</ele>
        <time>2016-11-20T13:23:28Z</time>
      </trkpt>
      <trkpt lat="43.84866" lon="1.93654">
        <ele>206.82</ele>
        <time>2016-11-20T13:23:44Z</time>
      </trkpt>
      <trkpt lat="43.84864" lon="1.93651">
        <ele>207.3</ele>
        <time>2016-11-20T13:24:02Z</time>
      </trkpt>
      <trkpt lat="43.84868" lon="1.93684">
        <ele>204.9</ele>
        <time>2016-11-20T13:41:41Z</time>
      </trkpt>
      <trkpt lat="43.84857" lon="1.93699">
        <ele>205.38</ele>
        <time>2016-11-20T13:41:57Z</time>
      </trkpt>
      <trkpt lat="43.84856" lon="1.937">
        <ele>205.86</ele>
        <time>2016-11-20T13:41:58Z</time>
      </trkpt>
      <trkpt lat="43.84842" lon="1.9371">
        <ele>206.82</ele>
        <time>2016-11-20T13:42:17Z</time>
      </trkpt>
      <trkpt lat="43.84827" lon="1.93721">
        <ele>208.26</ele>
        <time>2016-11-20T13:42:35Z</time>
      </trkpt>
      <trkpt lat="43.8482" lon="1.93738">
        <ele>211.15</ele>
        <time>2016-11-20T13:42:52Z</time>
      </trkpt>
      <trkpt lat="43.84823" lon="1.93744">
        <ele>210.67</ele>
        <time>2016-11-20T13:42:58Z</time>
      </trkpt>
      <trkpt lat="43.84828" lon="1.93762">
        <ele>211.15</ele>
        <time>2016-11-20T13:43:17Z</time>
      </trkpt>
      <trkpt lat="43.84834" lon="1.93779">
        <ele>211.15</ele>
        <time>2016-11-20T13:43:34Z</time>
      </trkpt>
      <trkpt lat="43.84841" lon="1.93792">
        <ele>210.67</ele>
        <time>2016-11-20T13:43:51Z</time>
      </trkpt>
      <trkpt lat="43.84841" lon="1.93795">
        <ele>210.67</ele>
        <time>2016-11-20T13:44:07Z</time>
      </trkpt>
      <trkpt lat="43.84846" lon="1.93796">
        <ele>210.67</ele>
        <time>2016-11-20T13:44:20Z</time>
      </trkpt>
      <trkpt lat="43.8485" lon="1.93801">
        <ele>210.67</ele>
        <time>2016-11-20T13:44:40Z</time>
      </trkpt>
      <trkpt lat="43.84851" lon="1.938">
        <ele>210.67</ele>
        <time>2016-11-20T13:44:42Z</time>
      </trkpt>
      <trkpt lat="43.84858" lon="1.93802">
        <ele>210.19</ele>
        <time>2016-11-20T13:44:55Z</time>
      </trkpt>
      <trkpt lat="43.8486" lon="1.93806">
        <ele>210.19</ele>
        <time>2016-11-20T13:44:57Z</time>
      </trkpt>
      <trkpt lat="43.8486" lon="1.93809">
        <ele>209.7</ele>
        <time>2016-11-20T13:44:59Z</time>
      </trkpt>
      <trkpt lat="43.84864" lon="1.93824">
        <ele>208.74</ele>
        <time>2016-11-20T13:45:08Z</time>
      </trkpt>
      <trkpt lat="43.84864" lon="1.9383">
        <ele>208.74</ele>
        <time>2016-11-20T13:45:12Z</time>
      </trkpt>
      <trkpt lat="43.84872" lon="1.93839">
        <ele>208.26</ele>
        <time>2016-11-20T13:45:25Z</time>
      </trkpt>
      <trkpt lat="43.84876" lon="1.9384">
        <ele>207.78</ele>
        <time>2016-11-20T13:45:30Z</time>
      </trkpt>
      <trkpt lat="43.84882" lon="1.93843">
        <ele>207.3</ele>
        <time>2016-11-20T13:45:44Z</time>
      </trkpt>
      <trkpt lat="43.84881" lon="1.93843">
        <ele>207.78</ele>
        <time>2016-11-20T13:45:47Z</time>
      </trkpt>
      <trkpt lat="43.84893" lon="1.9384">
        <ele>207.3</ele>
        <time>2016-11-20T13:46:01Z</time>
      </trkpt>
      <trkpt lat="43.84913" lon="1.93843">
        <ele>205.86</ele>
        <time>2016-11-20T13:46:19Z</time>
      </trkpt>
      <trkpt lat="43.84933" lon="1.93845">
        <ele>204.9</ele>
        <time>2016-11-20T13:46:37Z</time>
      </trkpt>
      <trkpt lat="43.84947" lon="1.93853">
        <ele>203.94</ele>
        <time>2016-11-20T13:46:52Z</time>
      </trkpt>
      <trkpt lat="43.84959" lon="1.93859">
        <ele>202.98</ele>
        <time>2016-11-20T13:47:05Z</time>
      </trkpt>
      <trkpt lat="43.84973" lon="1.93874">
        <ele>202.01</ele>
        <time>2016-11-20T13:47:22Z</time>
      </trkpt>
      <trkpt lat="43.84983" lon="1.93888">
        <ele>202.01</ele>
        <time>2016-11-20T13:47:35Z</time>
      </trkpt>
      <trkpt lat="43.85" lon="1.93885">
        <ele>202.98</ele>
        <time>2016-11-20T13:47:53Z</time>
      </trkpt>
      <trkpt lat="43.85015" lon="1.9388">
        <ele>202.98</ele>
        <time>2016-11-20T13:48:07Z</time>
      </trkpt>
      <trkpt lat="43.85027" lon="1.93877">
        <ele>203.46</ele>
        <time>2016-11-20T13:48:20Z</time>
      </trkpt>
      <trkpt lat="43.85043" lon="1.93872">
        <ele>202.98</ele>
        <time>2016-11-20T13:48:34Z</time>
      </trkpt>
      <trkpt lat="43.85061" lon="1.93865">
        <ele>202.49</ele>
        <time>2016-11-20T13:48:49Z</time>
      </trkpt>
      <trkpt lat="43.8508" lon="1.9386">
        <ele>202.49</ele>
        <time>2016-11-20T13:49:04Z</time>
      </trkpt>
      <trkpt lat="43.85098" lon="1.93859">
        <ele>202.49</ele>
        <time>2016-11-20T13:49:19Z</time>
      </trkpt>
      <trkpt lat="43.85111" lon="1.93857">
        <ele>202.49</ele>
        <time>2016-11-20T13:49:34Z</time>
      </trkpt>
      <trkpt lat="43.85129" lon="1.93847">
        <ele>202.01</ele>
        <time>2016-11-20T13:49:51Z</time>
      </trkpt>
      <trkpt lat="43.85142" lon="1.9384">
        <ele>202.01</ele>
        <time>2016-11-20T13:50:06Z</time>
      </trkpt>
      <trkpt lat="43.85159" lon="1.93838">
        <ele>201.53</ele>
        <time>2016-11-20T13:50:19Z</time>
      </trkpt>
      <trkpt lat="43.85181" lon="1.93834">
        <ele>201.05</ele>
        <time>2016-11-20T13:50:34Z</time>
      </trkpt>
      <trkpt lat="43.85198" lon="1.93833">
        <ele>200.57</ele>
        <time>2016-11-20T13:50:51Z</time>
      </trkpt>
      <trkpt lat="43.85214" lon="1.93829">
        <ele>201.05</ele>
        <time>2016-11-20T13:51:06Z</time>
      </trkpt>
      <trkpt lat="43.85229" lon="1.93825">
        <ele>202.01</ele>
        <time>2016-11-20T13:51:22Z</time>
      </trkpt>
      <trkpt lat="43.85248" lon="1.93819">
        <ele>202.98</ele>
        <time>2016-11-20T13:51:41Z</time>
      </trkpt>
      <trkpt lat="43.85262" lon="1.93824">
        <ele>204.9</ele>
        <time>2016-11-20T13:51:55Z</time>
      </trkpt>
      <trkpt lat="43.85264" lon="1.93829">
        <ele>205.38</ele>
        <time>2016-11-20T13:51:59Z</time>
      </trkpt>
      <trkpt lat="43.85274" lon="1.93854">
        <ele>206.82</ele>
        <time>2016-11-20T13:52:19Z</time>
      </trkpt>
      <trkpt lat="43.85277" lon="1.93863">
        <ele>207.78</ele>
        <time>2016-11-20T13:52:26Z</time>
      </trkpt>
      <trkpt lat="43.8528" lon="1.93874">
        <ele>208.26</ele>
        <time>2016-11-20T13:52:33Z</time>
      </trkpt>
      <trkpt lat="43.85285" lon="1.93898">
        <ele>209.7</ele>
        <time>2016-11-20T13:52:50Z</time>
      </trkpt>
      <trkpt lat="43.85289" lon="1.93913">
        <ele>210.19</ele>
        <time>2016-11-20T13:53:00Z</time>
      </trkpt>
      <trkpt lat="43.8529" lon="1.93916">
        <ele>210.19</ele>
        <time>2016-11-20T13:53:02Z</time>
      </trkpt>
      <trkpt lat="43.85295" lon="1.93935">
        <ele>212.11</ele>
        <time>2016-11-20T13:53:16Z</time>
      </trkpt>
      <trkpt lat="43.85303" lon="1.93964">
        <ele>213.55</ele>
        <time>2016-11-20T13:53:35Z</time>
      </trkpt>
      <trkpt lat="43.85305" lon="1.93975">
        <ele>214.03</ele>
        <time>2016-11-20T13:53:42Z</time>
      </trkpt>
      <trkpt lat="43.8531" lon="1.93997">
        <ele>214.99</ele>
        <time>2016-11-20T13:53:56Z</time>
      </trkpt>
      <trkpt lat="43.85314" lon="1.94021">
        <ele>215.47</ele>
        <time>2016-11-20T13:54:12Z</time>
      </trkpt>
      <trkpt lat="43.85315" lon="1.94027">
        <ele>215.95</ele>
        <time>2016-11-20T13:54:16Z</time>
      </trkpt>
      <trkpt lat="43.85316" lon="1.94046">
        <ele>215.95</ele>
        <time>2016-11-20T13:54:28Z</time>
      </trkpt>
      <trkpt lat="43.85317" lon="1.94057">
        <ele>215.95</ele>
        <time>2016-11-20T13:54:34Z</time>
      </trkpt>
      <trkpt lat="43.85317" lon="1.94084">
        <ele>216.91</ele>
        <time>2016-11-20T13:54:51Z</time>
      </trkpt>
      <trkpt lat="43.85315" lon="1.94091">
        <ele>216.91</ele>
        <time>2016-11-20T13:54:56Z</time>
      </trkpt>
      <trkpt lat="43.85316" lon="1.94114">
        <ele>217.4</ele>
        <time>2016-11-20T13:55:10Z</time>
      </trkpt>
      <trkpt lat="43.85318" lon="1.94137">
        <ele>217.4</ele>
        <time>2016-11-20T13:55:26Z</time>
      </trkpt>
      <trkpt lat="43.85319" lon="1.94159">
        <ele>217.88</ele>
        <time>2016-11-20T13:55:42Z</time>
      </trkpt>
      <trkpt lat="43.85322" lon="1.94189">
        <ele>217.88</ele>
        <time>2016-11-20T13:56:01Z</time>
      </trkpt>
      <trkpt lat="43.85324" lon="1.94217">
        <ele>218.36</ele>
        <time>2016-11-20T13:56:18Z</time>
      </trkpt>
      <trkpt lat="43.85326" lon="1.94247">
        <ele>219.32</ele>
        <time>2016-11-20T13:56:36Z</time>
      </trkpt>
      <trkpt lat="43.85326" lon="1.94275">
        <ele>219.32</ele>
        <time>2016-11-20T13:56:54Z</time>
      </trkpt>
      <trkpt lat="43.85326" lon="1.94303">
        <ele>219.32</ele>
        <time>2016-11-20T13:57:11Z</time>
      </trkpt>
      <trkpt lat="43.85327" lon="1.94335">
        <ele>218.84</ele>
        <time>2016-11-20T13:57:31Z</time>
      </trkpt>
      <trkpt lat="43.85328" lon="1.94364">
        <ele>219.32</ele>
        <time>2016-11-20T13:57:49Z</time>
      </trkpt>
      <trkpt lat="43.85329" lon="1.94393">
        <ele>219.8</ele>
        <time>2016-11-20T13:58:09Z</time>
      </trkpt>
      <trkpt lat="43.85331" lon="1.94421">
        <ele>219.8</ele>
        <time>2016-11-20T13:58:27Z</time>
      </trkpt>
      <trkpt lat="43.85331" lon="1.94432">
        <ele>220.28</ele>
        <time>2016-11-20T13:58:35Z</time>
      </trkpt>
      <trkpt lat="43.85332" lon="1.94459">
        <ele>219.8</ele>
        <time>2016-11-20T13:58:53Z</time>
      </trkpt>
      <trkpt lat="43.85333" lon="1.94483">
        <ele>220.28</ele>
        <time>2016-11-20T13:59:10Z</time>
      </trkpt>
      <trkpt lat="43.85332" lon="1.94497">
        <ele>219.8</ele>
        <time>2016-11-20T13:59:22Z</time>
      </trkpt>
      <trkpt lat="43.85331" lon="1.94524">
        <ele>220.28</ele>
        <time>2016-11-20T13:59:40Z</time>
      </trkpt>
      <trkpt lat="43.85329" lon="1.94552">
        <ele>220.28</ele>
        <time>2016-11-20T13:59:58Z</time>
      </trkpt>
      <trkpt lat="43.85328" lon="1.94578">
        <ele>220.28</ele>
        <time>2016-11-20T14:00:15Z</time>
      </trkpt>
      <trkpt lat="43.85324" lon="1.9459">
        <ele>220.28</ele>
        <time>2016-11-20T14:00:25Z</time>
      </trkpt>
      <trkpt lat="43.85322" lon="1.94611">
        <ele>220.28</ele>
        <time>2016-11-20T14:00:41Z</time>
      </trkpt>
      <trkpt lat="43.85321" lon="1.94634">
        <ele>219.8</ele>
        <time>2016-11-20T14:00:56Z</time>
      </trkpt>
      <trkpt lat="43.85326" lon="1.94638">
        <ele>219.8</ele>
        <time>2016-11-20T14:01:02Z</time>
      </trkpt>
      <trkpt lat="43.85346" lon="1.9463">
        <ele>219.32</ele>
        <time>2016-11-20T14:01:22Z</time>
      </trkpt>
      <trkpt lat="43.85367" lon="1.94623">
        <ele>218.84</ele>
        <time>2016-11-20T14:01:41Z</time>
      </trkpt>
      <trkpt lat="43.85391" lon="1.94615">
        <ele>218.36</ele>
        <time>2016-11-20T14:02:03Z</time>
      </trkpt>
      <trkpt lat="43.8541" lon="1.94607">
        <ele>217.88</ele>
        <time>2016-11-20T14:02:21Z</time>
      </trkpt>
      <trkpt lat="43.85429" lon="1.94593">
        <ele>217.4</ele>
        <time>2016-11-20T14:02:40Z</time>
      </trkpt>
      <trkpt lat="43.85448" lon="1.94575">
        <ele>216.91</ele>
        <time>2016-11-20T14:03:00Z</time>
      </trkpt>
      <trkpt lat="43.85465" lon="1.94557">
        <ele>216.91</ele>
        <time>2016-11-20T14:03:18Z</time>
      </trkpt>
      <trkpt lat="43.85484" lon="1.94536">
        <ele>216.43</ele>
        <time>2016-11-20T14:03:39Z</time>
      </trkpt>
      <trkpt lat="43.855" lon="1.94517">
        <ele>216.43</ele>
        <time>2016-11-20T14:03:58Z</time>
      </trkpt>
      <trkpt lat="43.85518" lon="1.94495">
        <ele>215.95</ele>
        <time>2016-11-20T14:04:18Z</time>
      </trkpt>
      <trkpt lat="43.85533" lon="1.94476">
        <ele>214.99</ele>
        <time>2016-11-20T14:04:36Z</time>
      </trkpt>
      <trkpt lat="43.85551" lon="1.94452">
        <ele>215.47</ele>
        <time>2016-11-20T14:04:57Z</time>
      </trkpt>
      <trkpt lat="43.8557" lon="1.94427">
        <ele>214.99</ele>
        <time>2016-11-20T14:05:20Z</time>
      </trkpt>
      <trkpt lat="43.85584" lon="1.94413">
        <ele>214.51</ele>
        <time>2016-11-20T14:05:36Z</time>
      </trkpt>
      <trkpt lat="43.85597" lon="1.94397">
        <ele>214.51</ele>
        <time>2016-11-20T14:05:52Z</time>
      </trkpt>
      <trkpt lat="43.85614" lon="1.94377">
        <ele>214.51</ele>
        <time>2016-11-20T14:06:12Z</time>
      </trkpt>
      <trkpt lat="43.8563" lon="1.94356">
        <ele>214.51</ele>
        <time>2016-11-20T14:06:32Z</time>
      </trkpt>
      <trkpt lat="43.85646" lon="1.94338">
        <ele>214.51</ele>
        <time>2016-11-20T14:06:51Z</time>
      </trkpt>
      <trkpt lat="43.85653" lon="1.94329">
        <ele>214.03</ele>
        <time>2016-11-20T14:07:00Z</time>
      </trkpt>
      <trkpt lat="43.85659" lon="1.94329">
        <ele>214.51</ele>
        <time>2016-11-20T14:07:05Z</time>
      </trkpt>
      <trkpt lat="43.85672" lon="1.9435">
        <ele>214.03</ele>
        <time>2016-11-20T14:07:23Z</time>
      </trkpt>
      <trkpt lat="43.85682" lon="1.9437">
        <ele>213.55</ele>
        <time>2016-11-20T14:07:39Z</time>
      </trkpt>
      <trkpt lat="43.85693" lon="1.94391">
        <ele>213.07</ele>
        <time>2016-11-20T14:07:55Z</time>
      </trkpt>
      <trkpt lat="43.85705" lon="1.94411">
        <ele>214.03</ele>
        <time>2016-11-20T14:08:12Z</time>
      </trkpt>
      <trkpt lat="43.85716" lon="1.94432">
        <ele>214.03</ele>
        <time>2016-11-20T14:08:28Z</time>
      </trkpt>
      <trkpt lat="43.85729" lon="1.94456">
        <ele>213.55</ele>
        <time>2016-11-20T14:08:46Z</time>
      </trkpt>
      <trkpt lat="43.85741" lon="1.94477">
        <ele>213.07</ele>
        <time>2016-11-20T14:09:04Z</time>
      </trkpt>
      <trkpt lat="43.85755" lon="1.94503">
        <ele>213.07</ele>
        <time>2016-11-20T14:09:24Z</time>
      </trkpt>
      <trkpt lat="43.85766" lon="1.94523">
        <ele>213.07</ele>
        <time>2016-11-20T14:09:39Z</time>
      </trkpt>
      <trkpt lat="43.85777" lon="1.94544">
        <ele>212.59</ele>
        <time>2016-11-20T14:09:55Z</time>
      </trkpt>
      <trkpt lat="43.85788" lon="1.94565">
        <ele>212.59</ele>
        <time>2016-11-20T14:10:11Z</time>
      </trkpt>
      <trkpt lat="43.858" lon="1.94587">
        <ele>212.59</ele>
        <time>2016-11-20T14:10:29Z</time>
      </trkpt>
      <trkpt lat="43.85812" lon="1.9461">
        <ele>212.59</ele>
        <time>2016-11-20T14:10:46Z</time>
      </trkpt>
      <trkpt lat="43.85823" lon="1.9463">
        <ele>212.59</ele>
        <time>2016-11-20T14:11:03Z</time>
      </trkpt>
      <trkpt lat="43.85834" lon="1.94652">
        <ele>212.11</ele>
        <time>2016-11-20T14:11:19Z</time>
      </trkpt>
      <trkpt lat="43.85845" lon="1.94674">
        <ele>212.11</ele>
        <time>2016-11-20T14:11:36Z</time>
      </trkpt>
      <trkpt lat="43.85856" lon="1.94695">
        <ele>211.63</ele>
        <time>2016-11-20T14:11:53Z</time>
      </trkpt>
      <trkpt lat="43.85867" lon="1.94717">
        <ele>212.11</ele>
        <time>2016-11-20T14:12:10Z</time>
      </trkpt>
      <trkpt lat="43.85877" lon="1.94738">
        <ele>212.11</ele>
        <time>2016-11-20T14:12:27Z</time>
      </trkpt>
      <trkpt lat="43.85883" lon="1.9475">
        <ele>212.11</ele>
        <time>2016-11-20T14:12:37Z</time>
      </trkpt>
      <trkpt lat="43.85896" lon="1.94775">
        <ele>212.11</ele>
        <time>2016-11-20T14:12:56Z</time>
      </trkpt>
      <trkpt lat="43.85908" lon="1.94796">
        <ele>211.63</ele>
        <time>2016-11-20T14:13:12Z</time>
      </trkpt>
      <trkpt lat="43.85916" lon="1.94818">
        <ele>211.63</ele>
        <time>2016-11-20T14:13:27Z</time>
      </trkpt>
      <trkpt lat="43.8592" lon="1.94843">
        <ele>211.63</ele>
        <time>2016-11-20T14:13:43Z</time>
      </trkpt>
      <trkpt lat="43.85921" lon="1.94873">
        <ele>211.15</ele>
        <time>2016-11-20T14:14:01Z</time>
      </trkpt>
      <trkpt lat="43.85921" lon="1.94897">
        <ele>211.15</ele>
        <time>2016-11-20T14:14:16Z</time>
      </trkpt>
      <trkpt lat="43.85919" lon="1.94925">
        <ele>211.15</ele>
        <time>2016-11-20T14:14:34Z</time>
      </trkpt>
      <trkpt lat="43.85917" lon="1.94957">
        <ele>211.15</ele>
        <time>2016-11-20T14:14:54Z</time>
      </trkpt>
      <trkpt lat="43.85914" lon="1.94984">
        <ele>210.67</ele>
        <time>2016-11-20T14:15:11Z</time>
      </trkpt>
      <trkpt lat="43.85911" lon="1.95017">
        <ele>210.19</ele>
        <time>2016-11-20T14:15:32Z</time>
      </trkpt>
      <trkpt lat="43.85908" lon="1.95046">
        <ele>209.22</ele>
        <time>2016-11-20T14:15:50Z</time>
      </trkpt>
      <trkpt lat="43.85906" lon="1.95076">
        <ele>207.78</ele>
        <time>2016-11-20T14:16:09Z</time>
      </trkpt>
      <trkpt lat="43.85904" lon="1.95103">
        <ele>206.82</ele>
        <time>2016-11-20T14:16:26Z</time>
      </trkpt>
      <trkpt lat="43.85905" lon="1.95111">
        <ele>206.82</ele>
        <time>2016-11-20T14:16:32Z</time>
      </trkpt>
      <trkpt lat="43.8591" lon="1.95113">
        <ele>206.34</ele>
        <time>2016-11-20T14:16:38Z</time>
      </trkpt>
      <trkpt lat="43.85931" lon="1.95108">
        <ele>206.34</ele>
        <time>2016-11-20T14:16:57Z</time>
      </trkpt>
      <trkpt lat="43.85955" lon="1.95105">
        <ele>205.86</ele>
        <time>2016-11-20T14:17:17Z</time>
      </trkpt>
      <trkpt lat="43.85977" lon="1.95102">
        <ele>205.86</ele>
        <time>2016-11-20T14:17:36Z</time>
      </trkpt>
      <trkpt lat="43.85999" lon="1.95099">
        <ele>206.34</ele>
        <time>2016-11-20T14:17:55Z</time>
      </trkpt>
      <trkpt lat="43.8602" lon="1.95096">
        <ele>205.86</ele>
        <time>2016-11-20T14:18:14Z</time>
      </trkpt>
      <trkpt lat="43.8604" lon="1.95092">
        <ele>205.86</ele>
        <time>2016-11-20T14:18:32Z</time>
      </trkpt>
      <trkpt lat="43.86063" lon="1.95088">
        <ele>205.86</ele>
        <time>2016-11-20T14:18:53Z</time>
      </trkpt>
      <trkpt lat="43.86083" lon="1.9509">
        <ele>205.38</ele>
        <time>2016-11-20T14:19:11Z</time>
      </trkpt>
      <trkpt lat="43.86105" lon="1.95093">
        <ele>206.34</ele>
        <time>2016-11-20T14:19:30Z</time>
      </trkpt>
      <trkpt lat="43.86126" lon="1.95095">
        <ele>206.34</ele>
        <time>2016-11-20T14:19:48Z</time>
      </trkpt>
      <trkpt lat="43.86147" lon="1.951">
        <ele>206.34</ele>
        <time>2016-11-20T14:20:06Z</time>
      </trkpt>
      <trkpt lat="43.86166" lon="1.95107">
        <ele>206.82</ele>
        <time>2016-11-20T14:20:24Z</time>
      </trkpt>
      <trkpt lat="43.8617" lon="1.9512">
        <ele>205.38</ele>
        <time>2016-11-20T14:20:37Z</time>
      </trkpt>
      <trkpt lat="43.8617" lon="1.95121">
        <ele>205.86</ele>
        <time>2016-11-20T14:20:38Z</time>
      </trkpt>
      <trkpt lat="43.86164" lon="1.95149">
        <ele>203.46</ele>
        <time>2016-11-20T14:20:57Z</time>
      </trkpt>
      <trkpt lat="43.8616" lon="1.95172">
        <ele>202.49</ele>
        <time>2016-11-20T14:21:13Z</time>
      </trkpt>
      <trkpt lat="43.86156" lon="1.95193">
        <ele>201.05</ele>
        <time>2016-11-20T14:21:28Z</time>
      </trkpt>
      <trkpt lat="43.86152" lon="1.95219">
        <ele>199.61</ele>
        <time>2016-11-20T14:21:47Z</time>
      </trkpt>
      <trkpt lat="43.86147" lon="1.95248">
        <ele>198.17</ele>
        <time>2016-11-20T14:22:07Z</time>
      </trkpt>
      <trkpt lat="43.86142" lon="1.95276">
        <ele>197.21</ele>
        <time>2016-11-20T14:22:26Z</time>
      </trkpt>
      <trkpt lat="43.8614" lon="1.95298">
        <ele>195.77</ele>
        <time>2016-11-20T14:22:41Z</time>
      </trkpt>
      <trkpt lat="43.86143" lon="1.9531">
        <ele>195.28</ele>
        <time>2016-11-20T14:22:50Z</time>
      </trkpt>
      <trkpt lat="43.86148" lon="1.95334">
        <ele>194.8</ele>
        <time>2016-11-20T14:23:07Z</time>
      </trkpt>
      <trkpt lat="43.8615" lon="1.95338">
        <ele>194.32</ele>
        <time>2016-11-20T14:23:10Z</time>
      </trkpt>
      <trkpt lat="43.86149" lon="1.95358">
        <ele>195.28</ele>
        <time>2016-11-20T14:23:24Z</time>
      </trkpt>
      <trkpt lat="43.86145" lon="1.95365">
        <ele>195.77</ele>
        <time>2016-11-20T14:23:30Z</time>
      </trkpt>
      <trkpt lat="43.86135" lon="1.95381">
        <ele>197.69</ele>
        <time>2016-11-20T14:23:45Z</time>
      </trkpt>
      <trkpt lat="43.86134" lon="1.95397">
        <ele>199.13</ele>
        <time>2016-11-20T14:23:59Z</time>
      </trkpt>
      <trkpt lat="43.86132" lon="1.95415">
        <ele>200.57</ele>
        <time>2016-11-20T14:24:12Z</time>
      </trkpt>
      <trkpt lat="43.8613" lon="1.95428">
        <ele>201.05</ele>
        <time>2016-11-20T14:24:20Z</time>
      </trkpt>
      <trkpt lat="43.86128" lon="1.9545">
        <ele>201.53</ele>
        <time>2016-11-20T14:24:35Z</time>
      </trkpt>
      <trkpt lat="43.86125" lon="1.95463">
        <ele>202.01</ele>
        <time>2016-11-20T14:24:44Z</time>
      </trkpt>
      <trkpt lat="43.86117" lon="1.95479">
        <ele>202.98</ele>
        <time>2016-11-20T14:24:59Z</time>
      </trkpt>
      <trkpt lat="43.86107" lon="1.955">
        <ele>203.46</ele>
        <time>2016-11-20T14:25:15Z</time>
      </trkpt>
      <trkpt lat="43.86095" lon="1.95521">
        <ele>204.9</ele>
        <time>2016-11-20T14:25:32Z</time>
      </trkpt>
      <trkpt lat="43.86088" lon="1.95539">
        <ele>206.34</ele>
        <time>2016-11-20T14:25:47Z</time>
      </trkpt>
      <trkpt lat="43.86079" lon="1.95554">
        <ele>207.3</ele>
        <time>2016-11-20T14:25:59Z</time>
      </trkpt>
      <trkpt lat="43.86067" lon="1.95567">
        <ele>208.26</ele>
        <time>2016-11-20T14:26:10Z</time>
      </trkpt>
      <trkpt lat="43.86058" lon="1.95571">
        <ele>208.26</ele>
        <time>2016-11-20T14:26:15Z</time>
      </trkpt>
      <trkpt lat="43.86023" lon="1.95582">
        <ele>209.7</ele>
        <time>2016-11-20T14:26:31Z</time>
      </trkpt>
      <trkpt lat="43.86005" lon="1.95582">
        <ele>210.67</ele>
        <time>2016-11-20T14:26:46Z</time>
      </trkpt>
      <trkpt lat="43.85989" lon="1.95579">
        <ele>211.63</ele>
        <time>2016-11-20T14:27:01Z</time>
      </trkpt>
      <trkpt lat="43.85987" lon="1.95579">
        <ele>211.63</ele>
        <time>2016-11-20T14:27:02Z</time>
      </trkpt>
      <trkpt lat="43.85974" lon="1.95575">
        <ele>212.59</ele>
        <time>2016-11-20T14:27:16Z</time>
      </trkpt>
      <trkpt lat="43.85959" lon="1.9557">
        <ele>213.55</ele>
        <time>2016-11-20T14:27:31Z</time>
      </trkpt>
      <trkpt lat="43.85943" lon="1.9557">
        <ele>214.51</ele>
        <time>2016-11-20T14:27:45Z</time>
      </trkpt>
      <trkpt lat="43.85932" lon="1.95586">
        <ele>214.99</ele>
        <time>2016-11-20T14:28:03Z</time>
      </trkpt>
      <trkpt lat="43.85925" lon="1.95591">
        <ele>215.47</ele>
        <time>2016-11-20T14:28:09Z</time>
      </trkpt>
      <trkpt lat="43.8591" lon="1.95589">
        <ele>216.43</ele>
        <time>2016-11-20T14:28:25Z</time>
      </trkpt>
      <trkpt lat="43.85908" lon="1.9559">
        <ele>216.43</ele>
        <time>2016-11-20T14:28:33Z</time>
      </trkpt>
      <trkpt lat="43.85908" lon="1.95583">
        <ele>216.43</ele>
        <time>2016-11-20T14:28:42Z</time>
      </trkpt>
      <trkpt lat="43.85902" lon="1.95592">
        <ele>216.91</ele>
        <time>2016-11-20T14:28:52Z</time>
      </trkpt>
      <trkpt lat="43.85901" lon="1.95598">
        <ele>216.91</ele>
        <time>2016-11-20T14:28:56Z</time>
      </trkpt>
      <trkpt lat="43.859" lon="1.95615">
        <ele>217.4</ele>
        <time>2016-11-20T14:29:08Z</time>
      </trkpt>
      <trkpt lat="43.85898" lon="1.95618">
        <ele>217.4</ele>
        <time>2016-11-20T14:29:11Z</time>
      </trkpt>
      <trkpt lat="43.859" lon="1.9562">
        <ele>217.4</ele>
        <time>2016-11-20T14:29:17Z</time>
      </trkpt>
      <trkpt lat="43.8591" lon="1.95627">
        <ele>216.43</ele>
        <time>2016-11-20T14:29:30Z</time>
      </trkpt>
      <trkpt lat="43.85904" lon="1.95657">
        <ele>216.91</ele>
        <time>2016-11-20T14:29:47Z</time>
      </trkpt>
      <trkpt lat="43.85899" lon="1.95667">
        <ele>217.4</ele>
        <time>2016-11-20T14:29:55Z</time>
      </trkpt>
      <trkpt lat="43.85884" lon="1.95688">
        <ele>218.36</ele>
        <time>2016-11-20T14:30:12Z</time>
      </trkpt>
      <trkpt lat="43.85874" lon="1.95705">
        <ele>218.84</ele>
        <time>2016-11-20T14:30:26Z</time>
      </trkpt>
      <trkpt lat="43.85872" lon="1.95709">
        <ele>219.32</ele>
        <time>2016-11-20T14:30:29Z</time>
      </trkpt>
      <trkpt lat="43.85862" lon="1.95725">
        <ele>219.8</ele>
        <time>2016-11-20T14:30:43Z</time>
      </trkpt>
      <trkpt lat="43.85852" lon="1.9574">
        <ele>220.76</ele>
        <time>2016-11-20T14:30:56Z</time>
      </trkpt>
      <trkpt lat="43.8584" lon="1.95759">
        <ele>222.2</ele>
        <time>2016-11-20T14:31:12Z</time>
      </trkpt>
      <trkpt lat="43.85839" lon="1.95762">
        <ele>222.2</ele>
        <time>2016-11-20T14:31:14Z</time>
      </trkpt>
      <trkpt lat="43.85846" lon="1.95779">
        <ele>221.72</ele>
        <time>2016-11-20T14:31:31Z</time>
      </trkpt>
      <trkpt lat="43.85859" lon="1.95794">
        <ele>221.24</ele>
        <time>2016-11-20T14:31:48Z</time>
      </trkpt>
      <trkpt lat="43.85865" lon="1.95803">
        <ele>220.76</ele>
        <time>2016-11-20T14:31:57Z</time>
      </trkpt>
      <trkpt lat="43.8588" lon="1.95823">
        <ele>220.28</ele>
        <time>2016-11-20T14:32:14Z</time>
      </trkpt>
      <trkpt lat="43.85892" lon="1.95839">
        <ele>219.8</ele>
        <time>2016-11-20T14:32:29Z</time>
      </trkpt>
      <trkpt lat="43.85905" lon="1.95855">
        <ele>219.8</ele>
        <time>2016-11-20T14:32:45Z</time>
      </trkpt>
      <trkpt lat="43.85916" lon="1.95868">
        <ele>219.32</ele>
        <time>2016-11-20T14:32:59Z</time>
      </trkpt>
      <trkpt lat="43.8593" lon="1.95887">
        <ele>219.32</ele>
        <time>2016-11-20T14:33:17Z</time>
      </trkpt>
      <trkpt lat="43.85945" lon="1.95906">
        <ele>218.84</ele>
        <time>2016-11-20T14:33:35Z</time>
      </trkpt>
      <trkpt lat="43.85954" lon="1.95918">
        <ele>218.36</ele>
        <time>2016-11-20T14:33:46Z</time>
      </trkpt>
      <trkpt lat="43.85958" lon="1.95925">
        <ele>218.36</ele>
        <time>2016-11-20T14:33:51Z</time>
      </trkpt>
      <trkpt lat="43.85974" lon="1.95947">
        <ele>217.88</ele>
        <time>2016-11-20T14:34:11Z</time>
      </trkpt>
      <trkpt lat="43.85984" lon="1.95963">
        <ele>217.88</ele>
        <time>2016-11-20T14:34:27Z</time>
      </trkpt>
      <trkpt lat="43.85986" lon="1.95966">
        <ele>218.36</ele>
        <time>2016-11-20T14:34:30Z</time>
      </trkpt>
      <trkpt lat="43.85987" lon="1.95968">
        <ele>217.88</ele>
        <time>2016-11-20T14:34:32Z</time>
      </trkpt>
      <trkpt lat="43.86" lon="1.95984">
        <ele>218.36</ele>
        <time>2016-11-20T14:34:46Z</time>
      </trkpt>
      <trkpt lat="43.86011" lon="1.96002">
        <ele>218.84</ele>
        <time>2016-11-20T14:35:02Z</time>
      </trkpt>
      <trkpt lat="43.86019" lon="1.96014">
        <ele>219.8</ele>
        <time>2016-11-20T14:35:17Z</time>
      </trkpt>
      <trkpt lat="43.86026" lon="1.96023">
        <ele>219.8</ele>
        <time>2016-11-20T14:35:36Z</time>
      </trkpt>
      <trkpt lat="43.86031" lon="1.96034">
        <ele>219.8</ele>
        <time>2016-11-20T14:35:45Z</time>
      </trkpt>
      <trkpt lat="43.86037" lon="1.9607">
        <ele>219.8</ele>
        <time>2016-11-20T14:53:46Z</time>
      </trkpt>
      <trkpt lat="43.86038" lon="1.96074">
        <ele>219.8</ele>
        <time>2016-11-20T14:53:48Z</time>
      </trkpt>
      <trkpt lat="43.8603" lon="1.96101">
        <ele>220.76</ele>
        <time>2016-11-20T14:54:03Z</time>
      </trkpt>
      <trkpt lat="43.8602" lon="1.96119">
        <ele>221.72</ele>
        <time>2016-11-20T14:54:18Z</time>
      </trkpt>
      <trkpt lat="43.8601" lon="1.96132">
        <ele>222.68</ele>
        <time>2016-11-20T14:54:30Z</time>
      </trkpt>
      <trkpt lat="43.86009" lon="1.96133">
        <ele>223.16</ele>
        <time>2016-11-20T14:54:32Z</time>
      </trkpt>
      <trkpt lat="43.85994" lon="1.96139">
        <ele>223.64</ele>
        <time>2016-11-20T14:54:44Z</time>
      </trkpt>
      <trkpt lat="43.8599" lon="1.96138">
        <ele>223.64</ele>
        <time>2016-11-20T14:54:48Z</time>
      </trkpt>
      <trkpt lat="43.85987" lon="1.96136">
        <ele>223.64</ele>
        <time>2016-11-20T14:54:54Z</time>
      </trkpt>
      <trkpt lat="43.85973" lon="1.96134">
        <ele>223.64</ele>
        <time>2016-11-20T14:55:07Z</time>
      </trkpt>
      <trkpt lat="43.8596" lon="1.96143">
        <ele>225.09</ele>
        <time>2016-11-20T14:55:24Z</time>
      </trkpt>
      <trkpt lat="43.85948" lon="1.96159">
        <ele>226.53</ele>
        <time>2016-11-20T14:55:42Z</time>
      </trkpt>
      <trkpt lat="43.85934" lon="1.96174">
        <ele>227.49</ele>
        <time>2016-11-20T14:55:58Z</time>
      </trkpt>
      <trkpt lat="43.8592" lon="1.96191">
        <ele>227.97</ele>
        <time>2016-11-20T14:56:15Z</time>
      </trkpt>
      <trkpt lat="43.85907" lon="1.96206">
        <ele>228.45</ele>
        <time>2016-11-20T14:56:30Z</time>
      </trkpt>
      <trkpt lat="43.85903" lon="1.96212">
        <ele>228.93</ele>
        <time>2016-11-20T14:56:35Z</time>
      </trkpt>
      <trkpt lat="43.85888" lon="1.96227">
        <ele>228.45</ele>
        <time>2016-11-20T14:56:53Z</time>
      </trkpt>
      <trkpt lat="43.85874" lon="1.96241">
        <ele>229.41</ele>
        <time>2016-11-20T14:57:10Z</time>
      </trkpt>
      <trkpt lat="43.85874" lon="1.96241">
        <ele>228.93</ele>
        <time>2016-11-20T14:57:11Z</time>
      </trkpt>
      <trkpt lat="43.8586" lon="1.96256">
        <ele>229.89</ele>
        <time>2016-11-20T14:57:26Z</time>
      </trkpt>
      <trkpt lat="43.85849" lon="1.96273">
        <ele>230.37</ele>
        <time>2016-11-20T14:57:40Z</time>
      </trkpt>
      <trkpt lat="43.85836" lon="1.96286">
        <ele>231.33</ele>
        <time>2016-11-20T14:57:55Z</time>
      </trkpt>
      <trkpt lat="43.85824" lon="1.96299">
        <ele>232.78</ele>
        <time>2016-11-20T14:58:08Z</time>
      </trkpt>
      <trkpt lat="43.8581" lon="1.96313">
        <ele>234.7</ele>
        <time>2016-11-20T14:58:24Z</time>
      </trkpt>
      <trkpt lat="43.85804" lon="1.96319">
        <ele>235.66</ele>
        <time>2016-11-20T14:58:31Z</time>
      </trkpt>
      <trkpt lat="43.8579" lon="1.9633">
        <ele>237.1</ele>
        <time>2016-11-20T14:58:47Z</time>
      </trkpt>
      <trkpt lat="43.85787" lon="1.96334">
        <ele>237.58</ele>
        <time>2016-11-20T14:58:52Z</time>
      </trkpt>
      <trkpt lat="43.85774" lon="1.96347">
        <ele>239.51</ele>
        <time>2016-11-20T14:59:09Z</time>
      </trkpt>
      <trkpt lat="43.85758" lon="1.96365">
        <ele>241.43</ele>
        <time>2016-11-20T14:59:26Z</time>
      </trkpt>
      <trkpt lat="43.8575" lon="1.9638">
        <ele>242.39</ele>
        <time>2016-11-20T14:59:40Z</time>
      </trkpt>
      <trkpt lat="43.8574" lon="1.96395">
        <ele>243.83</ele>
        <time>2016-11-20T14:59:55Z</time>
      </trkpt>
      <trkpt lat="43.85733" lon="1.96404">
        <ele>245.27</ele>
        <time>2016-11-20T15:00:04Z</time>
      </trkpt>
      <trkpt lat="43.8573" lon="1.96407">
        <ele>245.27</ele>
        <time>2016-11-20T15:00:07Z</time>
      </trkpt>
      <trkpt lat="43.85725" lon="1.96424">
        <ele>247.2</ele>
        <time>2016-11-20T15:00:22Z</time>
      </trkpt>
      <trkpt lat="43.8572" lon="1.96441">
        <ele>249.12</ele>
        <time>2016-11-20T15:00:38Z</time>
      </trkpt>
      <trkpt lat="43.85719" lon="1.9645">
        <ele>249.6</ele>
        <time>2016-11-20T15:00:45Z</time>
      </trkpt>
      <trkpt lat="43.85717" lon="1.96454">
        <ele>250.08</ele>
        <time>2016-11-20T15:00:48Z</time>
      </trkpt>
      <trkpt lat="43.85712" lon="1.96481">
        <ele>251.52</ele>
        <time>2016-11-20T15:01:05Z</time>
      </trkpt>
      <trkpt lat="43.85711" lon="1.96508">
        <ele>252</ele>
        <time>2016-11-20T15:01:21Z</time>
      </trkpt>
      <trkpt lat="43.85708" lon="1.96526">
        <ele>252.48</ele>
        <time>2016-11-20T15:01:31Z</time>
      </trkpt>
      <trkpt lat="43.85682" lon="1.96537">
        <ele>253.44</ele>
        <time>2016-11-20T15:01:49Z</time>
      </trkpt>
      <trkpt lat="43.85656" lon="1.96535">
        <ele>253.44</ele>
        <time>2016-11-20T15:02:08Z</time>
      </trkpt>
      <trkpt lat="43.85637" lon="1.96531">
        <ele>252.96</ele>
        <time>2016-11-20T15:02:24Z</time>
      </trkpt>
      <trkpt lat="43.85615" lon="1.96522">
        <ele>252</ele>
        <time>2016-11-20T15:02:44Z</time>
      </trkpt>
      <trkpt lat="43.85597" lon="1.9651">
        <ele>252</ele>
        <time>2016-11-20T15:03:02Z</time>
      </trkpt>
      <trkpt lat="43.85577" lon="1.96501">
        <ele>251.52</ele>
        <time>2016-11-20T15:03:20Z</time>
      </trkpt>
      <trkpt lat="43.85557" lon="1.96497">
        <ele>251.52</ele>
        <time>2016-11-20T15:03:38Z</time>
      </trkpt>
      <trkpt lat="43.85536" lon="1.96494">
        <ele>251.04</ele>
        <time>2016-11-20T15:03:56Z</time>
      </trkpt>
      <trkpt lat="43.85517" lon="1.96498">
        <ele>251.52</ele>
        <time>2016-11-20T15:04:13Z</time>
      </trkpt>
      <trkpt lat="43.85494" lon="1.96502">
        <ele>251.52</ele>
        <time>2016-11-20T15:04:33Z</time>
      </trkpt>
      <trkpt lat="43.85474" lon="1.96506">
        <ele>252.48</ele>
        <time>2016-11-20T15:04:51Z</time>
      </trkpt>
      <trkpt lat="43.85457" lon="1.96504">
        <ele>252.96</ele>
        <time>2016-11-20T15:05:07Z</time>
      </trkpt>
      <trkpt lat="43.85443" lon="1.96508">
        <ele>253.93</ele>
        <time>2016-11-20T15:05:24Z</time>
      </trkpt>
      <trkpt lat="43.85432" lon="1.96511">
        <ele>254.41</ele>
        <time>2016-11-20T15:05:38Z</time>
      </trkpt>
      <trkpt lat="43.85416" lon="1.96517">
        <ele>255.37</ele>
        <time>2016-11-20T15:05:54Z</time>
      </trkpt>
      <trkpt lat="43.85398" lon="1.96526">
        <ele>255.85</ele>
        <time>2016-11-20T15:06:10Z</time>
      </trkpt>
      <trkpt lat="43.85374" lon="1.96544">
        <ele>257.29</ele>
        <time>2016-11-20T15:06:31Z</time>
      </trkpt>
      <trkpt lat="43.85363" lon="1.96549">
        <ele>257.77</ele>
        <time>2016-11-20T15:06:42Z</time>
      </trkpt>
      <trkpt lat="43.85357" lon="1.96552">
        <ele>258.73</ele>
        <time>2016-11-20T15:06:48Z</time>
      </trkpt>
      <trkpt lat="43.8535" lon="1.96555">
        <ele>259.21</ele>
        <time>2016-11-20T15:06:54Z</time>
      </trkpt>
      <trkpt lat="43.85331" lon="1.96564">
        <ele>260.17</ele>
        <time>2016-11-20T15:07:12Z</time>
      </trkpt>
      <trkpt lat="43.85315" lon="1.96573">
        <ele>261.14</ele>
        <time>2016-11-20T15:07:28Z</time>
      </trkpt>
      <trkpt lat="43.85313" lon="1.96575">
        <ele>261.62</ele>
        <time>2016-11-20T15:07:31Z</time>
      </trkpt>
      <trkpt lat="43.8531" lon="1.96591">
        <ele>261.62</ele>
        <time>2016-11-20T15:07:45Z</time>
      </trkpt>
      <trkpt lat="43.8531" lon="1.96595">
        <ele>261.14</ele>
        <time>2016-11-20T15:07:49Z</time>
      </trkpt>
      <trkpt lat="43.85311" lon="1.96623">
        <ele>259.69</ele>
        <time>2016-11-20T15:08:07Z</time>
      </trkpt>
      <trkpt lat="43.85312" lon="1.96637">
        <ele>258.73</ele>
        <time>2016-11-20T15:08:16Z</time>
      </trkpt>
      <trkpt lat="43.85312" lon="1.96663">
        <ele>256.81</ele>
        <time>2016-11-20T15:08:33Z</time>
      </trkpt>
      <trkpt lat="43.8531" lon="1.96687">
        <ele>254.89</ele>
        <time>2016-11-20T15:08:49Z</time>
      </trkpt>
      <trkpt lat="43.85311" lon="1.96712">
        <ele>253.44</ele>
        <time>2016-11-20T15:09:04Z</time>
      </trkpt>
      <trkpt lat="43.85311" lon="1.96725">
        <ele>252.48</ele>
        <time>2016-11-20T15:09:12Z</time>
      </trkpt>
      <trkpt lat="43.85311" lon="1.96728">
        <ele>252</ele>
        <time>2016-11-20T15:09:14Z</time>
      </trkpt>
      <trkpt lat="43.85311" lon="1.96734">
        <ele>251.52</ele>
        <time>2016-11-20T15:09:18Z</time>
      </trkpt>
      <trkpt lat="43.85309" lon="1.96753">
        <ele>250.56</ele>
        <time>2016-11-20T15:09:30Z</time>
      </trkpt>
      <trkpt lat="43.85307" lon="1.96778">
        <ele>249.12</ele>
        <time>2016-11-20T15:09:46Z</time>
      </trkpt>
      <trkpt lat="43.85306" lon="1.96782">
        <ele>248.64</ele>
        <time>2016-11-20T15:09:49Z</time>
      </trkpt>
      <trkpt lat="43.85306" lon="1.96789">
        <ele>248.64</ele>
        <time>2016-11-20T15:09:53Z</time>
      </trkpt>
      <trkpt lat="43.85304" lon="1.96815">
        <ele>246.72</ele>
        <time>2016-11-20T15:10:11Z</time>
      </trkpt>
      <trkpt lat="43.85303" lon="1.96835">
        <ele>245.75</ele>
        <time>2016-11-20T15:10:26Z</time>
      </trkpt>
      <trkpt lat="43.85302" lon="1.96872">
        <ele>243.35</ele>
        <time>2016-11-20T15:10:46Z</time>
      </trkpt>
      <trkpt lat="43.85302" lon="1.96885">
        <ele>242.39</ele>
        <time>2016-11-20T15:10:54Z</time>
      </trkpt>
      <trkpt lat="43.853" lon="1.96915">
        <ele>241.43</ele>
        <time>2016-11-20T15:11:13Z</time>
      </trkpt>
      <trkpt lat="43.85296" lon="1.96944">
        <ele>240.47</ele>
        <time>2016-11-20T15:11:31Z</time>
      </trkpt>
      <trkpt lat="43.85288" lon="1.9697">
        <ele>239.02</ele>
        <time>2016-11-20T15:11:50Z</time>
      </trkpt>
      <trkpt lat="43.85275" lon="1.96992">
        <ele>237.58</ele>
        <time>2016-11-20T15:12:07Z</time>
      </trkpt>
      <trkpt lat="43.85263" lon="1.97018">
        <ele>234.7</ele>
        <time>2016-11-20T15:12:25Z</time>
      </trkpt>
      <trkpt lat="43.85251" lon="1.97041">
        <ele>232.78</ele>
        <time>2016-11-20T15:12:44Z</time>
      </trkpt>
      <trkpt lat="43.85242" lon="1.9706">
        <ele>230.37</ele>
        <time>2016-11-20T15:13:00Z</time>
      </trkpt>
      <trkpt lat="43.85236" lon="1.97085">
        <ele>227.97</ele>
        <time>2016-11-20T15:13:18Z</time>
      </trkpt>
      <trkpt lat="43.85232" lon="1.97111">
        <ele>226.53</ele>
        <time>2016-11-20T15:13:35Z</time>
      </trkpt>
      <trkpt lat="43.85229" lon="1.97143">
        <ele>224.61</ele>
        <time>2016-11-20T15:13:56Z</time>
      </trkpt>
      <trkpt lat="43.85225" lon="1.97172">
        <ele>222.2</ele>
        <time>2016-11-20T15:14:14Z</time>
      </trkpt>
      <trkpt lat="43.85221" lon="1.97197">
        <ele>220.76</ele>
        <time>2016-11-20T15:14:31Z</time>
      </trkpt>
      <trkpt lat="43.85214" lon="1.97224">
        <ele>218.84</ele>
        <time>2016-11-20T15:14:50Z</time>
      </trkpt>
      <trkpt lat="43.85214" lon="1.97225">
        <ele>218.84</ele>
        <time>2016-11-20T15:14:51Z</time>
      </trkpt>
      <trkpt lat="43.85207" lon="1.97255">
        <ele>216.43</ele>
        <time>2016-11-20T15:15:11Z</time>
      </trkpt>
      <trkpt lat="43.85206" lon="1.97261">
        <ele>215.95</ele>
        <time>2016-11-20T15:15:15Z</time>
      </trkpt>
      <trkpt lat="43.85199" lon="1.97283">
        <ele>213.55</ele>
        <time>2016-11-20T15:15:32Z</time>
      </trkpt>
      <trkpt lat="43.85191" lon="1.97307">
        <ele>211.63</ele>
        <time>2016-11-20T15:15:49Z</time>
      </trkpt>
      <trkpt lat="43.8519" lon="1.97311">
        <ele>211.15</ele>
        <time>2016-11-20T15:15:52Z</time>
      </trkpt>
      <trkpt lat="43.85181" lon="1.97335">
        <ele>208.26</ele>
        <time>2016-11-20T15:16:10Z</time>
      </trkpt>
      <trkpt lat="43.85179" lon="1.97341">
        <ele>207.78</ele>
        <time>2016-11-20T15:16:14Z</time>
      </trkpt>
      <trkpt lat="43.85174" lon="1.97356">
        <ele>206.34</ele>
        <time>2016-11-20T15:16:25Z</time>
      </trkpt>
      <trkpt lat="43.85168" lon="1.97381">
        <ele>204.42</ele>
        <time>2016-11-20T15:16:44Z</time>
      </trkpt>
      <trkpt lat="43.85164" lon="1.97407">
        <ele>202.49</ele>
        <time>2016-11-20T15:17:01Z</time>
      </trkpt>
      <trkpt lat="43.85164" lon="1.97409">
        <ele>202.49</ele>
        <time>2016-11-20T15:17:02Z</time>
      </trkpt>
      <trkpt lat="43.85161" lon="1.97435">
        <ele>201.05</ele>
        <time>2016-11-20T15:17:19Z</time>
      </trkpt>
      <trkpt lat="43.8516" lon="1.97462">
        <ele>200.09</ele>
        <time>2016-11-20T15:17:39Z</time>
      </trkpt>
      <trkpt lat="43.85157" lon="1.97492">
        <ele>198.65</ele>
        <time>2016-11-20T15:17:58Z</time>
      </trkpt>
      <trkpt lat="43.85155" lon="1.97519">
        <ele>197.69</ele>
        <time>2016-11-20T15:18:16Z</time>
      </trkpt>
      <trkpt lat="43.85154" lon="1.97524">
        <ele>197.69</ele>
        <time>2016-11-20T15:18:19Z</time>
      </trkpt>
      <trkpt lat="43.85152" lon="1.97552">
        <ele>196.73</ele>
        <time>2016-11-20T15:18:37Z</time>
      </trkpt>
      <trkpt lat="43.85149" lon="1.97579">
        <ele>196.73</ele>
        <time>2016-11-20T15:18:54Z</time>
      </trkpt>
      <trkpt lat="43.85147" lon="1.97581">
        <ele>196.73</ele>
        <time>2016-11-20T15:19:01Z</time>
      </trkpt>
      <trkpt lat="43.85147" lon="1.97587">
        <ele>196.73</ele>
        <time>2016-11-20T15:19:05Z</time>
      </trkpt>
      <trkpt lat="43.85142" lon="1.97621">
        <ele>196.25</ele>
        <time>2016-11-20T15:19:25Z</time>
      </trkpt>
      <trkpt lat="43.85136" lon="1.97652">
        <ele>195.77</ele>
        <time>2016-11-20T15:19:45Z</time>
      </trkpt>
      <trkpt lat="43.8513" lon="1.97679">
        <ele>195.77</ele>
        <time>2016-11-20T15:20:04Z</time>
      </trkpt>
      <trkpt lat="43.85124" lon="1.97711">
        <ele>196.73</ele>
        <time>2016-11-20T15:20:23Z</time>
      </trkpt>
      <trkpt lat="43.8512" lon="1.97735">
        <ele>197.21</ele>
        <time>2016-11-20T15:20:39Z</time>
      </trkpt>
      <trkpt lat="43.85115" lon="1.97759">
        <ele>197.69</ele>
        <time>2016-11-20T15:20:55Z</time>
      </trkpt>
      <trkpt lat="43.85109" lon="1.97787">
        <ele>198.65</ele>
        <time>2016-11-20T15:21:13Z</time>
      </trkpt>
      <trkpt lat="43.85103" lon="1.97808">
        <ele>199.13</ele>
        <time>2016-11-20T15:21:28Z</time>
      </trkpt>
      <trkpt lat="43.85101" lon="1.97824">
        <ele>199.61</ele>
        <time>2016-11-20T15:21:38Z</time>
      </trkpt>
      <trkpt lat="43.851" lon="1.9783">
        <ele>200.09</ele>
        <time>2016-11-20T15:21:42Z</time>
      </trkpt>
      <trkpt lat="43.85092" lon="1.97863">
        <ele>201.05</ele>
        <time>2016-11-20T15:22:02Z</time>
      </trkpt>
      <trkpt lat="43.85084" lon="1.97888">
        <ele>201.53</ele>
        <time>2016-11-20T15:22:19Z</time>
      </trkpt>
      <trkpt lat="43.85077" lon="1.97908">
        <ele>203.46</ele>
        <time>2016-11-20T15:22:34Z</time>
      </trkpt>
      <trkpt lat="43.85071" lon="1.97934">
        <ele>203.94</ele>
        <time>2016-11-20T15:22:51Z</time>
      </trkpt>
      <trkpt lat="43.85072" lon="1.9795">
        <ele>204.9</ele>
        <time>2016-11-20T15:23:02Z</time>
      </trkpt>
      <trkpt lat="43.85072" lon="1.97955">
        <ele>205.38</ele>
        <time>2016-11-20T15:23:06Z</time>
      </trkpt>
      <trkpt lat="43.85078" lon="1.97977">
        <ele>207.78</ele>
        <time>2016-11-20T15:23:23Z</time>
      </trkpt>
      <trkpt lat="43.85085" lon="1.98002">
        <ele>208.74</ele>
        <time>2016-11-20T15:23:41Z</time>
      </trkpt>
      <trkpt lat="43.85094" lon="1.98023">
        <ele>210.67</ele>
        <time>2016-11-20T15:24:00Z</time>
      </trkpt>
      <trkpt lat="43.85107" lon="1.98038">
        <ele>212.59</ele>
        <time>2016-11-20T15:24:16Z</time>
      </trkpt>
      <trkpt lat="43.85117" lon="1.98059">
        <ele>215.47</ele>
        <time>2016-11-20T15:24:35Z</time>
      </trkpt>
      <trkpt lat="43.85118" lon="1.98064">
        <ele>215.47</ele>
        <time>2016-11-20T15:24:38Z</time>
      </trkpt>
      <trkpt lat="43.85114" lon="1.98085">
        <ele>216.91</ele>
        <time>2016-11-20T15:24:52Z</time>
      </trkpt>
      <trkpt lat="43.85098" lon="1.98101">
        <ele>218.36</ele>
        <time>2016-11-20T15:25:10Z</time>
      </trkpt>
      <trkpt lat="43.85094" lon="1.98109">
        <ele>218.84</ele>
        <time>2016-11-20T15:25:16Z</time>
      </trkpt>
      <trkpt lat="43.85091" lon="1.98111">
        <ele>218.84</ele>
        <time>2016-11-20T15:25:18Z</time>
      </trkpt>
      <trkpt lat="43.85087" lon="1.98114">
        <ele>218.84</ele>
        <time>2016-11-20T15:25:22Z</time>
      </trkpt>
      <trkpt lat="43.85079" lon="1.98118">
        <ele>219.32</ele>
        <time>2016-11-20T15:25:30Z</time>
      </trkpt>
      <trkpt lat="43.85056" lon="1.98114">
        <ele>219.32</ele>
        <time>2016-11-20T15:25:48Z</time>
      </trkpt>
      <trkpt lat="43.85038" lon="1.98106">
        <ele>219.8</ele>
        <time>2016-11-20T15:26:04Z</time>
      </trkpt>
      <trkpt lat="43.85022" lon="1.98099">
        <ele>220.28</ele>
        <time>2016-11-20T15:26:20Z</time>
      </trkpt>
      <trkpt lat="43.85021" lon="1.98096">
        <ele>220.28</ele>
        <time>2016-11-20T15:26:32Z</time>
      </trkpt>
      <trkpt lat="43.85019" lon="1.98092">
        <ele>220.28</ele>
        <time>2016-11-20T15:26:49Z</time>
      </trkpt>
      <trkpt lat="43.85008" lon="1.9808">
        <ele>219.8</ele>
        <time>2016-11-20T15:27:05Z</time>
      </trkpt>
      <trkpt lat="43.85006" lon="1.98078">
        <ele>219.32</ele>
        <time>2016-11-20T15:27:21Z</time>
      </trkpt>
      <trkpt lat="43.85004" lon="1.98078">
        <ele>219.8</ele>
        <time>2016-11-20T15:27:41Z</time>
      </trkpt>
      <trkpt lat="43.85004" lon="1.98078">
        <ele>219.8</ele>
        <time>2016-11-20T15:28:03Z</time>
      </trkpt>
      <trkpt lat="43.85005" lon="1.98086">
        <ele>219.8</ele>
        <time>2016-11-20T15:28:07Z</time>
      </trkpt>
      <trkpt lat="43.85004" lon="1.98091">
        <ele>219.32</ele>
        <time>2016-11-20T15:28:16Z</time>
      </trkpt>
      <trkpt lat="43.84997" lon="1.98097">
        <ele>219.32</ele>
        <time>2016-11-20T15:28:24Z</time>
      </trkpt>
      <trkpt lat="43.84982" lon="1.98098">
        <ele>218.84</ele>
        <time>2016-11-20T15:28:33Z</time>
      </trkpt>
      <trkpt lat="43.84979" lon="1.98096">
        <ele>218.84</ele>
        <time>2016-11-20T15:28:35Z</time>
      </trkpt>
      <trkpt lat="43.84976" lon="1.98091">
        <ele>218.84</ele>
        <time>2016-11-20T15:28:39Z</time>
      </trkpt>
      <trkpt lat="43.84965" lon="1.98077">
        <ele>218.36</ele>
        <time>2016-11-20T15:28:56Z</time>
      </trkpt>
      <trkpt lat="43.84949" lon="1.98074">
        <ele>216.91</ele>
        <time>2016-11-20T15:29:13Z</time>
      </trkpt>
      <trkpt lat="43.84944" lon="1.98078">
        <ele>216.43</ele>
        <time>2016-11-20T15:29:24Z</time>
      </trkpt>
      <trkpt lat="43.84934" lon="1.98079">
        <ele>216.91</ele>
        <time>2016-11-20T15:29:33Z</time>
      </trkpt>
      <trkpt lat="43.84928" lon="1.98079">
        <ele>216.43</ele>
        <time>2016-11-20T15:29:38Z</time>
      </trkpt>
      <trkpt lat="43.84925" lon="1.98081">
        <ele>217.4</ele>
        <time>2016-11-20T15:29:43Z</time>
      </trkpt>
      <trkpt lat="43.84916" lon="1.98102">
        <ele>216.91</ele>
        <time>2016-11-20T15:30:03Z</time>
      </trkpt>
      <trkpt lat="43.84901" lon="1.98123">
        <ele>215.47</ele>
        <time>2016-11-20T15:30:23Z</time>
      </trkpt>
      <trkpt lat="43.84886" lon="1.98138">
        <ele>213.55</ele>
        <time>2016-11-20T15:30:41Z</time>
      </trkpt>
      <trkpt lat="43.84882" lon="1.98144">
        <ele>212.59</ele>
        <time>2016-11-20T15:30:47Z</time>
      </trkpt>
      <trkpt lat="43.84872" lon="1.98165">
        <ele>210.67</ele>
        <time>2016-11-20T15:31:06Z</time>
      </trkpt>
      <trkpt lat="43.84876" lon="1.9819">
        <ele>209.22</ele>
        <time>2016-11-20T15:31:24Z</time>
      </trkpt>
      <trkpt lat="43.84883" lon="1.9821">
        <ele>207.78</ele>
        <time>2016-11-20T15:31:41Z</time>
      </trkpt>
      <trkpt lat="43.84889" lon="1.9822">
        <ele>206.82</ele>
        <time>2016-11-20T15:31:50Z</time>
      </trkpt>
      <trkpt lat="43.84887" lon="1.98251">
        <ele>205.86</ele>
        <time>2016-11-20T15:32:08Z</time>
      </trkpt>
      <trkpt lat="43.84886" lon="1.98275">
        <ele>204.9</ele>
        <time>2016-11-20T15:32:26Z</time>
      </trkpt>
      <trkpt lat="43.84887" lon="1.9829">
        <ele>204.42</ele>
        <time>2016-11-20T15:32:36Z</time>
      </trkpt>
      <trkpt lat="43.84887" lon="1.98293">
        <ele>203.94</ele>
        <time>2016-11-20T15:32:38Z</time>
      </trkpt>
      <trkpt lat="43.84892" lon="1.98321">
        <ele>202.98</ele>
        <time>2016-11-20T15:32:57Z</time>
      </trkpt>
      <trkpt lat="43.84899" lon="1.98352">
        <ele>202.01</ele>
        <time>2016-11-20T15:33:17Z</time>
      </trkpt>
      <trkpt lat="43.84909" lon="1.98385">
        <ele>202.49</ele>
        <time>2016-11-20T15:33:39Z</time>
      </trkpt>
      <trkpt lat="43.84922" lon="1.98404">
        <ele>202.49</ele>
        <time>2016-11-20T15:33:57Z</time>
      </trkpt>
      <trkpt lat="43.84926" lon="1.98411">
        <ele>202.49</ele>
        <time>2016-11-20T15:34:03Z</time>
      </trkpt>
      <trkpt lat="43.84926" lon="1.98416">
        <ele>202.98</ele>
        <time>2016-11-20T15:34:19Z</time>
      </trkpt>
      <trkpt lat="43.84926" lon="1.98432">
        <ele>203.46</ele>
        <time>2016-11-20T15:34:33Z</time>
      </trkpt>
      <trkpt lat="43.84921" lon="1.98464">
        <ele>205.38</ele>
        <time>2016-11-20T15:34:50Z</time>
      </trkpt>
      <trkpt lat="43.84912" lon="1.98493">
        <ele>207.3</ele>
        <time>2016-11-20T15:35:12Z</time>
      </trkpt>
      <trkpt lat="43.84911" lon="1.98499">
        <ele>207.78</ele>
        <time>2016-11-20T15:35:16Z</time>
      </trkpt>
      <trkpt lat="43.84903" lon="1.98518">
        <ele>209.22</ele>
        <time>2016-11-20T15:35:31Z</time>
      </trkpt>
      <trkpt lat="43.84893" lon="1.98536">
        <ele>211.15</ele>
        <time>2016-11-20T15:35:48Z</time>
      </trkpt>
      <trkpt lat="43.84881" lon="1.98567">
        <ele>212.59</ele>
        <time>2016-11-20T15:36:06Z</time>
      </trkpt>
      <trkpt lat="43.8487" lon="1.98595">
        <ele>213.55</ele>
        <time>2016-11-20T15:36:25Z</time>
      </trkpt>
      <trkpt lat="43.84866" lon="1.98624">
        <ele>214.51</ele>
        <time>2016-11-20T15:36:44Z</time>
      </trkpt>
      <trkpt lat="43.84868" lon="1.98651">
        <ele>214.51</ele>
        <time>2016-11-20T15:37:02Z</time>
      </trkpt>
      <trkpt lat="43.84868" lon="1.98685">
        <ele>214.03</ele>
        <time>2016-11-20T15:37:21Z</time>
      </trkpt>
      <trkpt lat="43.84866" lon="1.98724">
        <ele>214.03</ele>
        <time>2016-11-20T15:37:43Z</time>
      </trkpt>
      <trkpt lat="43.84861" lon="1.98755">
        <ele>213.55</ele>
        <time>2016-11-20T15:38:02Z</time>
      </trkpt>
      <trkpt lat="43.8486" lon="1.98756">
        <ele>213.55</ele>
        <time>2016-11-20T15:38:03Z</time>
      </trkpt>
      <trkpt lat="43.84859" lon="1.98765">
        <ele>213.55</ele>
        <time>2016-11-20T15:38:08Z</time>
      </trkpt>
      <trkpt lat="43.84853" lon="1.98793">
        <ele>214.03</ele>
        <time>2016-11-20T15:38:26Z</time>
      </trkpt>
      <trkpt lat="43.84849" lon="1.98824">
        <ele>214.99</ele>
        <time>2016-11-20T15:38:46Z</time>
      </trkpt>
      <trkpt lat="43.84842" lon="1.98849">
        <ele>215.47</ele>
        <time>2016-11-20T15:39:03Z</time>
      </trkpt>
      <trkpt lat="43.84837" lon="1.98869">
        <ele>215.47</ele>
        <time>2016-11-20T15:39:16Z</time>
      </trkpt>
      <trkpt lat="43.84836" lon="1.98874">
        <ele>215.47</ele>
        <time>2016-11-20T15:39:20Z</time>
      </trkpt>
      <trkpt lat="43.8483" lon="1.98889">
        <ele>214.99</ele>
        <time>2016-11-20T15:39:31Z</time>
      </trkpt>
      <trkpt lat="43.84826" lon="1.98898">
        <ele>214.99</ele>
        <time>2016-11-20T15:39:37Z</time>
      </trkpt>
      <trkpt lat="43.84812" lon="1.9892">
        <ele>214.99</ele>
        <time>2016-11-20T15:39:55Z</time>
      </trkpt>
      <trkpt lat="43.84807" lon="1.98947">
        <ele>214.99</ele>
        <time>2016-11-20T15:40:14Z</time>
      </trkpt>
      <trkpt lat="43.84806" lon="1.98949">
        <ele>214.99</ele>
        <time>2016-11-20T15:40:16Z</time>
      </trkpt>
      <trkpt lat="43.848" lon="1.98976">
        <ele>215.47</ele>
        <time>2016-11-20T15:40:34Z</time>
      </trkpt>
      <trkpt lat="43.84799" lon="1.98979">
        <ele>215.47</ele>
        <time>2016-11-20T15:40:36Z</time>
      </trkpt>
      <trkpt lat="43.84797" lon="1.98987">
        <ele>215.47</ele>
        <time>2016-11-20T15:40:42Z</time>
      </trkpt>
      <trkpt lat="43.84785" lon="1.99011">
        <ele>214.99</ele>
        <time>2016-11-20T15:41:00Z</time>
      </trkpt>
      <trkpt lat="43.8478" lon="1.99017">
        <ele>214.99</ele>
        <time>2016-11-20T15:41:06Z</time>
      </trkpt>
      <trkpt lat="43.84781" lon="1.99019">
        <ele>214.99</ele>
        <time>2016-11-20T15:41:08Z</time>
      </trkpt>
      <trkpt lat="43.84786" lon="1.99027">
        <ele>213.55</ele>
        <time>2016-11-20T15:41:18Z</time>
      </trkpt>
      <trkpt lat="43.84788" lon="1.99031">
        <ele>213.07</ele>
        <time>2016-11-20T15:41:22Z</time>
      </trkpt>
      <trkpt lat="43.8479" lon="1.99034">
        <ele>212.59</ele>
        <time>2016-11-20T15:41:26Z</time>
      </trkpt>
      <trkpt lat="43.84792" lon="1.99037">
        <ele>212.11</ele>
        <time>2016-11-20T15:41:29Z</time>
      </trkpt>
      <trkpt lat="43.84801" lon="1.99053">
        <ele>209.7</ele>
        <time>2016-11-20T15:41:46Z</time>
      </trkpt>
      <trkpt lat="43.84813" lon="1.99071">
        <ele>207.78</ele>
        <time>2016-11-20T15:42:04Z</time>
      </trkpt>
      <trkpt lat="43.84814" lon="1.99073">
        <ele>207.3</ele>
        <time>2016-11-20T15:42:06Z</time>
      </trkpt>
      <trkpt lat="43.84815" lon="1.99075">
        <ele>207.3</ele>
        <time>2016-11-20T15:42:08Z</time>
      </trkpt>
      <trkpt lat="43.84823" lon="1.9909">
        <ele>206.34</ele>
        <time>2016-11-20T15:42:20Z</time>
      </trkpt>
      <trkpt lat="43.84827" lon="1.991">
        <ele>205.38</ele>
        <time>2016-11-20T15:42:27Z</time>
      </trkpt>
      <trkpt lat="43.84831" lon="1.99109">
        <ele>204.9</ele>
        <time>2016-11-20T15:42:35Z</time>
      </trkpt>
      <trkpt lat="43.84832" lon="1.99112">
        <ele>204.42</ele>
        <time>2016-11-20T15:42:37Z</time>
      </trkpt>
      <trkpt lat="43.84835" lon="1.99119">
        <ele>204.42</ele>
        <time>2016-11-20T15:42:42Z</time>
      </trkpt>
      <trkpt lat="43.84842" lon="1.99134">
        <ele>202.98</ele>
        <time>2016-11-20T15:42:54Z</time>
      </trkpt>
      <trkpt lat="43.8485" lon="1.99154">
        <ele>202.49</ele>
        <time>2016-11-20T15:43:09Z</time>
      </trkpt>
      <trkpt lat="43.84853" lon="1.99158">
        <ele>202.01</ele>
        <time>2016-11-20T15:43:13Z</time>
      </trkpt>
      <trkpt lat="43.84854" lon="1.99163">
        <ele>202.01</ele>
        <time>2016-11-20T15:43:17Z</time>
      </trkpt>
      <trkpt lat="43.84856" lon="1.99167">
        <ele>202.01</ele>
        <time>2016-11-20T15:43:20Z</time>
      </trkpt>
      <trkpt lat="43.84856" lon="1.9917">
        <ele>202.01</ele>
        <time>2016-11-20T15:43:22Z</time>
      </trkpt>
      <trkpt lat="43.84864" lon="1.99188">
        <ele>201.05</ele>
        <time>2016-11-20T15:43:36Z</time>
      </trkpt>
      <trkpt lat="43.84867" lon="1.99195">
        <ele>200.57</ele>
        <time>2016-11-20T15:43:41Z</time>
      </trkpt>
      <trkpt lat="43.84874" lon="1.99217">
        <ele>200.09</ele>
        <time>2016-11-20T15:43:56Z</time>
      </trkpt>
      <trkpt lat="43.84881" lon="1.99241">
        <ele>199.13</ele>
        <time>2016-11-20T15:44:13Z</time>
      </trkpt>
      <trkpt lat="43.84889" lon="1.99263">
        <ele>198.65</ele>
        <time>2016-11-20T15:44:30Z</time>
      </trkpt>
      <trkpt lat="43.84893" lon="1.99275">
        <ele>198.17</ele>
        <time>2016-11-20T15:44:38Z</time>
      </trkpt>
      <trkpt lat="43.84894" lon="1.99281">
        <ele>197.69</ele>
        <time>2016-11-20T15:44:42Z</time>
      </trkpt>
      <trkpt lat="43.84895" lon="1.99284">
        <ele>197.69</ele>
        <time>2016-11-20T15:44:44Z</time>
      </trkpt>
      <trkpt lat="43.84898" lon="1.99293">
        <ele>197.69</ele>
        <time>2016-11-20T15:44:50Z</time>
      </trkpt>
      <trkpt lat="43.84905" lon="1.9932">
        <ele>197.69</ele>
        <time>2016-11-20T15:45:07Z</time>
      </trkpt>
      <trkpt lat="43.84911" lon="1.99339">
        <ele>197.69</ele>
        <time>2016-11-20T15:45:20Z</time>
      </trkpt>
      <trkpt lat="43.84918" lon="1.99366">
        <ele>197.69</ele>
        <time>2016-11-20T15:45:38Z</time>
      </trkpt>
      <trkpt lat="43.84924" lon="1.99394">
        <ele>198.17</ele>
        <time>2016-11-20T15:45:57Z</time>
      </trkpt>
      <trkpt lat="43.84928" lon="1.99397">
        <ele>198.65</ele>
        <time>2016-11-20T15:46:05Z</time>
      </trkpt>
      <trkpt lat="43.84947" lon="1.9938">
        <ele>197.69</ele>
        <time>2016-11-20T15:46:27Z</time>
      </trkpt>
      <trkpt lat="43.84965" lon="1.99367">
        <ele>197.69</ele>
        <time>2016-11-20T15:46:46Z</time>
      </trkpt>
      <trkpt lat="43.84983" lon="1.99356">
        <ele>196.73</ele>
        <time>2016-11-20T15:47:03Z</time>
      </trkpt>
      <trkpt lat="43.85002" lon="1.99343">
        <ele>196.73</ele>
        <time>2016-11-20T15:47:21Z</time>
      </trkpt>
      <trkpt lat="43.85018" lon="1.99333">
        <ele>196.25</ele>
        <time>2016-11-20T15:47:37Z</time>
      </trkpt>
      <trkpt lat="43.85035" lon="1.99324">
        <ele>196.25</ele>
        <time>2016-11-20T15:47:52Z</time>
      </trkpt>
      <trkpt lat="43.85036" lon="1.99324">
        <ele>196.25</ele>
        <time>2016-11-20T15:47:53Z</time>
      </trkpt>
      <trkpt lat="43.85056" lon="1.99316">
        <ele>196.25</ele>
        <time>2016-11-20T15:48:12Z</time>
      </trkpt>
      <trkpt lat="43.85069" lon="1.99307">
        <ele>195.28</ele>
        <time>2016-11-20T15:48:26Z</time>
      </trkpt>
      <trkpt lat="43.85072" lon="1.99301">
        <ele>194.8</ele>
        <time>2016-11-20T15:48:30Z</time>
      </trkpt>
      <trkpt lat="43.85087" lon="1.99293">
        <ele>194.8</ele>
        <time>2016-11-20T15:48:44Z</time>
      </trkpt>
      <trkpt lat="43.85106" lon="1.99286">
        <ele>194.8</ele>
        <time>2016-11-20T15:49:03Z</time>
      </trkpt>
      <trkpt lat="43.85107" lon="1.99286">
        <ele>194.32</ele>
        <time>2016-11-20T15:49:04Z</time>
      </trkpt>
      <trkpt lat="43.85126" lon="1.99279">
        <ele>194.32</ele>
        <time>2016-11-20T15:49:22Z</time>
      </trkpt>
      <trkpt lat="43.85141" lon="1.99277">
        <ele>193.84</ele>
        <time>2016-11-20T15:49:40Z</time>
      </trkpt>
      <trkpt lat="43.85141" lon="1.99276">
        <ele>193.84</ele>
        <time>2016-11-20T15:49:42Z</time>
      </trkpt>
      <trkpt lat="43.85161" lon="1.99269">
        <ele>193.84</ele>
        <time>2016-11-20T15:50:01Z</time>
      </trkpt>
      <trkpt lat="43.85166" lon="1.99268">
        <ele>193.36</ele>
        <time>2016-11-20T15:50:10Z</time>
      </trkpt>
      <trkpt lat="43.8517" lon="1.99272">
        <ele>193.36</ele>
        <time>2016-11-20T15:50:17Z</time>
      </trkpt>
      <trkpt lat="43.85174" lon="1.99271">
        <ele>193.84</ele>
        <time>2016-11-20T15:50:21Z</time>
      </trkpt>
      <trkpt lat="43.85184" lon="1.99254">
        <ele>193.36</ele>
        <time>2016-11-20T15:50:39Z</time>
      </trkpt>
      <trkpt lat="43.85187" lon="1.99233">
        <ele>193.36</ele>
        <time>2016-11-20T15:50:53Z</time>
      </trkpt>
      <trkpt lat="43.8519" lon="1.99212">
        <ele>193.36</ele>
        <time>2016-11-20T15:51:09Z</time>
      </trkpt>
      <trkpt lat="43.85189" lon="1.99211">
        <ele>193.36</ele>
        <time>2016-11-20T15:51:10Z</time>
      </trkpt>
      <trkpt lat="43.85186" lon="1.99188">
        <ele>193.36</ele>
        <time>2016-11-20T15:51:27Z</time>
      </trkpt>
      <trkpt lat="43.85195" lon="1.99163">
        <ele>192.88</ele>
        <time>2016-11-20T15:51:43Z</time>
      </trkpt>
      <trkpt lat="43.85198" lon="1.99143">
        <ele>193.36</ele>
        <time>2016-11-20T15:52:01Z</time>
      </trkpt>
      <trkpt lat="43.85198" lon="1.99142">
        <ele>193.36</ele>
        <time>2016-11-20T15:52:02Z</time>
      </trkpt>
      <trkpt lat="43.85198" lon="1.99134">
        <ele>193.36</ele>
        <time>2016-11-20T15:52:08Z</time>
      </trkpt>
      <trkpt lat="43.85204" lon="1.99111">
        <ele>193.36</ele>
        <time>2016-11-20T15:52:23Z</time>
      </trkpt>
      <trkpt lat="43.85208" lon="1.99089">
        <ele>193.36</ele>
        <time>2016-11-20T15:52:38Z</time>
      </trkpt>
      <trkpt lat="43.85207" lon="1.99084">
        <ele>193.84</ele>
        <time>2016-11-20T15:52:42Z</time>
      </trkpt>
      <trkpt lat="43.85203" lon="1.99077">
        <ele>193.84</ele>
        <time>2016-11-20T15:52:57Z</time>
      </trkpt>
    </trkseg>
  </trk>
</gpx>